<?xml version="1.0" encoding="UTF-8" standalone="no" ?>
<gpx xmlns="http://www.topografix.com/GPX/1/1" xmlns:xsi="http://www.w3.org/2001/XMLSchema-instance" xsi:schemaLocation="http://www.topografix.com/GPX/1/1 http://www.topografix.com/GPX/1/1/gpx.xsd" version="1.1" creator="VisuGPX - https://www.visugpx.com">
  <metadata>
    <name>Le Petit Bessillon</name>
    <desc><![CDATA[

L\'eau coule à Barjols, dans les fontaines et du Vallon des Carmes. C\'est dans ce vallon que nous conduit le tracé vert et blanc, du centre du village vers les hauteurs du Castellas, en passant par la Cascade des Carmes. Puis, près de Ponteves, j\'ai quitté le tracé, me dirigeant vers le Petit Bessillon, \"Twin Pics\" de la Provence Verte. En suivant une marque rouge, l\'ascension est courte, mais la dénivelée importante. Un chemin de crête étroit et accidenté oriente jusqu\'à des fortifications ruinées, érigées au sommet, regardant le Gros Bessillon. La descente est tout aussi rude et brève que la montée, et j\'ai rejoint le vert et blanc qui m\'a fait traverser le village remarquable de Ponteves et visiter son château. De Ponteves à Barjols, le retour se fait en longeant l\'ancienne voie ferrée du centre var.]]></desc>
  </metadata>
  <trk>
    <name><![CDATA[Barjols_Le_Petit_Bessillon]]></name>
    <trkseg>
      <trkpt lat="43.55858" lon="6.00487">
        <ele>262.1</ele>
        <time>2012-02-28T07:48:15Z</time>
      </trkpt>
      <trkpt lat="43.55856" lon="6.00484">
        <ele>261.62</ele>
        <time>2012-02-28T07:48:18Z</time>
      </trkpt>
      <trkpt lat="43.5585" lon="6.00488">
        <ele>260.65</ele>
        <time>2012-02-28T07:48:23Z</time>
      </trkpt>
      <trkpt lat="43.55835" lon="6.00504">
        <ele>260.17</ele>
        <time>2012-02-28T07:48:43Z</time>
      </trkpt>
      <trkpt lat="43.55839" lon="6.00504">
        <ele>256.33</ele>
        <time>2012-02-28T07:49:12Z</time>
      </trkpt>
      <trkpt lat="43.5584" lon="6.00505">
        <ele>257.77</ele>
        <time>2012-02-28T07:49:40Z</time>
      </trkpt>
      <trkpt lat="43.5584" lon="6.00504">
        <ele>257.29</ele>
        <time>2012-02-28T07:50:12Z</time>
      </trkpt>
      <trkpt lat="43.55854" lon="6.00502">
        <ele>257.29</ele>
        <time>2012-02-28T07:50:28Z</time>
      </trkpt>
      <trkpt lat="43.55854" lon="6.00504">
        <ele>256.81</ele>
        <time>2012-02-28T07:50:30Z</time>
      </trkpt>
      <trkpt lat="43.55858" lon="6.00515">
        <ele>257.29</ele>
        <time>2012-02-28T07:50:38Z</time>
      </trkpt>
      <trkpt lat="43.55866" lon="6.00546">
        <ele>254.89</ele>
        <time>2012-02-28T07:51:04Z</time>
      </trkpt>
      <trkpt lat="43.55859" lon="6.00554">
        <ele>253.93</ele>
        <time>2012-02-28T07:51:14Z</time>
      </trkpt>
      <trkpt lat="43.55853" lon="6.00559">
        <ele>254.41</ele>
        <time>2012-02-28T07:51:20Z</time>
      </trkpt>
      <trkpt lat="43.55848" lon="6.00562">
        <ele>255.37</ele>
        <time>2012-02-28T07:51:23Z</time>
      </trkpt>
      <trkpt lat="43.55838" lon="6.00569">
        <ele>254.89</ele>
        <time>2012-02-28T07:51:35Z</time>
      </trkpt>
      <trkpt lat="43.55832" lon="6.0058">
        <ele>253.93</ele>
        <time>2012-02-28T07:51:46Z</time>
      </trkpt>
      <trkpt lat="43.55821" lon="6.00585">
        <ele>250.08</ele>
        <time>2012-02-28T07:52:05Z</time>
      </trkpt>
      <trkpt lat="43.55809" lon="6.00616">
        <ele>246.72</ele>
        <time>2012-02-28T07:52:31Z</time>
      </trkpt>
      <trkpt lat="43.55812" lon="6.00628">
        <ele>243.83</ele>
        <time>2012-02-28T07:52:55Z</time>
      </trkpt>
      <trkpt lat="43.55828" lon="6.00651">
        <ele>251.52</ele>
        <time>2012-02-28T07:53:16Z</time>
      </trkpt>
      <trkpt lat="43.55828" lon="6.00659">
        <ele>255.85</ele>
        <time>2012-02-28T07:53:34Z</time>
      </trkpt>
      <trkpt lat="43.55831" lon="6.00679">
        <ele>253.93</ele>
        <time>2012-02-28T07:53:53Z</time>
      </trkpt>
      <trkpt lat="43.55831" lon="6.007">
        <ele>255.85</ele>
        <time>2012-02-28T07:54:12Z</time>
      </trkpt>
      <trkpt lat="43.55829" lon="6.00718">
        <ele>261.62</ele>
        <time>2012-02-28T07:54:32Z</time>
      </trkpt>
      <trkpt lat="43.55828" lon="6.00723">
        <ele>268.35</ele>
        <time>2012-02-28T07:54:51Z</time>
      </trkpt>
      <trkpt lat="43.55829" lon="6.00728">
        <ele>272.67</ele>
        <time>2012-02-28T07:55:12Z</time>
      </trkpt>
      <trkpt lat="43.55827" lon="6.00742">
        <ele>273.15</ele>
        <time>2012-02-28T07:55:31Z</time>
      </trkpt>
      <trkpt lat="43.55837" lon="6.00755">
        <ele>275.07</ele>
        <time>2012-02-28T07:55:51Z</time>
      </trkpt>
      <trkpt lat="43.55838" lon="6.00756">
        <ele>275.07</ele>
        <time>2012-02-28T07:55:52Z</time>
      </trkpt>
      <trkpt lat="43.55853" lon="6.00758">
        <ele>275.07</ele>
        <time>2012-02-28T07:56:17Z</time>
      </trkpt>
      <trkpt lat="43.55855" lon="6.00754">
        <ele>276.52</ele>
        <time>2012-02-28T07:56:24Z</time>
      </trkpt>
      <trkpt lat="43.55857" lon="6.00753">
        <ele>276.52</ele>
        <time>2012-02-28T07:56:26Z</time>
      </trkpt>
      <trkpt lat="43.55866" lon="6.00748">
        <ele>284.21</ele>
        <time>2012-02-28T07:56:42Z</time>
      </trkpt>
      <trkpt lat="43.55866" lon="6.00748">
        <ele>284.21</ele>
        <time>2012-02-28T07:56:44Z</time>
      </trkpt>
      <trkpt lat="43.55873" lon="6.00752">
        <ele>283.73</ele>
        <time>2012-02-28T07:57:01Z</time>
      </trkpt>
      <trkpt lat="43.55875" lon="6.00756">
        <ele>282.28</ele>
        <time>2012-02-28T07:57:05Z</time>
      </trkpt>
      <trkpt lat="43.55882" lon="6.00755">
        <ele>284.69</ele>
        <time>2012-02-28T07:57:21Z</time>
      </trkpt>
      <trkpt lat="43.55887" lon="6.00763">
        <ele>287.57</ele>
        <time>2012-02-28T07:57:37Z</time>
      </trkpt>
      <trkpt lat="43.55892" lon="6.00772">
        <ele>289.49</ele>
        <time>2012-02-28T07:57:51Z</time>
      </trkpt>
      <trkpt lat="43.55893" lon="6.00776">
        <ele>290.46</ele>
        <time>2012-02-28T07:57:54Z</time>
      </trkpt>
      <trkpt lat="43.55898" lon="6.00793">
        <ele>295.26</ele>
        <time>2012-02-28T07:58:12Z</time>
      </trkpt>
      <trkpt lat="43.55905" lon="6.00812">
        <ele>299.59</ele>
        <time>2012-02-28T07:58:30Z</time>
      </trkpt>
      <trkpt lat="43.55904" lon="6.00814">
        <ele>300.55</ele>
        <time>2012-02-28T07:58:55Z</time>
      </trkpt>
      <trkpt lat="43.55908" lon="6.00824">
        <ele>301.03</ele>
        <time>2012-02-28T07:59:18Z</time>
      </trkpt>
      <trkpt lat="43.55912" lon="6.00826">
        <ele>300.55</ele>
        <time>2012-02-28T07:59:35Z</time>
      </trkpt>
      <trkpt lat="43.55909" lon="6.00829">
        <ele>301.03</ele>
        <time>2012-02-28T07:59:55Z</time>
      </trkpt>
      <trkpt lat="43.559" lon="6.00841">
        <ele>301.03</ele>
        <time>2012-02-28T08:00:09Z</time>
      </trkpt>
      <trkpt lat="43.55898" lon="6.00844">
        <ele>300.07</ele>
        <time>2012-02-28T08:00:15Z</time>
      </trkpt>
      <trkpt lat="43.55897" lon="6.00847">
        <ele>299.59</ele>
        <time>2012-02-28T08:00:18Z</time>
      </trkpt>
      <trkpt lat="43.55882" lon="6.00866">
        <ele>300.55</ele>
        <time>2012-02-28T08:00:36Z</time>
      </trkpt>
      <trkpt lat="43.55881" lon="6.00868">
        <ele>300.55</ele>
        <time>2012-02-28T08:00:38Z</time>
      </trkpt>
      <trkpt lat="43.55878" lon="6.00871">
        <ele>300.55</ele>
        <time>2012-02-28T08:00:41Z</time>
      </trkpt>
      <trkpt lat="43.5587" lon="6.00887">
        <ele>300.07</ele>
        <time>2012-02-28T08:00:54Z</time>
      </trkpt>
      <trkpt lat="43.55867" lon="6.00889">
        <ele>299.59</ele>
        <time>2012-02-28T08:00:58Z</time>
      </trkpt>
      <trkpt lat="43.55859" lon="6.00916">
        <ele>299.59</ele>
        <time>2012-02-28T08:01:18Z</time>
      </trkpt>
      <trkpt lat="43.55865" lon="6.00934">
        <ele>300.07</ele>
        <time>2012-02-28T08:01:30Z</time>
      </trkpt>
      <trkpt lat="43.5587" lon="6.00954">
        <ele>299.59</ele>
        <time>2012-02-28T08:01:44Z</time>
      </trkpt>
      <trkpt lat="43.55868" lon="6.00978">
        <ele>297.18</ele>
        <time>2012-02-28T08:02:01Z</time>
      </trkpt>
      <trkpt lat="43.55867" lon="6.00976">
        <ele>297.18</ele>
        <time>2012-02-28T08:02:03Z</time>
      </trkpt>
      <trkpt lat="43.55867" lon="6.00981">
        <ele>297.18</ele>
        <time>2012-02-28T08:02:06Z</time>
      </trkpt>
      <trkpt lat="43.55863" lon="6.00999">
        <ele>296.22</ele>
        <time>2012-02-28T08:02:20Z</time>
      </trkpt>
      <trkpt lat="43.55866" lon="6.01016">
        <ele>291.42</ele>
        <time>2012-02-28T08:02:39Z</time>
      </trkpt>
      <trkpt lat="43.55884" lon="6.01027">
        <ele>289.49</ele>
        <time>2012-02-28T08:02:54Z</time>
      </trkpt>
      <trkpt lat="43.55897" lon="6.01045">
        <ele>292.38</ele>
        <time>2012-02-28T08:03:17Z</time>
      </trkpt>
      <trkpt lat="43.55896" lon="6.01043">
        <ele>295.26</ele>
        <time>2012-02-28T08:03:38Z</time>
      </trkpt>
      <trkpt lat="43.55898" lon="6.01046">
        <ele>297.18</ele>
        <time>2012-02-28T08:03:48Z</time>
      </trkpt>
      <trkpt lat="43.55893" lon="6.01041">
        <ele>298.15</ele>
        <time>2012-02-28T08:03:53Z</time>
      </trkpt>
      <trkpt lat="43.55882" lon="6.01022">
        <ele>296.7</ele>
        <time>2012-02-28T08:04:10Z</time>
      </trkpt>
      <trkpt lat="43.55866" lon="6.01014">
        <ele>289.97</ele>
        <time>2012-02-28T08:04:27Z</time>
      </trkpt>
      <trkpt lat="43.55862" lon="6.01011">
        <ele>289.97</ele>
        <time>2012-02-28T08:04:31Z</time>
      </trkpt>
      <trkpt lat="43.55859" lon="6.01009">
        <ele>289.97</ele>
        <time>2012-02-28T08:04:34Z</time>
      </trkpt>
      <trkpt lat="43.55843" lon="6.00995">
        <ele>288.53</ele>
        <time>2012-02-28T08:04:50Z</time>
      </trkpt>
      <trkpt lat="43.55836" lon="6.00992">
        <ele>287.09</ele>
        <time>2012-02-28T08:04:58Z</time>
      </trkpt>
      <trkpt lat="43.55829" lon="6.00998">
        <ele>285.17</ele>
        <time>2012-02-28T08:05:09Z</time>
      </trkpt>
      <trkpt lat="43.55832" lon="6.01001">
        <ele>286.13</ele>
        <time>2012-02-28T08:05:15Z</time>
      </trkpt>
      <trkpt lat="43.55832" lon="6.01008">
        <ele>287.09</ele>
        <time>2012-02-28T08:05:18Z</time>
      </trkpt>
      <trkpt lat="43.55832" lon="6.0102">
        <ele>289.49</ele>
        <time>2012-02-28T08:05:27Z</time>
      </trkpt>
      <trkpt lat="43.55835" lon="6.01056">
        <ele>292.38</ele>
        <time>2012-02-28T08:05:49Z</time>
      </trkpt>
      <trkpt lat="43.55836" lon="6.01069">
        <ele>294.78</ele>
        <time>2012-02-28T08:06:07Z</time>
      </trkpt>
      <trkpt lat="43.55838" lon="6.01076">
        <ele>294.3</ele>
        <time>2012-02-28T08:06:20Z</time>
      </trkpt>
      <trkpt lat="43.5584" lon="6.01096">
        <ele>296.7</ele>
        <time>2012-02-28T08:06:44Z</time>
      </trkpt>
      <trkpt lat="43.55838" lon="6.01079">
        <ele>298.63</ele>
        <time>2012-02-28T08:06:52Z</time>
      </trkpt>
      <trkpt lat="43.5583" lon="6.01072">
        <ele>299.11</ele>
        <time>2012-02-28T08:07:07Z</time>
      </trkpt>
      <trkpt lat="43.55814" lon="6.01075">
        <ele>296.7</ele>
        <time>2012-02-28T08:07:24Z</time>
      </trkpt>
      <trkpt lat="43.55815" lon="6.01075">
        <ele>296.22</ele>
        <time>2012-02-28T08:07:44Z</time>
      </trkpt>
      <trkpt lat="43.55815" lon="6.01076">
        <ele>296.22</ele>
        <time>2012-02-28T08:08:15Z</time>
      </trkpt>
      <trkpt lat="43.55815" lon="6.01076">
        <ele>295.74</ele>
        <time>2012-02-28T08:08:31Z</time>
      </trkpt>
      <trkpt lat="43.55802" lon="6.01081">
        <ele>296.7</ele>
        <time>2012-02-28T08:08:43Z</time>
      </trkpt>
      <trkpt lat="43.55797" lon="6.01081">
        <ele>296.7</ele>
        <time>2012-02-28T08:08:47Z</time>
      </trkpt>
      <trkpt lat="43.55793" lon="6.01083">
        <ele>296.7</ele>
        <time>2012-02-28T08:08:50Z</time>
      </trkpt>
      <trkpt lat="43.5579" lon="6.01084">
        <ele>296.7</ele>
        <time>2012-02-28T08:08:54Z</time>
      </trkpt>
      <trkpt lat="43.55782" lon="6.01085">
        <ele>295.74</ele>
        <time>2012-02-28T08:09:01Z</time>
      </trkpt>
      <trkpt lat="43.55778" lon="6.01088">
        <ele>295.26</ele>
        <time>2012-02-28T08:09:05Z</time>
      </trkpt>
      <trkpt lat="43.55776" lon="6.01088">
        <ele>295.26</ele>
        <time>2012-02-28T08:09:07Z</time>
      </trkpt>
      <trkpt lat="43.55774" lon="6.01089">
        <ele>295.74</ele>
        <time>2012-02-28T08:09:09Z</time>
      </trkpt>
      <trkpt lat="43.55766" lon="6.01091">
        <ele>296.7</ele>
        <time>2012-02-28T08:09:16Z</time>
      </trkpt>
      <trkpt lat="43.55765" lon="6.01094">
        <ele>297.18</ele>
        <time>2012-02-28T08:09:19Z</time>
      </trkpt>
      <trkpt lat="43.55763" lon="6.01103">
        <ele>297.67</ele>
        <time>2012-02-28T08:09:24Z</time>
      </trkpt>
      <trkpt lat="43.55762" lon="6.01112">
        <ele>298.15</ele>
        <time>2012-02-28T08:09:29Z</time>
      </trkpt>
      <trkpt lat="43.5576" lon="6.01116">
        <ele>298.63</ele>
        <time>2012-02-28T08:09:33Z</time>
      </trkpt>
      <trkpt lat="43.55758" lon="6.01118">
        <ele>298.15</ele>
        <time>2012-02-28T08:09:35Z</time>
      </trkpt>
      <trkpt lat="43.55751" lon="6.01118">
        <ele>297.67</ele>
        <time>2012-02-28T08:09:42Z</time>
      </trkpt>
      <trkpt lat="43.55743" lon="6.0112">
        <ele>297.18</ele>
        <time>2012-02-28T08:09:49Z</time>
      </trkpt>
      <trkpt lat="43.5574" lon="6.01123">
        <ele>296.7</ele>
        <time>2012-02-28T08:09:53Z</time>
      </trkpt>
      <trkpt lat="43.55733" lon="6.01125">
        <ele>295.26</ele>
        <time>2012-02-28T08:10:00Z</time>
      </trkpt>
      <trkpt lat="43.55728" lon="6.01123">
        <ele>295.74</ele>
        <time>2012-02-28T08:10:05Z</time>
      </trkpt>
      <trkpt lat="43.55725" lon="6.01126">
        <ele>295.74</ele>
        <time>2012-02-28T08:10:08Z</time>
      </trkpt>
      <trkpt lat="43.55716" lon="6.01129">
        <ele>295.26</ele>
        <time>2012-02-28T08:10:17Z</time>
      </trkpt>
      <trkpt lat="43.55714" lon="6.01129">
        <ele>294.78</ele>
        <time>2012-02-28T08:10:19Z</time>
      </trkpt>
      <trkpt lat="43.55699" lon="6.01142">
        <ele>291.9</ele>
        <time>2012-02-28T08:10:35Z</time>
      </trkpt>
      <trkpt lat="43.55691" lon="6.0116">
        <ele>289.97</ele>
        <time>2012-02-28T08:10:50Z</time>
      </trkpt>
      <trkpt lat="43.5569" lon="6.01162">
        <ele>289.49</ele>
        <time>2012-02-28T08:10:52Z</time>
      </trkpt>
      <trkpt lat="43.55688" lon="6.01166">
        <ele>289.49</ele>
        <time>2012-02-28T08:10:56Z</time>
      </trkpt>
      <trkpt lat="43.55684" lon="6.01185">
        <ele>289.49</ele>
        <time>2012-02-28T08:11:13Z</time>
      </trkpt>
      <trkpt lat="43.55683" lon="6.01187">
        <ele>289.49</ele>
        <time>2012-02-28T08:11:15Z</time>
      </trkpt>
      <trkpt lat="43.55683" lon="6.01204">
        <ele>288.05</ele>
        <time>2012-02-28T08:11:24Z</time>
      </trkpt>
      <trkpt lat="43.55676" lon="6.01228">
        <ele>286.13</ele>
        <time>2012-02-28T08:11:41Z</time>
      </trkpt>
      <trkpt lat="43.55675" lon="6.01241">
        <ele>284.21</ele>
        <time>2012-02-28T08:11:53Z</time>
      </trkpt>
      <trkpt lat="43.55674" lon="6.01252">
        <ele>284.69</ele>
        <time>2012-02-28T08:12:06Z</time>
      </trkpt>
      <trkpt lat="43.55668" lon="6.01256">
        <ele>284.21</ele>
        <time>2012-02-28T08:12:15Z</time>
      </trkpt>
      <trkpt lat="43.55666" lon="6.01263">
        <ele>283.25</ele>
        <time>2012-02-28T08:12:33Z</time>
      </trkpt>
      <trkpt lat="43.55664" lon="6.01263">
        <ele>281.8</ele>
        <time>2012-02-28T08:12:42Z</time>
      </trkpt>
      <trkpt lat="43.55661" lon="6.01274">
        <ele>277.48</ele>
        <time>2012-02-28T08:12:57Z</time>
      </trkpt>
      <trkpt lat="43.5566" lon="6.01276">
        <ele>277</ele>
        <time>2012-02-28T08:12:59Z</time>
      </trkpt>
      <trkpt lat="43.55654" lon="6.01286">
        <ele>274.59</ele>
        <time>2012-02-28T08:13:18Z</time>
      </trkpt>
      <trkpt lat="43.55652" lon="6.01285">
        <ele>276.04</ele>
        <time>2012-02-28T08:13:23Z</time>
      </trkpt>
      <trkpt lat="43.55649" lon="6.01288">
        <ele>276.04</ele>
        <time>2012-02-28T08:13:40Z</time>
      </trkpt>
      <trkpt lat="43.55649" lon="6.01288">
        <ele>277.48</ele>
        <time>2012-02-28T08:14:04Z</time>
      </trkpt>
      <trkpt lat="43.55651" lon="6.01292">
        <ele>276.04</ele>
        <time>2012-02-28T08:14:29Z</time>
      </trkpt>
      <trkpt lat="43.55648" lon="6.01291">
        <ele>275.56</ele>
        <time>2012-02-28T08:14:49Z</time>
      </trkpt>
      <trkpt lat="43.55648" lon="6.01293">
        <ele>276.04</ele>
        <time>2012-02-28T08:15:11Z</time>
      </trkpt>
      <trkpt lat="43.55652" lon="6.01312">
        <ele>274.59</ele>
        <time>2012-02-28T08:15:31Z</time>
      </trkpt>
      <trkpt lat="43.55651" lon="6.01333">
        <ele>275.07</ele>
        <time>2012-02-28T08:15:56Z</time>
      </trkpt>
      <trkpt lat="43.55648" lon="6.01342">
        <ele>278.92</ele>
        <time>2012-02-28T08:16:22Z</time>
      </trkpt>
      <trkpt lat="43.55651" lon="6.01352">
        <ele>283.25</ele>
        <time>2012-02-28T08:16:44Z</time>
      </trkpt>
      <trkpt lat="43.55652" lon="6.01348">
        <ele>283.25</ele>
        <time>2012-02-28T08:17:06Z</time>
      </trkpt>
      <trkpt lat="43.55653" lon="6.01349">
        <ele>282.28</ele>
        <time>2012-02-28T08:17:32Z</time>
      </trkpt>
      <trkpt lat="43.55651" lon="6.01352">
        <ele>281.8</ele>
        <time>2012-02-28T08:18:02Z</time>
      </trkpt>
      <trkpt lat="43.55658" lon="6.01364">
        <ele>280.36</ele>
        <time>2012-02-28T08:18:21Z</time>
      </trkpt>
      <trkpt lat="43.55662" lon="6.01366">
        <ele>280.84</ele>
        <time>2012-02-28T08:18:36Z</time>
      </trkpt>
      <trkpt lat="43.55665" lon="6.01365">
        <ele>280.84</ele>
        <time>2012-02-28T08:18:42Z</time>
      </trkpt>
      <trkpt lat="43.55676" lon="6.01357">
        <ele>278.92</ele>
        <time>2012-02-28T08:18:56Z</time>
      </trkpt>
      <trkpt lat="43.55689" lon="6.01355">
        <ele>271.23</ele>
        <time>2012-02-28T08:19:11Z</time>
      </trkpt>
      <trkpt lat="43.55691" lon="6.0135">
        <ele>267.38</ele>
        <time>2012-02-28T08:19:28Z</time>
      </trkpt>
      <trkpt lat="43.55691" lon="6.0135">
        <ele>267.38</ele>
        <time>2012-02-28T08:19:29Z</time>
      </trkpt>
      <trkpt lat="43.55688" lon="6.0134">
        <ele>264.02</ele>
        <time>2012-02-28T08:19:44Z</time>
      </trkpt>
      <trkpt lat="43.55691" lon="6.01335">
        <ele>266.42</ele>
        <time>2012-02-28T08:20:04Z</time>
      </trkpt>
      <trkpt lat="43.55697" lon="6.01331">
        <ele>267.86</ele>
        <time>2012-02-28T08:20:23Z</time>
      </trkpt>
      <trkpt lat="43.55695" lon="6.01332">
        <ele>268.83</ele>
        <time>2012-02-28T08:20:43Z</time>
      </trkpt>
      <trkpt lat="43.55694" lon="6.01334">
        <ele>269.31</ele>
        <time>2012-02-28T08:20:59Z</time>
      </trkpt>
      <trkpt lat="43.55693" lon="6.01341">
        <ele>269.31</ele>
        <time>2012-02-28T08:21:15Z</time>
      </trkpt>
      <trkpt lat="43.55691" lon="6.01345">
        <ele>269.79</ele>
        <time>2012-02-28T08:21:48Z</time>
      </trkpt>
      <trkpt lat="43.55693" lon="6.01352">
        <ele>270.75</ele>
        <time>2012-02-28T08:22:04Z</time>
      </trkpt>
      <trkpt lat="43.55687" lon="6.01351">
        <ele>271.71</ele>
        <time>2012-02-28T08:22:20Z</time>
      </trkpt>
      <trkpt lat="43.55684" lon="6.01351">
        <ele>272.19</ele>
        <time>2012-02-28T08:22:23Z</time>
      </trkpt>
      <trkpt lat="43.55675" lon="6.01359">
        <ele>274.59</ele>
        <time>2012-02-28T08:22:39Z</time>
      </trkpt>
      <trkpt lat="43.55666" lon="6.01362">
        <ele>279.4</ele>
        <time>2012-02-28T08:22:58Z</time>
      </trkpt>
      <trkpt lat="43.55655" lon="6.01369">
        <ele>288.53</ele>
        <time>2012-02-28T08:23:16Z</time>
      </trkpt>
      <trkpt lat="43.55646" lon="6.0137">
        <ele>294.78</ele>
        <time>2012-02-28T08:23:33Z</time>
      </trkpt>
      <trkpt lat="43.55637" lon="6.01373">
        <ele>298.15</ele>
        <time>2012-02-28T08:23:50Z</time>
      </trkpt>
      <trkpt lat="43.55635" lon="6.01374">
        <ele>298.63</ele>
        <time>2012-02-28T08:24:13Z</time>
      </trkpt>
      <trkpt lat="43.55634" lon="6.01374">
        <ele>299.11</ele>
        <time>2012-02-28T08:24:21Z</time>
      </trkpt>
      <trkpt lat="43.55627" lon="6.01371">
        <ele>301.03</ele>
        <time>2012-02-28T08:24:27Z</time>
      </trkpt>
      <trkpt lat="43.55622" lon="6.01371">
        <ele>305.36</ele>
        <time>2012-02-28T08:24:47Z</time>
      </trkpt>
      <trkpt lat="43.55615" lon="6.01375">
        <ele>306.8</ele>
        <time>2012-02-28T08:25:09Z</time>
      </trkpt>
      <trkpt lat="43.55613" lon="6.01384">
        <ele>307.76</ele>
        <time>2012-02-28T08:25:28Z</time>
      </trkpt>
      <trkpt lat="43.55608" lon="6.01383">
        <ele>311.6</ele>
        <time>2012-02-28T08:25:45Z</time>
      </trkpt>
      <trkpt lat="43.55606" lon="6.01386">
        <ele>313.53</ele>
        <time>2012-02-28T08:25:58Z</time>
      </trkpt>
      <trkpt lat="43.55607" lon="6.01393">
        <ele>312.57</ele>
        <time>2012-02-28T08:26:21Z</time>
      </trkpt>
      <trkpt lat="43.55604" lon="6.01396">
        <ele>314.01</ele>
        <time>2012-02-28T08:26:28Z</time>
      </trkpt>
      <trkpt lat="43.55599" lon="6.01393">
        <ele>317.37</ele>
        <time>2012-02-28T08:26:44Z</time>
      </trkpt>
      <trkpt lat="43.55593" lon="6.01389">
        <ele>321.22</ele>
        <time>2012-02-28T08:27:04Z</time>
      </trkpt>
      <trkpt lat="43.55592" lon="6.01396">
        <ele>321.22</ele>
        <time>2012-02-28T08:27:25Z</time>
      </trkpt>
      <trkpt lat="43.55588" lon="6.01408">
        <ele>321.22</ele>
        <time>2012-02-28T08:27:45Z</time>
      </trkpt>
      <trkpt lat="43.55588" lon="6.01419">
        <ele>323.14</ele>
        <time>2012-02-28T08:28:08Z</time>
      </trkpt>
      <trkpt lat="43.55587" lon="6.01427">
        <ele>326.99</ele>
        <time>2012-02-28T08:28:28Z</time>
      </trkpt>
      <trkpt lat="43.55579" lon="6.01426">
        <ele>330.83</ele>
        <time>2012-02-28T08:28:49Z</time>
      </trkpt>
      <trkpt lat="43.55576" lon="6.01431">
        <ele>335.16</ele>
        <time>2012-02-28T08:29:10Z</time>
      </trkpt>
      <trkpt lat="43.55573" lon="6.0144">
        <ele>339</ele>
        <time>2012-02-28T08:29:34Z</time>
      </trkpt>
      <trkpt lat="43.55565" lon="6.01435">
        <ele>342.85</ele>
        <time>2012-02-28T08:29:53Z</time>
      </trkpt>
      <trkpt lat="43.55561" lon="6.01443">
        <ele>343.81</ele>
        <time>2012-02-28T08:30:08Z</time>
      </trkpt>
      <trkpt lat="43.55556" lon="6.01445">
        <ele>345.73</ele>
        <time>2012-02-28T08:30:26Z</time>
      </trkpt>
      <trkpt lat="43.55553" lon="6.01438">
        <ele>347.65</ele>
        <time>2012-02-28T08:30:42Z</time>
      </trkpt>
      <trkpt lat="43.55551" lon="6.01431">
        <ele>350.06</ele>
        <time>2012-02-28T08:30:53Z</time>
      </trkpt>
      <trkpt lat="43.55546" lon="6.01422">
        <ele>351.98</ele>
        <time>2012-02-28T08:31:10Z</time>
      </trkpt>
      <trkpt lat="43.55539" lon="6.0142">
        <ele>353.9</ele>
        <time>2012-02-28T08:31:28Z</time>
      </trkpt>
      <trkpt lat="43.55533" lon="6.01409">
        <ele>355.83</ele>
        <time>2012-02-28T08:31:44Z</time>
      </trkpt>
      <trkpt lat="43.55529" lon="6.01395">
        <ele>357.75</ele>
        <time>2012-02-28T08:31:58Z</time>
      </trkpt>
      <trkpt lat="43.5553" lon="6.0139">
        <ele>357.27</ele>
        <time>2012-02-28T08:32:08Z</time>
      </trkpt>
      <trkpt lat="43.55531" lon="6.01387">
        <ele>357.27</ele>
        <time>2012-02-28T08:32:10Z</time>
      </trkpt>
      <trkpt lat="43.55531" lon="6.01385">
        <ele>357.27</ele>
        <time>2012-02-28T08:32:12Z</time>
      </trkpt>
      <trkpt lat="43.55533" lon="6.01383">
        <ele>357.75</ele>
        <time>2012-02-28T08:32:14Z</time>
      </trkpt>
      <trkpt lat="43.55536" lon="6.01367">
        <ele>358.23</ele>
        <time>2012-02-28T08:32:28Z</time>
      </trkpt>
      <trkpt lat="43.55536" lon="6.01365">
        <ele>357.75</ele>
        <time>2012-02-28T08:32:29Z</time>
      </trkpt>
      <trkpt lat="43.55539" lon="6.01355">
        <ele>357.75</ele>
        <time>2012-02-28T08:32:37Z</time>
      </trkpt>
      <trkpt lat="43.55537" lon="6.01353">
        <ele>357.75</ele>
        <time>2012-02-28T08:32:39Z</time>
      </trkpt>
      <trkpt lat="43.55538" lon="6.01348">
        <ele>359.19</ele>
        <time>2012-02-28T08:32:43Z</time>
      </trkpt>
      <trkpt lat="43.55539" lon="6.01342">
        <ele>359.19</ele>
        <time>2012-02-28T08:32:48Z</time>
      </trkpt>
      <trkpt lat="43.5554" lon="6.01337">
        <ele>358.71</ele>
        <time>2012-02-28T08:32:52Z</time>
      </trkpt>
      <trkpt lat="43.55541" lon="6.01334">
        <ele>359.67</ele>
        <time>2012-02-28T08:32:55Z</time>
      </trkpt>
      <trkpt lat="43.55543" lon="6.01319">
        <ele>360.63</ele>
        <time>2012-02-28T08:33:11Z</time>
      </trkpt>
      <trkpt lat="43.55546" lon="6.01302">
        <ele>358.71</ele>
        <time>2012-02-28T08:33:26Z</time>
      </trkpt>
      <trkpt lat="43.55549" lon="6.01298">
        <ele>357.27</ele>
        <time>2012-02-28T08:33:43Z</time>
      </trkpt>
      <trkpt lat="43.55549" lon="6.01298">
        <ele>356.79</ele>
        <time>2012-02-28T08:33:46Z</time>
      </trkpt>
      <trkpt lat="43.55545" lon="6.01297">
        <ele>355.83</ele>
        <time>2012-02-28T08:34:08Z</time>
      </trkpt>
      <trkpt lat="43.55545" lon="6.01297">
        <ele>355.83</ele>
        <time>2012-02-28T08:34:28Z</time>
      </trkpt>
      <trkpt lat="43.55545" lon="6.01297">
        <ele>355.83</ele>
        <time>2012-02-28T08:34:58Z</time>
      </trkpt>
      <trkpt lat="43.55548" lon="6.013">
        <ele>354.38</ele>
        <time>2012-02-28T08:35:24Z</time>
      </trkpt>
      <trkpt lat="43.55547" lon="6.01298">
        <ele>354.38</ele>
        <time>2012-02-28T08:35:58Z</time>
      </trkpt>
      <trkpt lat="43.55546" lon="6.01298">
        <ele>354.86</ele>
        <time>2012-02-28T08:36:15Z</time>
      </trkpt>
      <trkpt lat="43.55546" lon="6.01298">
        <ele>354.86</ele>
        <time>2012-02-28T08:36:40Z</time>
      </trkpt>
      <trkpt lat="43.55544" lon="6.013">
        <ele>354.86</ele>
        <time>2012-02-28T08:36:57Z</time>
      </trkpt>
      <trkpt lat="43.55545" lon="6.01298">
        <ele>354.38</ele>
        <time>2012-02-28T08:37:23Z</time>
      </trkpt>
      <trkpt lat="43.55545" lon="6.01298">
        <ele>354.86</ele>
        <time>2012-02-28T08:38:00Z</time>
      </trkpt>
      <trkpt lat="43.55545" lon="6.01297">
        <ele>354.38</ele>
        <time>2012-02-28T08:38:39Z</time>
      </trkpt>
      <trkpt lat="43.55546" lon="6.01297">
        <ele>354.38</ele>
        <time>2012-02-28T08:39:16Z</time>
      </trkpt>
      <trkpt lat="43.55545" lon="6.01297">
        <ele>354.38</ele>
        <time>2012-02-28T08:39:51Z</time>
      </trkpt>
      <trkpt lat="43.55546" lon="6.01297">
        <ele>354.38</ele>
        <time>2012-02-28T08:40:26Z</time>
      </trkpt>
      <trkpt lat="43.55546" lon="6.01297">
        <ele>355.34</ele>
        <time>2012-02-28T08:41:15Z</time>
      </trkpt>
      <trkpt lat="43.55544" lon="6.01298">
        <ele>354.86</ele>
        <time>2012-02-28T08:41:47Z</time>
      </trkpt>
      <trkpt lat="43.55546" lon="6.01298">
        <ele>355.34</ele>
        <time>2012-02-28T08:42:31Z</time>
      </trkpt>
      <trkpt lat="43.55545" lon="6.01299">
        <ele>355.34</ele>
        <time>2012-02-28T08:42:53Z</time>
      </trkpt>
      <trkpt lat="43.55544" lon="6.01298">
        <ele>354.86</ele>
        <time>2012-02-28T08:43:28Z</time>
      </trkpt>
      <trkpt lat="43.55542" lon="6.013">
        <ele>354.38</ele>
        <time>2012-02-28T08:43:49Z</time>
      </trkpt>
      <trkpt lat="43.5554" lon="6.01309">
        <ele>352.46</ele>
        <time>2012-02-28T08:43:56Z</time>
      </trkpt>
      <trkpt lat="43.55541" lon="6.01312">
        <ele>351.98</ele>
        <time>2012-02-28T08:43:59Z</time>
      </trkpt>
      <trkpt lat="43.5554" lon="6.01325">
        <ele>351.5</ele>
        <time>2012-02-28T08:44:09Z</time>
      </trkpt>
      <trkpt lat="43.5554" lon="6.01339">
        <ele>351.5</ele>
        <time>2012-02-28T08:44:28Z</time>
      </trkpt>
      <trkpt lat="43.55538" lon="6.01342">
        <ele>351.98</ele>
        <time>2012-02-28T08:44:31Z</time>
      </trkpt>
      <trkpt lat="43.55539" lon="6.01354">
        <ele>353.42</ele>
        <time>2012-02-28T08:44:41Z</time>
      </trkpt>
      <trkpt lat="43.55535" lon="6.01373">
        <ele>356.31</ele>
        <time>2012-02-28T08:44:58Z</time>
      </trkpt>
      <trkpt lat="43.55529" lon="6.01399">
        <ele>357.75</ele>
        <time>2012-02-28T08:45:18Z</time>
      </trkpt>
      <trkpt lat="43.55523" lon="6.01421">
        <ele>357.75</ele>
        <time>2012-02-28T08:45:37Z</time>
      </trkpt>
      <trkpt lat="43.55512" lon="6.0144">
        <ele>360.15</ele>
        <time>2012-02-28T08:45:59Z</time>
      </trkpt>
      <trkpt lat="43.555" lon="6.01458">
        <ele>363.04</ele>
        <time>2012-02-28T08:46:21Z</time>
      </trkpt>
      <trkpt lat="43.55499" lon="6.01461">
        <ele>362.55</ele>
        <time>2012-02-28T08:46:24Z</time>
      </trkpt>
      <trkpt lat="43.55491" lon="6.01476">
        <ele>364</ele>
        <time>2012-02-28T08:46:39Z</time>
      </trkpt>
      <trkpt lat="43.55489" lon="6.01479">
        <ele>364.96</ele>
        <time>2012-02-28T08:46:43Z</time>
      </trkpt>
      <trkpt lat="43.55483" lon="6.01488">
        <ele>366.4</ele>
        <time>2012-02-28T08:46:52Z</time>
      </trkpt>
      <trkpt lat="43.55474" lon="6.01504">
        <ele>369.28</ele>
        <time>2012-02-28T08:47:09Z</time>
      </trkpt>
      <trkpt lat="43.55467" lon="6.01521">
        <ele>370.73</ele>
        <time>2012-02-28T08:47:25Z</time>
      </trkpt>
      <trkpt lat="43.55466" lon="6.01523">
        <ele>370.73</ele>
        <time>2012-02-28T08:47:27Z</time>
      </trkpt>
      <trkpt lat="43.55459" lon="6.01546">
        <ele>369.76</ele>
        <time>2012-02-28T08:47:47Z</time>
      </trkpt>
      <trkpt lat="43.55453" lon="6.01553">
        <ele>370.73</ele>
        <time>2012-02-28T08:47:56Z</time>
      </trkpt>
      <trkpt lat="43.55443" lon="6.01558">
        <ele>371.69</ele>
        <time>2012-02-28T08:48:07Z</time>
      </trkpt>
      <trkpt lat="43.55426" lon="6.01563">
        <ele>373.13</ele>
        <time>2012-02-28T08:48:25Z</time>
      </trkpt>
      <trkpt lat="43.55424" lon="6.01564">
        <ele>373.61</ele>
        <time>2012-02-28T08:48:27Z</time>
      </trkpt>
      <trkpt lat="43.55423" lon="6.01566">
        <ele>373.61</ele>
        <time>2012-02-28T08:48:29Z</time>
      </trkpt>
      <trkpt lat="43.55418" lon="6.01572">
        <ele>374.57</ele>
        <time>2012-02-28T08:48:41Z</time>
      </trkpt>
      <trkpt lat="43.55414" lon="6.01571">
        <ele>376.01</ele>
        <time>2012-02-28T08:48:59Z</time>
      </trkpt>
      <trkpt lat="43.55416" lon="6.01575">
        <ele>376.49</ele>
        <time>2012-02-28T08:49:34Z</time>
      </trkpt>
      <trkpt lat="43.55414" lon="6.0158">
        <ele>376.49</ele>
        <time>2012-02-28T08:49:38Z</time>
      </trkpt>
      <trkpt lat="43.55409" lon="6.01586">
        <ele>376.49</ele>
        <time>2012-02-28T08:49:45Z</time>
      </trkpt>
      <trkpt lat="43.55406" lon="6.0159">
        <ele>376.97</ele>
        <time>2012-02-28T08:49:49Z</time>
      </trkpt>
      <trkpt lat="43.55406" lon="6.01595">
        <ele>377.45</ele>
        <time>2012-02-28T08:49:52Z</time>
      </trkpt>
      <trkpt lat="43.55395" lon="6.01615">
        <ele>378.42</ele>
        <time>2012-02-28T08:50:11Z</time>
      </trkpt>
      <trkpt lat="43.55386" lon="6.01638">
        <ele>376.97</ele>
        <time>2012-02-28T08:50:28Z</time>
      </trkpt>
      <trkpt lat="43.55375" lon="6.01661">
        <ele>375.05</ele>
        <time>2012-02-28T08:50:49Z</time>
      </trkpt>
      <trkpt lat="43.5537" lon="6.0167">
        <ele>375.53</ele>
        <time>2012-02-28T08:50:57Z</time>
      </trkpt>
      <trkpt lat="43.55359" lon="6.01691">
        <ele>377.45</ele>
        <time>2012-02-28T08:51:15Z</time>
      </trkpt>
      <trkpt lat="43.55349" lon="6.01711">
        <ele>377.45</ele>
        <time>2012-02-28T08:51:33Z</time>
      </trkpt>
      <trkpt lat="43.55336" lon="6.01732">
        <ele>379.86</ele>
        <time>2012-02-28T08:51:52Z</time>
      </trkpt>
      <trkpt lat="43.55336" lon="6.01737">
        <ele>380.34</ele>
        <time>2012-02-28T08:51:56Z</time>
      </trkpt>
      <trkpt lat="43.55328" lon="6.01755">
        <ele>381.3</ele>
        <time>2012-02-28T08:52:12Z</time>
      </trkpt>
      <trkpt lat="43.55318" lon="6.01774">
        <ele>383.7</ele>
        <time>2012-02-28T08:52:29Z</time>
      </trkpt>
      <trkpt lat="43.55317" lon="6.01775">
        <ele>383.7</ele>
        <time>2012-02-28T08:52:31Z</time>
      </trkpt>
      <trkpt lat="43.55315" lon="6.01778">
        <ele>384.18</ele>
        <time>2012-02-28T08:52:33Z</time>
      </trkpt>
      <trkpt lat="43.55308" lon="6.0179">
        <ele>386.11</ele>
        <time>2012-02-28T08:52:50Z</time>
      </trkpt>
      <trkpt lat="43.55304" lon="6.01799">
        <ele>386.11</ele>
        <time>2012-02-28T08:52:57Z</time>
      </trkpt>
      <trkpt lat="43.55295" lon="6.01818">
        <ele>386.59</ele>
        <time>2012-02-28T08:53:13Z</time>
      </trkpt>
      <trkpt lat="43.55283" lon="6.01841">
        <ele>388.03</ele>
        <time>2012-02-28T08:53:32Z</time>
      </trkpt>
      <trkpt lat="43.55279" lon="6.01853">
        <ele>388.99</ele>
        <time>2012-02-28T08:53:40Z</time>
      </trkpt>
      <trkpt lat="43.55272" lon="6.01865">
        <ele>389.47</ele>
        <time>2012-02-28T08:53:51Z</time>
      </trkpt>
      <trkpt lat="43.55268" lon="6.01882">
        <ele>388.99</ele>
        <time>2012-02-28T08:54:02Z</time>
      </trkpt>
      <trkpt lat="43.55262" lon="6.01897">
        <ele>389.47</ele>
        <time>2012-02-28T08:54:14Z</time>
      </trkpt>
      <trkpt lat="43.55256" lon="6.0191">
        <ele>388.51</ele>
        <time>2012-02-28T08:54:25Z</time>
      </trkpt>
      <trkpt lat="43.55253" lon="6.01917">
        <ele>388.03</ele>
        <time>2012-02-28T08:54:30Z</time>
      </trkpt>
      <trkpt lat="43.55245" lon="6.01933">
        <ele>385.63</ele>
        <time>2012-02-28T08:54:45Z</time>
      </trkpt>
      <trkpt lat="43.55242" lon="6.01937">
        <ele>384.18</ele>
        <time>2012-02-28T08:54:49Z</time>
      </trkpt>
      <trkpt lat="43.55233" lon="6.01945">
        <ele>383.22</ele>
        <time>2012-02-28T08:55:00Z</time>
      </trkpt>
      <trkpt lat="43.55231" lon="6.01949">
        <ele>383.22</ele>
        <time>2012-02-28T08:55:03Z</time>
      </trkpt>
      <trkpt lat="43.55223" lon="6.01957">
        <ele>382.26</ele>
        <time>2012-02-28T08:55:14Z</time>
      </trkpt>
      <trkpt lat="43.55208" lon="6.01968">
        <ele>380.82</ele>
        <time>2012-02-28T08:55:29Z</time>
      </trkpt>
      <trkpt lat="43.55205" lon="6.01972">
        <ele>379.86</ele>
        <time>2012-02-28T08:55:34Z</time>
      </trkpt>
      <trkpt lat="43.55194" lon="6.01982">
        <ele>377.94</ele>
        <time>2012-02-28T08:55:46Z</time>
      </trkpt>
      <trkpt lat="43.55192" lon="6.01983">
        <ele>377.45</ele>
        <time>2012-02-28T08:55:48Z</time>
      </trkpt>
      <trkpt lat="43.5518" lon="6.01996">
        <ele>374.09</ele>
        <time>2012-02-28T08:56:06Z</time>
      </trkpt>
      <trkpt lat="43.55178" lon="6.01998">
        <ele>374.09</ele>
        <time>2012-02-28T08:56:08Z</time>
      </trkpt>
      <trkpt lat="43.55173" lon="6.02007">
        <ele>373.61</ele>
        <time>2012-02-28T08:56:14Z</time>
      </trkpt>
      <trkpt lat="43.5516" lon="6.02022">
        <ele>372.65</ele>
        <time>2012-02-28T08:56:31Z</time>
      </trkpt>
      <trkpt lat="43.55146" lon="6.02038">
        <ele>371.69</ele>
        <time>2012-02-28T08:56:49Z</time>
      </trkpt>
      <trkpt lat="43.55142" lon="6.02042">
        <ele>371.69</ele>
        <time>2012-02-28T08:56:53Z</time>
      </trkpt>
      <trkpt lat="43.55138" lon="6.0205">
        <ele>371.21</ele>
        <time>2012-02-28T08:56:58Z</time>
      </trkpt>
      <trkpt lat="43.55126" lon="6.02068">
        <ele>369.76</ele>
        <time>2012-02-28T08:57:15Z</time>
      </trkpt>
      <trkpt lat="43.55118" lon="6.02082">
        <ele>367.36</ele>
        <time>2012-02-28T08:57:29Z</time>
      </trkpt>
      <trkpt lat="43.55122" lon="6.02096">
        <ele>363.52</ele>
        <time>2012-02-28T08:57:41Z</time>
      </trkpt>
      <trkpt lat="43.55138" lon="6.02113">
        <ele>359.67</ele>
        <time>2012-02-28T08:58:01Z</time>
      </trkpt>
      <trkpt lat="43.55139" lon="6.02113">
        <ele>359.19</ele>
        <time>2012-02-28T08:58:02Z</time>
      </trkpt>
      <trkpt lat="43.55144" lon="6.02114">
        <ele>358.23</ele>
        <time>2012-02-28T08:58:06Z</time>
      </trkpt>
      <trkpt lat="43.55146" lon="6.02114">
        <ele>357.75</ele>
        <time>2012-02-28T08:58:08Z</time>
      </trkpt>
      <trkpt lat="43.55164" lon="6.02111">
        <ele>355.34</ele>
        <time>2012-02-28T08:58:26Z</time>
      </trkpt>
      <trkpt lat="43.55171" lon="6.02112">
        <ele>354.38</ele>
        <time>2012-02-28T08:58:33Z</time>
      </trkpt>
      <trkpt lat="43.55176" lon="6.02114">
        <ele>354.86</ele>
        <time>2012-02-28T08:58:39Z</time>
      </trkpt>
      <trkpt lat="43.55198" lon="6.02113">
        <ele>353.9</ele>
        <time>2012-02-28T08:58:57Z</time>
      </trkpt>
      <trkpt lat="43.5521" lon="6.02111">
        <ele>350.54</ele>
        <time>2012-02-28T08:59:09Z</time>
      </trkpt>
      <trkpt lat="43.55214" lon="6.02113">
        <ele>350.06</ele>
        <time>2012-02-28T08:59:12Z</time>
      </trkpt>
      <trkpt lat="43.5522" lon="6.02112">
        <ele>350.54</ele>
        <time>2012-02-28T08:59:17Z</time>
      </trkpt>
      <trkpt lat="43.55247" lon="6.02111">
        <ele>351.5</ele>
        <time>2012-02-28T08:59:38Z</time>
      </trkpt>
      <trkpt lat="43.55249" lon="6.02111">
        <ele>351.5</ele>
        <time>2012-02-28T08:59:40Z</time>
      </trkpt>
      <trkpt lat="43.55266" lon="6.02112">
        <ele>351.5</ele>
        <time>2012-02-28T08:59:56Z</time>
      </trkpt>
      <trkpt lat="43.5528" lon="6.02105">
        <ele>348.13</ele>
        <time>2012-02-28T09:00:14Z</time>
      </trkpt>
      <trkpt lat="43.55279" lon="6.02108">
        <ele>346.69</ele>
        <time>2012-02-28T09:00:18Z</time>
      </trkpt>
      <trkpt lat="43.55277" lon="6.02118">
        <ele>344.29</ele>
        <time>2012-02-28T09:00:30Z</time>
      </trkpt>
      <trkpt lat="43.55265" lon="6.02122">
        <ele>342.85</ele>
        <time>2012-02-28T09:00:46Z</time>
      </trkpt>
      <trkpt lat="43.55245" lon="6.02129">
        <ele>340.92</ele>
        <time>2012-02-28T09:01:05Z</time>
      </trkpt>
      <trkpt lat="43.55227" lon="6.02141">
        <ele>342.37</ele>
        <time>2012-02-28T09:01:24Z</time>
      </trkpt>
      <trkpt lat="43.55211" lon="6.02143">
        <ele>344.29</ele>
        <time>2012-02-28T09:01:39Z</time>
      </trkpt>
      <trkpt lat="43.55197" lon="6.02148">
        <ele>344.77</ele>
        <time>2012-02-28T09:01:55Z</time>
      </trkpt>
      <trkpt lat="43.55174" lon="6.02152">
        <ele>346.69</ele>
        <time>2012-02-28T09:02:17Z</time>
      </trkpt>
      <trkpt lat="43.55158" lon="6.02161">
        <ele>347.65</ele>
        <time>2012-02-28T09:02:36Z</time>
      </trkpt>
      <trkpt lat="43.55143" lon="6.02169">
        <ele>349.1</ele>
        <time>2012-02-28T09:02:53Z</time>
      </trkpt>
      <trkpt lat="43.55141" lon="6.0217">
        <ele>348.62</ele>
        <time>2012-02-28T09:02:55Z</time>
      </trkpt>
      <trkpt lat="43.55137" lon="6.02171">
        <ele>347.17</ele>
        <time>2012-02-28T09:02:59Z</time>
      </trkpt>
      <trkpt lat="43.55131" lon="6.02176">
        <ele>348.13</ele>
        <time>2012-02-28T09:03:05Z</time>
      </trkpt>
      <trkpt lat="43.55127" lon="6.02181">
        <ele>349.1</ele>
        <time>2012-02-28T09:03:09Z</time>
      </trkpt>
      <trkpt lat="43.55124" lon="6.0218">
        <ele>349.1</ele>
        <time>2012-02-28T09:03:13Z</time>
      </trkpt>
      <trkpt lat="43.5511" lon="6.02196">
        <ele>348.62</ele>
        <time>2012-02-28T09:03:29Z</time>
      </trkpt>
      <trkpt lat="43.55107" lon="6.02201">
        <ele>348.62</ele>
        <time>2012-02-28T09:03:35Z</time>
      </trkpt>
      <trkpt lat="43.55105" lon="6.02203">
        <ele>349.1</ele>
        <time>2012-02-28T09:03:37Z</time>
      </trkpt>
      <trkpt lat="43.55105" lon="6.02206">
        <ele>350.06</ele>
        <time>2012-02-28T09:03:39Z</time>
      </trkpt>
      <trkpt lat="43.55101" lon="6.02212">
        <ele>351.02</ele>
        <time>2012-02-28T09:03:45Z</time>
      </trkpt>
      <trkpt lat="43.55094" lon="6.02216">
        <ele>351.98</ele>
        <time>2012-02-28T09:03:52Z</time>
      </trkpt>
      <trkpt lat="43.5509" lon="6.02222">
        <ele>351.5</ele>
        <time>2012-02-28T09:03:58Z</time>
      </trkpt>
      <trkpt lat="43.55085" lon="6.02225">
        <ele>351.5</ele>
        <time>2012-02-28T09:04:04Z</time>
      </trkpt>
      <trkpt lat="43.55075" lon="6.02237">
        <ele>351.98</ele>
        <time>2012-02-28T09:04:18Z</time>
      </trkpt>
      <trkpt lat="43.55068" lon="6.02259">
        <ele>354.38</ele>
        <time>2012-02-28T09:04:36Z</time>
      </trkpt>
      <trkpt lat="43.55068" lon="6.0226">
        <ele>354.86</ele>
        <time>2012-02-28T09:04:37Z</time>
      </trkpt>
      <trkpt lat="43.55068" lon="6.02285">
        <ele>355.34</ele>
        <time>2012-02-28T09:04:56Z</time>
      </trkpt>
      <trkpt lat="43.55067" lon="6.02307">
        <ele>355.34</ele>
        <time>2012-02-28T09:05:13Z</time>
      </trkpt>
      <trkpt lat="43.55061" lon="6.0233">
        <ele>360.63</ele>
        <time>2012-02-28T09:05:28Z</time>
      </trkpt>
      <trkpt lat="43.55058" lon="6.02348">
        <ele>360.63</ele>
        <time>2012-02-28T09:05:47Z</time>
      </trkpt>
      <trkpt lat="43.55052" lon="6.02364">
        <ele>361.59</ele>
        <time>2012-02-28T09:06:04Z</time>
      </trkpt>
      <trkpt lat="43.55039" lon="6.02379">
        <ele>361.59</ele>
        <time>2012-02-28T09:06:24Z</time>
      </trkpt>
      <trkpt lat="43.5503" lon="6.02397">
        <ele>364.48</ele>
        <time>2012-02-28T09:06:43Z</time>
      </trkpt>
      <trkpt lat="43.55019" lon="6.0241">
        <ele>365.92</ele>
        <time>2012-02-28T09:07:00Z</time>
      </trkpt>
      <trkpt lat="43.55015" lon="6.02414">
        <ele>366.88</ele>
        <time>2012-02-28T09:07:04Z</time>
      </trkpt>
      <trkpt lat="43.55012" lon="6.02414">
        <ele>367.36</ele>
        <time>2012-02-28T09:07:06Z</time>
      </trkpt>
      <trkpt lat="43.55006" lon="6.0242">
        <ele>368.32</ele>
        <time>2012-02-28T09:07:13Z</time>
      </trkpt>
      <trkpt lat="43.55004" lon="6.02421">
        <ele>368.8</ele>
        <time>2012-02-28T09:07:15Z</time>
      </trkpt>
      <trkpt lat="43.55003" lon="6.02422">
        <ele>368.32</ele>
        <time>2012-02-28T09:07:17Z</time>
      </trkpt>
      <trkpt lat="43.54982" lon="6.02441">
        <ele>370.73</ele>
        <time>2012-02-28T09:07:42Z</time>
      </trkpt>
      <trkpt lat="43.54973" lon="6.02453">
        <ele>373.13</ele>
        <time>2012-02-28T09:07:56Z</time>
      </trkpt>
      <trkpt lat="43.5496" lon="6.02465">
        <ele>375.05</ele>
        <time>2012-02-28T09:08:14Z</time>
      </trkpt>
      <trkpt lat="43.54943" lon="6.02477">
        <ele>374.57</ele>
        <time>2012-02-28T09:08:32Z</time>
      </trkpt>
      <trkpt lat="43.54931" lon="6.02485">
        <ele>373.61</ele>
        <time>2012-02-28T09:08:49Z</time>
      </trkpt>
      <trkpt lat="43.54925" lon="6.02485">
        <ele>373.13</ele>
        <time>2012-02-28T09:08:55Z</time>
      </trkpt>
      <trkpt lat="43.54918" lon="6.02487">
        <ele>373.13</ele>
        <time>2012-02-28T09:09:02Z</time>
      </trkpt>
      <trkpt lat="43.54914" lon="6.0249">
        <ele>373.61</ele>
        <time>2012-02-28T09:09:06Z</time>
      </trkpt>
      <trkpt lat="43.54908" lon="6.02495">
        <ele>372.17</ele>
        <time>2012-02-28T09:09:13Z</time>
      </trkpt>
      <trkpt lat="43.54903" lon="6.02495">
        <ele>372.65</ele>
        <time>2012-02-28T09:09:17Z</time>
      </trkpt>
      <trkpt lat="43.5489" lon="6.02504">
        <ele>371.69</ele>
        <time>2012-02-28T09:09:35Z</time>
      </trkpt>
      <trkpt lat="43.54885" lon="6.0251">
        <ele>371.69</ele>
        <time>2012-02-28T09:09:42Z</time>
      </trkpt>
      <trkpt lat="43.54878" lon="6.02516">
        <ele>372.65</ele>
        <time>2012-02-28T09:09:50Z</time>
      </trkpt>
      <trkpt lat="43.54863" lon="6.02525">
        <ele>374.57</ele>
        <time>2012-02-28T09:10:09Z</time>
      </trkpt>
      <trkpt lat="43.54848" lon="6.02531">
        <ele>374.09</ele>
        <time>2012-02-28T09:10:26Z</time>
      </trkpt>
      <trkpt lat="43.54834" lon="6.0255">
        <ele>375.53</ele>
        <time>2012-02-28T09:10:47Z</time>
      </trkpt>
      <trkpt lat="43.5482" lon="6.02571">
        <ele>379.38</ele>
        <time>2012-02-28T09:11:06Z</time>
      </trkpt>
      <trkpt lat="43.54815" lon="6.02586">
        <ele>380.34</ele>
        <time>2012-02-28T09:11:20Z</time>
      </trkpt>
      <trkpt lat="43.54817" lon="6.02592">
        <ele>381.3</ele>
        <time>2012-02-28T09:11:36Z</time>
      </trkpt>
      <trkpt lat="43.5483" lon="6.02603">
        <ele>378.9</ele>
        <time>2012-02-28T09:11:53Z</time>
      </trkpt>
      <trkpt lat="43.54847" lon="6.02621">
        <ele>376.49</ele>
        <time>2012-02-28T09:12:13Z</time>
      </trkpt>
      <trkpt lat="43.54857" lon="6.02631">
        <ele>376.01</ele>
        <time>2012-02-28T09:12:25Z</time>
      </trkpt>
      <trkpt lat="43.54871" lon="6.02641">
        <ele>374.57</ele>
        <time>2012-02-28T09:12:41Z</time>
      </trkpt>
      <trkpt lat="43.54885" lon="6.02652">
        <ele>373.13</ele>
        <time>2012-02-28T09:12:56Z</time>
      </trkpt>
      <trkpt lat="43.54886" lon="6.02653">
        <ele>372.65</ele>
        <time>2012-02-28T09:12:57Z</time>
      </trkpt>
      <trkpt lat="43.5489" lon="6.0266">
        <ele>373.13</ele>
        <time>2012-02-28T09:13:03Z</time>
      </trkpt>
      <trkpt lat="43.54895" lon="6.02662">
        <ele>373.13</ele>
        <time>2012-02-28T09:13:07Z</time>
      </trkpt>
      <trkpt lat="43.54898" lon="6.02662">
        <ele>372.17</ele>
        <time>2012-02-28T09:13:11Z</time>
      </trkpt>
      <trkpt lat="43.54918" lon="6.02671">
        <ele>370.24</ele>
        <time>2012-02-28T09:13:30Z</time>
      </trkpt>
      <trkpt lat="43.54936" lon="6.02676">
        <ele>372.65</ele>
        <time>2012-02-28T09:13:46Z</time>
      </trkpt>
      <trkpt lat="43.54941" lon="6.02676">
        <ele>372.17</ele>
        <time>2012-02-28T09:13:51Z</time>
      </trkpt>
      <trkpt lat="43.5496" lon="6.0269">
        <ele>375.05</ele>
        <time>2012-02-28T09:14:10Z</time>
      </trkpt>
      <trkpt lat="43.54982" lon="6.02707">
        <ele>376.01</ele>
        <time>2012-02-28T09:14:34Z</time>
      </trkpt>
      <trkpt lat="43.54992" lon="6.02713">
        <ele>376.01</ele>
        <time>2012-02-28T09:14:45Z</time>
      </trkpt>
      <trkpt lat="43.55012" lon="6.02726">
        <ele>376.49</ele>
        <time>2012-02-28T09:15:05Z</time>
      </trkpt>
      <trkpt lat="43.55034" lon="6.02738">
        <ele>372.65</ele>
        <time>2012-02-28T09:15:30Z</time>
      </trkpt>
      <trkpt lat="43.55054" lon="6.02745">
        <ele>371.69</ele>
        <time>2012-02-28T09:15:49Z</time>
      </trkpt>
      <trkpt lat="43.55073" lon="6.0275">
        <ele>370.24</ele>
        <time>2012-02-28T09:16:08Z</time>
      </trkpt>
      <trkpt lat="43.55085" lon="6.02753">
        <ele>370.24</ele>
        <time>2012-02-28T09:16:20Z</time>
      </trkpt>
      <trkpt lat="43.55092" lon="6.02753">
        <ele>370.73</ele>
        <time>2012-02-28T09:16:26Z</time>
      </trkpt>
      <trkpt lat="43.55115" lon="6.02755">
        <ele>368.32</ele>
        <time>2012-02-28T09:16:47Z</time>
      </trkpt>
      <trkpt lat="43.55118" lon="6.02755">
        <ele>367.84</ele>
        <time>2012-02-28T09:16:50Z</time>
      </trkpt>
      <trkpt lat="43.55135" lon="6.02749">
        <ele>367.36</ele>
        <time>2012-02-28T09:17:06Z</time>
      </trkpt>
      <trkpt lat="43.55155" lon="6.02745">
        <ele>368.32</ele>
        <time>2012-02-28T09:17:24Z</time>
      </trkpt>
      <trkpt lat="43.55171" lon="6.02747">
        <ele>367.84</ele>
        <time>2012-02-28T09:17:38Z</time>
      </trkpt>
      <trkpt lat="43.55186" lon="6.02754">
        <ele>366.4</ele>
        <time>2012-02-28T09:17:56Z</time>
      </trkpt>
      <trkpt lat="43.55185" lon="6.02762">
        <ele>365.92</ele>
        <time>2012-02-28T09:18:04Z</time>
      </trkpt>
      <trkpt lat="43.5518" lon="6.02783">
        <ele>369.28</ele>
        <time>2012-02-28T09:18:20Z</time>
      </trkpt>
      <trkpt lat="43.5517" lon="6.02808">
        <ele>374.09</ele>
        <time>2012-02-28T09:18:44Z</time>
      </trkpt>
      <trkpt lat="43.55162" lon="6.02819">
        <ele>375.53</ele>
        <time>2012-02-28T09:19:02Z</time>
      </trkpt>
      <trkpt lat="43.55157" lon="6.02831">
        <ele>377.94</ele>
        <time>2012-02-28T09:19:19Z</time>
      </trkpt>
      <trkpt lat="43.55151" lon="6.02839">
        <ele>379.86</ele>
        <time>2012-02-28T09:19:34Z</time>
      </trkpt>
      <trkpt lat="43.5514" lon="6.02852">
        <ele>381.78</ele>
        <time>2012-02-28T09:19:54Z</time>
      </trkpt>
      <trkpt lat="43.55131" lon="6.02862">
        <ele>385.15</ele>
        <time>2012-02-28T09:20:11Z</time>
      </trkpt>
      <trkpt lat="43.55124" lon="6.02868">
        <ele>385.63</ele>
        <time>2012-02-28T09:20:19Z</time>
      </trkpt>
      <trkpt lat="43.55113" lon="6.02873">
        <ele>386.11</ele>
        <time>2012-02-28T09:20:35Z</time>
      </trkpt>
      <trkpt lat="43.55113" lon="6.02873">
        <ele>386.11</ele>
        <time>2012-02-28T09:20:36Z</time>
      </trkpt>
      <trkpt lat="43.55102" lon="6.02879">
        <ele>388.03</ele>
        <time>2012-02-28T09:20:50Z</time>
      </trkpt>
      <trkpt lat="43.55091" lon="6.02887">
        <ele>389.47</ele>
        <time>2012-02-28T09:21:08Z</time>
      </trkpt>
      <trkpt lat="43.55086" lon="6.02887">
        <ele>389.95</ele>
        <time>2012-02-28T09:21:14Z</time>
      </trkpt>
      <trkpt lat="43.5507" lon="6.02889">
        <ele>393.8</ele>
        <time>2012-02-28T09:21:34Z</time>
      </trkpt>
      <trkpt lat="43.5507" lon="6.02891">
        <ele>394.28</ele>
        <time>2012-02-28T09:21:35Z</time>
      </trkpt>
      <trkpt lat="43.55065" lon="6.02909">
        <ele>397.64</ele>
        <time>2012-02-28T09:21:50Z</time>
      </trkpt>
      <trkpt lat="43.55064" lon="6.02911">
        <ele>397.64</ele>
        <time>2012-02-28T09:21:52Z</time>
      </trkpt>
      <trkpt lat="43.55062" lon="6.02915">
        <ele>398.12</ele>
        <time>2012-02-28T09:21:56Z</time>
      </trkpt>
      <trkpt lat="43.5505" lon="6.02932">
        <ele>397.16</ele>
        <time>2012-02-28T09:22:16Z</time>
      </trkpt>
      <trkpt lat="43.55034" lon="6.02941">
        <ele>398.6</ele>
        <time>2012-02-28T09:22:36Z</time>
      </trkpt>
      <trkpt lat="43.55027" lon="6.02943">
        <ele>400.05</ele>
        <time>2012-02-28T09:22:44Z</time>
      </trkpt>
      <trkpt lat="43.55021" lon="6.02944">
        <ele>401.97</ele>
        <time>2012-02-28T09:23:03Z</time>
      </trkpt>
      <trkpt lat="43.55019" lon="6.02945">
        <ele>401.49</ele>
        <time>2012-02-28T09:23:36Z</time>
      </trkpt>
      <trkpt lat="43.55011" lon="6.02947">
        <ele>401.97</ele>
        <time>2012-02-28T09:23:58Z</time>
      </trkpt>
      <trkpt lat="43.54997" lon="6.02954">
        <ele>404.37</ele>
        <time>2012-02-28T09:24:16Z</time>
      </trkpt>
      <trkpt lat="43.54983" lon="6.02957">
        <ele>404.85</ele>
        <time>2012-02-28T09:24:32Z</time>
      </trkpt>
      <trkpt lat="43.54969" lon="6.02964">
        <ele>408.22</ele>
        <time>2012-02-28T09:24:47Z</time>
      </trkpt>
      <trkpt lat="43.54965" lon="6.02964">
        <ele>408.22</ele>
        <time>2012-02-28T09:24:53Z</time>
      </trkpt>
      <trkpt lat="43.5496" lon="6.02966">
        <ele>407.74</ele>
        <time>2012-02-28T09:24:59Z</time>
      </trkpt>
      <trkpt lat="43.54945" lon="6.02958">
        <ele>407.74</ele>
        <time>2012-02-28T09:25:17Z</time>
      </trkpt>
      <trkpt lat="43.54942" lon="6.02955">
        <ele>408.22</ele>
        <time>2012-02-28T09:25:20Z</time>
      </trkpt>
      <trkpt lat="43.54932" lon="6.02933">
        <ele>408.7</ele>
        <time>2012-02-28T09:25:39Z</time>
      </trkpt>
      <trkpt lat="43.54924" lon="6.02918">
        <ele>406.77</ele>
        <time>2012-02-28T09:25:52Z</time>
      </trkpt>
      <trkpt lat="43.5492" lon="6.02917">
        <ele>406.77</ele>
        <time>2012-02-28T09:26:02Z</time>
      </trkpt>
      <trkpt lat="43.54903" lon="6.02918">
        <ele>408.7</ele>
        <time>2012-02-28T09:26:18Z</time>
      </trkpt>
      <trkpt lat="43.54881" lon="6.02913">
        <ele>409.18</ele>
        <time>2012-02-28T09:26:36Z</time>
      </trkpt>
      <trkpt lat="43.54876" lon="6.02913">
        <ele>408.22</ele>
        <time>2012-02-28T09:26:42Z</time>
      </trkpt>
      <trkpt lat="43.54869" lon="6.02912">
        <ele>408.22</ele>
        <time>2012-02-28T09:26:48Z</time>
      </trkpt>
      <trkpt lat="43.54854" lon="6.02905">
        <ele>405.81</ele>
        <time>2012-02-28T09:27:08Z</time>
      </trkpt>
      <trkpt lat="43.54879" lon="6.02912">
        <ele>404.85</ele>
        <time>2012-02-28T09:27:34Z</time>
      </trkpt>
      <trkpt lat="43.54904" lon="6.02921">
        <ele>407.74</ele>
        <time>2012-02-28T09:28:00Z</time>
      </trkpt>
      <trkpt lat="43.5492" lon="6.02915">
        <ele>408.7</ele>
        <time>2012-02-28T09:28:15Z</time>
      </trkpt>
      <trkpt lat="43.54932" lon="6.02933">
        <ele>410.14</ele>
        <time>2012-02-28T09:28:37Z</time>
      </trkpt>
      <trkpt lat="43.54934" lon="6.02955">
        <ele>409.66</ele>
        <time>2012-02-28T09:28:58Z</time>
      </trkpt>
      <trkpt lat="43.54929" lon="6.02955">
        <ele>409.66</ele>
        <time>2012-02-28T09:29:04Z</time>
      </trkpt>
      <trkpt lat="43.54916" lon="6.02954">
        <ele>409.66</ele>
        <time>2012-02-28T09:29:21Z</time>
      </trkpt>
      <trkpt lat="43.54904" lon="6.02955">
        <ele>410.62</ele>
        <time>2012-02-28T09:29:36Z</time>
      </trkpt>
      <trkpt lat="43.54897" lon="6.02952">
        <ele>412.06</ele>
        <time>2012-02-28T09:29:42Z</time>
      </trkpt>
      <trkpt lat="43.54889" lon="6.02952">
        <ele>413.98</ele>
        <time>2012-02-28T09:29:50Z</time>
      </trkpt>
      <trkpt lat="43.54887" lon="6.02952">
        <ele>414.47</ele>
        <time>2012-02-28T09:29:52Z</time>
      </trkpt>
      <trkpt lat="43.54874" lon="6.02958">
        <ele>414.95</ele>
        <time>2012-02-28T09:30:09Z</time>
      </trkpt>
      <trkpt lat="43.54867" lon="6.02956">
        <ele>414.95</ele>
        <time>2012-02-28T09:30:22Z</time>
      </trkpt>
      <trkpt lat="43.54858" lon="6.0297">
        <ele>415.91</ele>
        <time>2012-02-28T09:30:37Z</time>
      </trkpt>
      <trkpt lat="43.54856" lon="6.02973">
        <ele>416.39</ele>
        <time>2012-02-28T09:30:39Z</time>
      </trkpt>
      <trkpt lat="43.54856" lon="6.02992">
        <ele>415.91</ele>
        <time>2012-02-28T09:30:57Z</time>
      </trkpt>
      <trkpt lat="43.54853" lon="6.03003">
        <ele>415.91</ele>
        <time>2012-02-28T09:31:07Z</time>
      </trkpt>
      <trkpt lat="43.5485" lon="6.03007">
        <ele>415.43</ele>
        <time>2012-02-28T09:31:11Z</time>
      </trkpt>
      <trkpt lat="43.54849" lon="6.03013">
        <ele>414.95</ele>
        <time>2012-02-28T09:31:21Z</time>
      </trkpt>
      <trkpt lat="43.54838" lon="6.03025">
        <ele>415.43</ele>
        <time>2012-02-28T09:31:37Z</time>
      </trkpt>
      <trkpt lat="43.54834" lon="6.03027">
        <ele>415.43</ele>
        <time>2012-02-28T09:31:42Z</time>
      </trkpt>
      <trkpt lat="43.54825" lon="6.03032">
        <ele>415.91</ele>
        <time>2012-02-28T09:31:52Z</time>
      </trkpt>
      <trkpt lat="43.54819" lon="6.03039">
        <ele>415.43</ele>
        <time>2012-02-28T09:32:12Z</time>
      </trkpt>
      <trkpt lat="43.54805" lon="6.03043">
        <ele>417.83</ele>
        <time>2012-02-28T09:32:28Z</time>
      </trkpt>
      <trkpt lat="43.54799" lon="6.03035">
        <ele>418.79</ele>
        <time>2012-02-28T09:32:38Z</time>
      </trkpt>
      <trkpt lat="43.5479" lon="6.03037">
        <ele>418.79</ele>
        <time>2012-02-28T09:32:56Z</time>
      </trkpt>
      <trkpt lat="43.54788" lon="6.0304">
        <ele>418.79</ele>
        <time>2012-02-28T09:32:58Z</time>
      </trkpt>
      <trkpt lat="43.54782" lon="6.03046">
        <ele>419.27</ele>
        <time>2012-02-28T09:33:04Z</time>
      </trkpt>
      <trkpt lat="43.54775" lon="6.0305">
        <ele>419.75</ele>
        <time>2012-02-28T09:33:12Z</time>
      </trkpt>
      <trkpt lat="43.54771" lon="6.03051">
        <ele>420.23</ele>
        <time>2012-02-28T09:33:16Z</time>
      </trkpt>
      <trkpt lat="43.54763" lon="6.03057">
        <ele>421.19</ele>
        <time>2012-02-28T09:33:33Z</time>
      </trkpt>
      <trkpt lat="43.54752" lon="6.03056">
        <ele>423.12</ele>
        <time>2012-02-28T09:33:47Z</time>
      </trkpt>
      <trkpt lat="43.54748" lon="6.03062">
        <ele>423.12</ele>
        <time>2012-02-28T09:33:56Z</time>
      </trkpt>
      <trkpt lat="43.54747" lon="6.03063">
        <ele>423.12</ele>
        <time>2012-02-28T09:33:58Z</time>
      </trkpt>
      <trkpt lat="43.5474" lon="6.03066">
        <ele>423.12</ele>
        <time>2012-02-28T09:34:05Z</time>
      </trkpt>
      <trkpt lat="43.54739" lon="6.03067">
        <ele>423.12</ele>
        <time>2012-02-28T09:34:07Z</time>
      </trkpt>
      <trkpt lat="43.54737" lon="6.03068">
        <ele>423.12</ele>
        <time>2012-02-28T09:34:09Z</time>
      </trkpt>
      <trkpt lat="43.54734" lon="6.03069">
        <ele>423.6</ele>
        <time>2012-02-28T09:34:12Z</time>
      </trkpt>
      <trkpt lat="43.54728" lon="6.03074">
        <ele>425.04</ele>
        <time>2012-02-28T09:34:20Z</time>
      </trkpt>
      <trkpt lat="43.54726" lon="6.03074">
        <ele>425.04</ele>
        <time>2012-02-28T09:34:22Z</time>
      </trkpt>
      <trkpt lat="43.54713" lon="6.0308">
        <ele>422.64</ele>
        <time>2012-02-28T09:34:39Z</time>
      </trkpt>
      <trkpt lat="43.54711" lon="6.0308">
        <ele>422.64</ele>
        <time>2012-02-28T09:34:41Z</time>
      </trkpt>
      <trkpt lat="43.54705" lon="6.03083">
        <ele>422.16</ele>
        <time>2012-02-28T09:34:48Z</time>
      </trkpt>
      <trkpt lat="43.54703" lon="6.03083">
        <ele>422.16</ele>
        <time>2012-02-28T09:34:50Z</time>
      </trkpt>
      <trkpt lat="43.54699" lon="6.03085">
        <ele>422.16</ele>
        <time>2012-02-28T09:34:54Z</time>
      </trkpt>
      <trkpt lat="43.5469" lon="6.03089">
        <ele>424.08</ele>
        <time>2012-02-28T09:35:04Z</time>
      </trkpt>
      <trkpt lat="43.54685" lon="6.03092">
        <ele>424.56</ele>
        <time>2012-02-28T09:35:10Z</time>
      </trkpt>
      <trkpt lat="43.54671" lon="6.03099">
        <ele>424.08</ele>
        <time>2012-02-28T09:35:28Z</time>
      </trkpt>
      <trkpt lat="43.54658" lon="6.03104">
        <ele>424.56</ele>
        <time>2012-02-28T09:35:42Z</time>
      </trkpt>
      <trkpt lat="43.54651" lon="6.03104">
        <ele>424.56</ele>
        <time>2012-02-28T09:35:49Z</time>
      </trkpt>
      <trkpt lat="43.54647" lon="6.03106">
        <ele>424.08</ele>
        <time>2012-02-28T09:35:54Z</time>
      </trkpt>
      <trkpt lat="43.54641" lon="6.03108">
        <ele>423.12</ele>
        <time>2012-02-28T09:36:00Z</time>
      </trkpt>
      <trkpt lat="43.5464" lon="6.03108">
        <ele>423.12</ele>
        <time>2012-02-28T09:36:02Z</time>
      </trkpt>
      <trkpt lat="43.54634" lon="6.03111">
        <ele>423.12</ele>
        <time>2012-02-28T09:36:08Z</time>
      </trkpt>
      <trkpt lat="43.5463" lon="6.03113">
        <ele>423.12</ele>
        <time>2012-02-28T09:36:14Z</time>
      </trkpt>
      <trkpt lat="43.54626" lon="6.03115">
        <ele>422.64</ele>
        <time>2012-02-28T09:36:18Z</time>
      </trkpt>
      <trkpt lat="43.54615" lon="6.03119">
        <ele>419.75</ele>
        <time>2012-02-28T09:36:34Z</time>
      </trkpt>
      <trkpt lat="43.54609" lon="6.03122">
        <ele>418.79</ele>
        <time>2012-02-28T09:36:47Z</time>
      </trkpt>
      <trkpt lat="43.54594" lon="6.03124">
        <ele>418.79</ele>
        <time>2012-02-28T09:37:03Z</time>
      </trkpt>
      <trkpt lat="43.54591" lon="6.03126">
        <ele>418.79</ele>
        <time>2012-02-28T09:37:06Z</time>
      </trkpt>
      <trkpt lat="43.54578" lon="6.0313">
        <ele>421.19</ele>
        <time>2012-02-28T09:37:24Z</time>
      </trkpt>
      <trkpt lat="43.54577" lon="6.0313">
        <ele>421.68</ele>
        <time>2012-02-28T09:37:25Z</time>
      </trkpt>
      <trkpt lat="43.54574" lon="6.03131">
        <ele>422.16</ele>
        <time>2012-02-28T09:37:29Z</time>
      </trkpt>
      <trkpt lat="43.54566" lon="6.03135">
        <ele>424.56</ele>
        <time>2012-02-28T09:37:39Z</time>
      </trkpt>
      <trkpt lat="43.54556" lon="6.03136">
        <ele>427.92</ele>
        <time>2012-02-28T09:37:51Z</time>
      </trkpt>
      <trkpt lat="43.54553" lon="6.03136">
        <ele>428.89</ele>
        <time>2012-02-28T09:37:54Z</time>
      </trkpt>
      <trkpt lat="43.54548" lon="6.03137">
        <ele>429.85</ele>
        <time>2012-02-28T09:38:01Z</time>
      </trkpt>
      <trkpt lat="43.54543" lon="6.03141">
        <ele>430.33</ele>
        <time>2012-02-28T09:38:08Z</time>
      </trkpt>
      <trkpt lat="43.54532" lon="6.03144">
        <ele>430.33</ele>
        <time>2012-02-28T09:38:23Z</time>
      </trkpt>
      <trkpt lat="43.54523" lon="6.03146">
        <ele>431.29</ele>
        <time>2012-02-28T09:38:38Z</time>
      </trkpt>
      <trkpt lat="43.54513" lon="6.03146">
        <ele>433.21</ele>
        <time>2012-02-28T09:38:51Z</time>
      </trkpt>
      <trkpt lat="43.54499" lon="6.03153">
        <ele>432.73</ele>
        <time>2012-02-28T09:39:11Z</time>
      </trkpt>
      <trkpt lat="43.54479" lon="6.0317">
        <ele>429.85</ele>
        <time>2012-02-28T09:39:37Z</time>
      </trkpt>
      <trkpt lat="43.54466" lon="6.03188">
        <ele>431.29</ele>
        <time>2012-02-28T09:39:56Z</time>
      </trkpt>
      <trkpt lat="43.54464" lon="6.03191">
        <ele>431.77</ele>
        <time>2012-02-28T09:39:58Z</time>
      </trkpt>
      <trkpt lat="43.5446" lon="6.03204">
        <ele>431.29</ele>
        <time>2012-02-28T09:40:17Z</time>
      </trkpt>
      <trkpt lat="43.54458" lon="6.03207">
        <ele>431.29</ele>
        <time>2012-02-28T09:40:21Z</time>
      </trkpt>
      <trkpt lat="43.54453" lon="6.03215">
        <ele>432.25</ele>
        <time>2012-02-28T09:40:28Z</time>
      </trkpt>
      <trkpt lat="43.54448" lon="6.03231">
        <ele>436.58</ele>
        <time>2012-02-28T09:40:45Z</time>
      </trkpt>
      <trkpt lat="43.54448" lon="6.03234">
        <ele>437.06</ele>
        <time>2012-02-28T09:40:47Z</time>
      </trkpt>
      <trkpt lat="43.54445" lon="6.03252">
        <ele>438.5</ele>
        <time>2012-02-28T09:41:03Z</time>
      </trkpt>
      <trkpt lat="43.54442" lon="6.03257">
        <ele>438.98</ele>
        <time>2012-02-28T09:41:08Z</time>
      </trkpt>
      <trkpt lat="43.54441" lon="6.03272">
        <ele>440.9</ele>
        <time>2012-02-28T09:41:21Z</time>
      </trkpt>
      <trkpt lat="43.54444" lon="6.03279">
        <ele>442.82</ele>
        <time>2012-02-28T09:41:39Z</time>
      </trkpt>
      <trkpt lat="43.54442" lon="6.03295">
        <ele>445.23</ele>
        <time>2012-02-28T09:41:57Z</time>
      </trkpt>
      <trkpt lat="43.54443" lon="6.03311">
        <ele>447.63</ele>
        <time>2012-02-28T09:42:12Z</time>
      </trkpt>
      <trkpt lat="43.54442" lon="6.03316">
        <ele>448.11</ele>
        <time>2012-02-28T09:42:17Z</time>
      </trkpt>
      <trkpt lat="43.54439" lon="6.03329">
        <ele>450.52</ele>
        <time>2012-02-28T09:42:33Z</time>
      </trkpt>
      <trkpt lat="43.54433" lon="6.03335">
        <ele>453.88</ele>
        <time>2012-02-28T09:42:49Z</time>
      </trkpt>
      <trkpt lat="43.5443" lon="6.03339">
        <ele>454.36</ele>
        <time>2012-02-28T09:42:57Z</time>
      </trkpt>
      <trkpt lat="43.54423" lon="6.03347">
        <ele>455.8</ele>
        <time>2012-02-28T09:43:15Z</time>
      </trkpt>
      <trkpt lat="43.54421" lon="6.03349">
        <ele>455.8</ele>
        <time>2012-02-28T09:43:22Z</time>
      </trkpt>
      <trkpt lat="43.54416" lon="6.0336">
        <ele>458.21</ele>
        <time>2012-02-28T09:43:38Z</time>
      </trkpt>
      <trkpt lat="43.54415" lon="6.03368">
        <ele>460.61</ele>
        <time>2012-02-28T09:43:54Z</time>
      </trkpt>
      <trkpt lat="43.54414" lon="6.03372">
        <ele>461.09</ele>
        <time>2012-02-28T09:44:03Z</time>
      </trkpt>
      <trkpt lat="43.54413" lon="6.0338">
        <ele>461.57</ele>
        <time>2012-02-28T09:44:19Z</time>
      </trkpt>
      <trkpt lat="43.54417" lon="6.03394">
        <ele>463.49</ele>
        <time>2012-02-28T09:44:35Z</time>
      </trkpt>
      <trkpt lat="43.54417" lon="6.0341">
        <ele>466.38</ele>
        <time>2012-02-28T09:44:51Z</time>
      </trkpt>
      <trkpt lat="43.54417" lon="6.03413">
        <ele>466.86</ele>
        <time>2012-02-28T09:44:59Z</time>
      </trkpt>
      <trkpt lat="43.54414" lon="6.03422">
        <ele>469.26</ele>
        <time>2012-02-28T09:45:16Z</time>
      </trkpt>
      <trkpt lat="43.54413" lon="6.03435">
        <ele>473.11</ele>
        <time>2012-02-28T09:45:31Z</time>
      </trkpt>
      <trkpt lat="43.54411" lon="6.03445">
        <ele>475.99</ele>
        <time>2012-02-28T09:45:45Z</time>
      </trkpt>
      <trkpt lat="43.54409" lon="6.03457">
        <ele>476.95</ele>
        <time>2012-02-28T09:45:59Z</time>
      </trkpt>
      <trkpt lat="43.54405" lon="6.03477">
        <ele>477.91</ele>
        <time>2012-02-28T09:46:16Z</time>
      </trkpt>
      <trkpt lat="43.54401" lon="6.03491">
        <ele>477.91</ele>
        <time>2012-02-28T09:46:30Z</time>
      </trkpt>
      <trkpt lat="43.54403" lon="6.03504">
        <ele>478.39</ele>
        <time>2012-02-28T09:46:43Z</time>
      </trkpt>
      <trkpt lat="43.54403" lon="6.03506">
        <ele>478.87</ele>
        <time>2012-02-28T09:46:45Z</time>
      </trkpt>
      <trkpt lat="43.54403" lon="6.0351">
        <ele>478.87</ele>
        <time>2012-02-28T09:46:48Z</time>
      </trkpt>
      <trkpt lat="43.54402" lon="6.03524">
        <ele>478.39</ele>
        <time>2012-02-28T09:47:00Z</time>
      </trkpt>
      <trkpt lat="43.54402" lon="6.03526">
        <ele>478.39</ele>
        <time>2012-02-28T09:47:02Z</time>
      </trkpt>
      <trkpt lat="43.54401" lon="6.03542">
        <ele>479.35</ele>
        <time>2012-02-28T09:47:17Z</time>
      </trkpt>
      <trkpt lat="43.54401" lon="6.03547">
        <ele>479.84</ele>
        <time>2012-02-28T09:47:21Z</time>
      </trkpt>
      <trkpt lat="43.54401" lon="6.03551">
        <ele>480.32</ele>
        <time>2012-02-28T09:47:24Z</time>
      </trkpt>
      <trkpt lat="43.54401" lon="6.03562">
        <ele>481.28</ele>
        <time>2012-02-28T09:47:33Z</time>
      </trkpt>
      <trkpt lat="43.54401" lon="6.03581">
        <ele>481.76</ele>
        <time>2012-02-28T09:47:49Z</time>
      </trkpt>
      <trkpt lat="43.54401" lon="6.03585">
        <ele>481.76</ele>
        <time>2012-02-28T09:47:53Z</time>
      </trkpt>
      <trkpt lat="43.544" lon="6.03599">
        <ele>484.64</ele>
        <time>2012-02-28T09:48:08Z</time>
      </trkpt>
      <trkpt lat="43.544" lon="6.03616">
        <ele>484.64</ele>
        <time>2012-02-28T09:48:21Z</time>
      </trkpt>
      <trkpt lat="43.54399" lon="6.03634">
        <ele>485.6</ele>
        <time>2012-02-28T09:48:38Z</time>
      </trkpt>
      <trkpt lat="43.54401" lon="6.03638">
        <ele>486.56</ele>
        <time>2012-02-28T09:48:44Z</time>
      </trkpt>
      <trkpt lat="43.54401" lon="6.03647">
        <ele>487.53</ele>
        <time>2012-02-28T09:48:52Z</time>
      </trkpt>
      <trkpt lat="43.54403" lon="6.03653">
        <ele>487.53</ele>
        <time>2012-02-28T09:49:00Z</time>
      </trkpt>
      <trkpt lat="43.54403" lon="6.03655">
        <ele>488.01</ele>
        <time>2012-02-28T09:49:03Z</time>
      </trkpt>
      <trkpt lat="43.54404" lon="6.03658">
        <ele>488.49</ele>
        <time>2012-02-28T09:49:06Z</time>
      </trkpt>
      <trkpt lat="43.54403" lon="6.03663">
        <ele>488.49</ele>
        <time>2012-02-28T09:49:10Z</time>
      </trkpt>
      <trkpt lat="43.54406" lon="6.03671">
        <ele>489.93</ele>
        <time>2012-02-28T09:49:20Z</time>
      </trkpt>
      <trkpt lat="43.54404" lon="6.03686">
        <ele>489.93</ele>
        <time>2012-02-28T09:49:34Z</time>
      </trkpt>
      <trkpt lat="43.54408" lon="6.03699">
        <ele>494.26</ele>
        <time>2012-02-28T09:49:51Z</time>
      </trkpt>
      <trkpt lat="43.54413" lon="6.0371">
        <ele>497.14</ele>
        <time>2012-02-28T09:50:07Z</time>
      </trkpt>
      <trkpt lat="43.54414" lon="6.03713">
        <ele>498.1</ele>
        <time>2012-02-28T09:50:23Z</time>
      </trkpt>
      <trkpt lat="43.54413" lon="6.0372">
        <ele>499.06</ele>
        <time>2012-02-28T09:50:48Z</time>
      </trkpt>
      <trkpt lat="43.54414" lon="6.03722">
        <ele>500.02</ele>
        <time>2012-02-28T09:50:52Z</time>
      </trkpt>
      <trkpt lat="43.54415" lon="6.03727">
        <ele>500.02</ele>
        <time>2012-02-28T09:50:56Z</time>
      </trkpt>
      <trkpt lat="43.54416" lon="6.03743">
        <ele>503.39</ele>
        <time>2012-02-28T09:51:13Z</time>
      </trkpt>
      <trkpt lat="43.54416" lon="6.03752">
        <ele>504.35</ele>
        <time>2012-02-28T09:51:30Z</time>
      </trkpt>
      <trkpt lat="43.54416" lon="6.03755">
        <ele>504.83</ele>
        <time>2012-02-28T09:51:41Z</time>
      </trkpt>
      <trkpt lat="43.54413" lon="6.03768">
        <ele>506.75</ele>
        <time>2012-02-28T09:51:58Z</time>
      </trkpt>
      <trkpt lat="43.54411" lon="6.03779">
        <ele>508.19</ele>
        <time>2012-02-28T09:52:14Z</time>
      </trkpt>
      <trkpt lat="43.54409" lon="6.03787">
        <ele>509.64</ele>
        <time>2012-02-28T09:52:22Z</time>
      </trkpt>
      <trkpt lat="43.54403" lon="6.03804">
        <ele>503.39</ele>
        <time>2012-02-28T09:52:39Z</time>
      </trkpt>
      <trkpt lat="43.54398" lon="6.03814">
        <ele>507.71</ele>
        <time>2012-02-28T09:52:57Z</time>
      </trkpt>
      <trkpt lat="43.54395" lon="6.0382">
        <ele>511.56</ele>
        <time>2012-02-28T09:53:06Z</time>
      </trkpt>
      <trkpt lat="43.54392" lon="6.03825">
        <ele>512.52</ele>
        <time>2012-02-28T09:53:12Z</time>
      </trkpt>
      <trkpt lat="43.54391" lon="6.03828">
        <ele>513</ele>
        <time>2012-02-28T09:53:16Z</time>
      </trkpt>
      <trkpt lat="43.5439" lon="6.03837">
        <ele>513.48</ele>
        <time>2012-02-28T09:53:29Z</time>
      </trkpt>
      <trkpt lat="43.54388" lon="6.03843">
        <ele>515.88</ele>
        <time>2012-02-28T09:53:44Z</time>
      </trkpt>
      <trkpt lat="43.54384" lon="6.03848">
        <ele>518.77</ele>
        <time>2012-02-28T09:53:55Z</time>
      </trkpt>
      <trkpt lat="43.54382" lon="6.03853">
        <ele>518.77</ele>
        <time>2012-02-28T09:54:04Z</time>
      </trkpt>
      <trkpt lat="43.5438" lon="6.03855">
        <ele>519.25</ele>
        <time>2012-02-28T09:54:07Z</time>
      </trkpt>
      <trkpt lat="43.54375" lon="6.03865">
        <ele>520.21</ele>
        <time>2012-02-28T09:54:23Z</time>
      </trkpt>
      <trkpt lat="43.54371" lon="6.03877">
        <ele>518.77</ele>
        <time>2012-02-28T09:54:37Z</time>
      </trkpt>
      <trkpt lat="43.54369" lon="6.03881">
        <ele>520.21</ele>
        <time>2012-02-28T09:54:45Z</time>
      </trkpt>
      <trkpt lat="43.54363" lon="6.03892">
        <ele>524.06</ele>
        <time>2012-02-28T09:55:05Z</time>
      </trkpt>
      <trkpt lat="43.54361" lon="6.03899">
        <ele>525.5</ele>
        <time>2012-02-28T09:55:20Z</time>
      </trkpt>
      <trkpt lat="43.54357" lon="6.03902">
        <ele>527.9</ele>
        <time>2012-02-28T09:55:36Z</time>
      </trkpt>
      <trkpt lat="43.5435" lon="6.03914">
        <ele>533.19</ele>
        <time>2012-02-28T09:55:54Z</time>
      </trkpt>
      <trkpt lat="43.54343" lon="6.03925">
        <ele>536.07</ele>
        <time>2012-02-28T09:56:15Z</time>
      </trkpt>
      <trkpt lat="43.54335" lon="6.03936">
        <ele>537.99</ele>
        <time>2012-02-28T09:56:33Z</time>
      </trkpt>
      <trkpt lat="43.54329" lon="6.03941">
        <ele>535.11</ele>
        <time>2012-02-28T09:56:50Z</time>
      </trkpt>
      <trkpt lat="43.54327" lon="6.03945">
        <ele>535.11</ele>
        <time>2012-02-28T09:57:10Z</time>
      </trkpt>
      <trkpt lat="43.5432" lon="6.03955">
        <ele>537.51</ele>
        <time>2012-02-28T09:57:23Z</time>
      </trkpt>
      <trkpt lat="43.54317" lon="6.03965">
        <ele>542.8</ele>
        <time>2012-02-28T09:57:38Z</time>
      </trkpt>
      <trkpt lat="43.54319" lon="6.03974">
        <ele>546.17</ele>
        <time>2012-02-28T09:57:54Z</time>
      </trkpt>
      <trkpt lat="43.54319" lon="6.03987">
        <ele>548.57</ele>
        <time>2012-02-28T09:58:12Z</time>
      </trkpt>
      <trkpt lat="43.54322" lon="6.04">
        <ele>550.49</ele>
        <time>2012-02-28T09:58:28Z</time>
      </trkpt>
      <trkpt lat="43.54322" lon="6.04003">
        <ele>551.45</ele>
        <time>2012-02-28T09:58:43Z</time>
      </trkpt>
      <trkpt lat="43.54323" lon="6.04011">
        <ele>555.78</ele>
        <time>2012-02-28T09:59:01Z</time>
      </trkpt>
      <trkpt lat="43.54325" lon="6.04029">
        <ele>559.14</ele>
        <time>2012-02-28T09:59:16Z</time>
      </trkpt>
      <trkpt lat="43.54325" lon="6.0403">
        <ele>559.14</ele>
        <time>2012-02-28T09:59:18Z</time>
      </trkpt>
      <trkpt lat="43.54328" lon="6.04048">
        <ele>556.26</ele>
        <time>2012-02-28T09:59:34Z</time>
      </trkpt>
      <trkpt lat="43.5433" lon="6.04058">
        <ele>556.26</ele>
        <time>2012-02-28T09:59:53Z</time>
      </trkpt>
      <trkpt lat="43.5433" lon="6.04074">
        <ele>556.74</ele>
        <time>2012-02-28T10:00:10Z</time>
      </trkpt>
      <trkpt lat="43.54329" lon="6.04087">
        <ele>559.14</ele>
        <time>2012-02-28T10:00:25Z</time>
      </trkpt>
      <trkpt lat="43.54329" lon="6.04097">
        <ele>561.07</ele>
        <time>2012-02-28T10:00:41Z</time>
      </trkpt>
      <trkpt lat="43.54326" lon="6.04104">
        <ele>564.91</ele>
        <time>2012-02-28T10:00:58Z</time>
      </trkpt>
      <trkpt lat="43.54326" lon="6.04104">
        <ele>565.39</ele>
        <time>2012-02-28T10:01:19Z</time>
      </trkpt>
      <trkpt lat="43.54329" lon="6.0411">
        <ele>568.28</ele>
        <time>2012-02-28T10:01:33Z</time>
      </trkpt>
      <trkpt lat="43.54328" lon="6.04122">
        <ele>571.16</ele>
        <time>2012-02-28T10:01:49Z</time>
      </trkpt>
      <trkpt lat="43.5433" lon="6.0413">
        <ele>572.6</ele>
        <time>2012-02-28T10:02:06Z</time>
      </trkpt>
      <trkpt lat="43.5433" lon="6.04139">
        <ele>573.56</ele>
        <time>2012-02-28T10:02:21Z</time>
      </trkpt>
      <trkpt lat="43.54332" lon="6.04144">
        <ele>576.93</ele>
        <time>2012-02-28T10:02:41Z</time>
      </trkpt>
      <trkpt lat="43.54334" lon="6.04152">
        <ele>579.33</ele>
        <time>2012-02-28T10:02:52Z</time>
      </trkpt>
      <trkpt lat="43.54338" lon="6.04158">
        <ele>583.66</ele>
        <time>2012-02-28T10:03:08Z</time>
      </trkpt>
      <trkpt lat="43.5434" lon="6.04163">
        <ele>586.54</ele>
        <time>2012-02-28T10:03:25Z</time>
      </trkpt>
      <trkpt lat="43.5434" lon="6.04166">
        <ele>586.06</ele>
        <time>2012-02-28T10:03:32Z</time>
      </trkpt>
      <trkpt lat="43.54346" lon="6.04173">
        <ele>588.95</ele>
        <time>2012-02-28T10:03:52Z</time>
      </trkpt>
      <trkpt lat="43.54351" lon="6.04185">
        <ele>591.35</ele>
        <time>2012-02-28T10:04:08Z</time>
      </trkpt>
      <trkpt lat="43.5436" lon="6.04188">
        <ele>595.19</ele>
        <time>2012-02-28T10:04:27Z</time>
      </trkpt>
      <trkpt lat="43.54363" lon="6.04191">
        <ele>596.15</ele>
        <time>2012-02-28T10:04:45Z</time>
      </trkpt>
      <trkpt lat="43.54366" lon="6.04191">
        <ele>597.12</ele>
        <time>2012-02-28T10:05:09Z</time>
      </trkpt>
      <trkpt lat="43.54372" lon="6.04196">
        <ele>599.52</ele>
        <time>2012-02-28T10:05:28Z</time>
      </trkpt>
      <trkpt lat="43.54375" lon="6.04205">
        <ele>605.29</ele>
        <time>2012-02-28T10:05:46Z</time>
      </trkpt>
      <trkpt lat="43.54376" lon="6.04212">
        <ele>605.29</ele>
        <time>2012-02-28T10:06:02Z</time>
      </trkpt>
      <trkpt lat="43.5438" lon="6.04209">
        <ele>606.25</ele>
        <time>2012-02-28T10:06:28Z</time>
      </trkpt>
      <trkpt lat="43.54383" lon="6.04207">
        <ele>606.73</ele>
        <time>2012-02-28T10:06:48Z</time>
      </trkpt>
      <trkpt lat="43.54383" lon="6.04203">
        <ele>606.73</ele>
        <time>2012-02-28T10:07:12Z</time>
      </trkpt>
      <trkpt lat="43.54385" lon="6.04196">
        <ele>608.17</ele>
        <time>2012-02-28T10:07:30Z</time>
      </trkpt>
      <trkpt lat="43.54386" lon="6.04195">
        <ele>610.09</ele>
        <time>2012-02-28T10:07:51Z</time>
      </trkpt>
      <trkpt lat="43.54389" lon="6.04196">
        <ele>612.02</ele>
        <time>2012-02-28T10:08:12Z</time>
      </trkpt>
      <trkpt lat="43.54392" lon="6.04197">
        <ele>612.98</ele>
        <time>2012-02-28T10:08:17Z</time>
      </trkpt>
      <trkpt lat="43.54396" lon="6.04199">
        <ele>615.38</ele>
        <time>2012-02-28T10:08:35Z</time>
      </trkpt>
      <trkpt lat="43.544" lon="6.04201">
        <ele>616.82</ele>
        <time>2012-02-28T10:08:52Z</time>
      </trkpt>
      <trkpt lat="43.54408" lon="6.04201">
        <ele>619.71</ele>
        <time>2012-02-28T10:09:08Z</time>
      </trkpt>
      <trkpt lat="43.54413" lon="6.04202">
        <ele>621.63</ele>
        <time>2012-02-28T10:09:28Z</time>
      </trkpt>
      <trkpt lat="43.54415" lon="6.04203">
        <ele>622.59</ele>
        <time>2012-02-28T10:09:52Z</time>
      </trkpt>
      <trkpt lat="43.54419" lon="6.04205">
        <ele>622.59</ele>
        <time>2012-02-28T10:10:09Z</time>
      </trkpt>
      <trkpt lat="43.54418" lon="6.04217">
        <ele>619.23</ele>
        <time>2012-02-28T10:10:26Z</time>
      </trkpt>
      <trkpt lat="43.54418" lon="6.04218">
        <ele>619.71</ele>
        <time>2012-02-28T10:10:27Z</time>
      </trkpt>
      <trkpt lat="43.54419" lon="6.04221">
        <ele>619.23</ele>
        <time>2012-02-28T10:10:29Z</time>
      </trkpt>
      <trkpt lat="43.54421" lon="6.04232">
        <ele>617.3</ele>
        <time>2012-02-28T10:10:46Z</time>
      </trkpt>
      <trkpt lat="43.54421" lon="6.04242">
        <ele>619.23</ele>
        <time>2012-02-28T10:11:01Z</time>
      </trkpt>
      <trkpt lat="43.54421" lon="6.04246">
        <ele>621.63</ele>
        <time>2012-02-28T10:11:18Z</time>
      </trkpt>
      <trkpt lat="43.54418" lon="6.04251">
        <ele>624.99</ele>
        <time>2012-02-28T10:11:32Z</time>
      </trkpt>
      <trkpt lat="43.54416" lon="6.04253">
        <ele>625.47</ele>
        <time>2012-02-28T10:11:40Z</time>
      </trkpt>
      <trkpt lat="43.54415" lon="6.04257">
        <ele>625.47</ele>
        <time>2012-02-28T10:12:01Z</time>
      </trkpt>
      <trkpt lat="43.54417" lon="6.04267">
        <ele>624.51</ele>
        <time>2012-02-28T10:12:17Z</time>
      </trkpt>
      <trkpt lat="43.54416" lon="6.04284">
        <ele>626.92</ele>
        <time>2012-02-28T10:12:31Z</time>
      </trkpt>
      <trkpt lat="43.54417" lon="6.04289">
        <ele>625.47</ele>
        <time>2012-02-28T10:12:45Z</time>
      </trkpt>
      <trkpt lat="43.54419" lon="6.04305">
        <ele>623.07</ele>
        <time>2012-02-28T10:13:01Z</time>
      </trkpt>
      <trkpt lat="43.5442" lon="6.04319">
        <ele>623.07</ele>
        <time>2012-02-28T10:13:17Z</time>
      </trkpt>
      <trkpt lat="43.5442" lon="6.04325">
        <ele>625.47</ele>
        <time>2012-02-28T10:13:43Z</time>
      </trkpt>
      <trkpt lat="43.54419" lon="6.04332">
        <ele>625.96</ele>
        <time>2012-02-28T10:13:58Z</time>
      </trkpt>
      <trkpt lat="43.54417" lon="6.04334">
        <ele>625.47</ele>
        <time>2012-02-28T10:14:13Z</time>
      </trkpt>
      <trkpt lat="43.54423" lon="6.04339">
        <ele>627.4</ele>
        <time>2012-02-28T10:14:21Z</time>
      </trkpt>
      <trkpt lat="43.54424" lon="6.04349">
        <ele>628.84</ele>
        <time>2012-02-28T10:14:36Z</time>
      </trkpt>
      <trkpt lat="43.54422" lon="6.04356">
        <ele>629.8</ele>
        <time>2012-02-28T10:14:53Z</time>
      </trkpt>
      <trkpt lat="43.54421" lon="6.04356">
        <ele>630.28</ele>
        <time>2012-02-28T10:15:07Z</time>
      </trkpt>
      <trkpt lat="43.54423" lon="6.04357">
        <ele>630.28</ele>
        <time>2012-02-28T10:15:28Z</time>
      </trkpt>
      <trkpt lat="43.54422" lon="6.04356">
        <ele>630.76</ele>
        <time>2012-02-28T10:15:50Z</time>
      </trkpt>
      <trkpt lat="43.54423" lon="6.04363">
        <ele>630.76</ele>
        <time>2012-02-28T10:16:07Z</time>
      </trkpt>
      <trkpt lat="43.54422" lon="6.04376">
        <ele>635.09</ele>
        <time>2012-02-28T10:16:23Z</time>
      </trkpt>
      <trkpt lat="43.54421" lon="6.04385">
        <ele>635.57</ele>
        <time>2012-02-28T10:16:40Z</time>
      </trkpt>
      <trkpt lat="43.54421" lon="6.04388">
        <ele>634.13</ele>
        <time>2012-02-28T10:16:56Z</time>
      </trkpt>
      <trkpt lat="43.54422" lon="6.04393">
        <ele>634.61</ele>
        <time>2012-02-28T10:17:13Z</time>
      </trkpt>
      <trkpt lat="43.54422" lon="6.04394">
        <ele>635.57</ele>
        <time>2012-02-28T10:17:21Z</time>
      </trkpt>
      <trkpt lat="43.54423" lon="6.04399">
        <ele>636.05</ele>
        <time>2012-02-28T10:17:40Z</time>
      </trkpt>
      <trkpt lat="43.54423" lon="6.04402">
        <ele>636.53</ele>
        <time>2012-02-28T10:18:05Z</time>
      </trkpt>
      <trkpt lat="43.54422" lon="6.0441">
        <ele>640.86</ele>
        <time>2012-02-28T10:18:22Z</time>
      </trkpt>
      <trkpt lat="43.54423" lon="6.04413">
        <ele>641.82</ele>
        <time>2012-02-28T10:18:37Z</time>
      </trkpt>
      <trkpt lat="43.54422" lon="6.04416">
        <ele>642.3</ele>
        <time>2012-02-28T10:18:56Z</time>
      </trkpt>
      <trkpt lat="43.54421" lon="6.04425">
        <ele>643.74</ele>
        <time>2012-02-28T10:19:13Z</time>
      </trkpt>
      <trkpt lat="43.54423" lon="6.04427">
        <ele>644.7</ele>
        <time>2012-02-28T10:19:19Z</time>
      </trkpt>
      <trkpt lat="43.54424" lon="6.04432">
        <ele>645.66</ele>
        <time>2012-02-28T10:19:24Z</time>
      </trkpt>
      <trkpt lat="43.54422" lon="6.04448">
        <ele>649.03</ele>
        <time>2012-02-28T10:19:41Z</time>
      </trkpt>
      <trkpt lat="43.54423" lon="6.04459">
        <ele>651.91</ele>
        <time>2012-02-28T10:19:56Z</time>
      </trkpt>
      <trkpt lat="43.54425" lon="6.04463">
        <ele>652.87</ele>
        <time>2012-02-28T10:20:02Z</time>
      </trkpt>
      <trkpt lat="43.54429" lon="6.04471">
        <ele>652.87</ele>
        <time>2012-02-28T10:20:19Z</time>
      </trkpt>
      <trkpt lat="43.54428" lon="6.04477">
        <ele>655.28</ele>
        <time>2012-02-28T10:20:29Z</time>
      </trkpt>
      <trkpt lat="43.54431" lon="6.04487">
        <ele>656.72</ele>
        <time>2012-02-28T10:20:47Z</time>
      </trkpt>
      <trkpt lat="43.54432" lon="6.04495">
        <ele>659.12</ele>
        <time>2012-02-28T10:21:05Z</time>
      </trkpt>
      <trkpt lat="43.5443" lon="6.04499">
        <ele>661.04</ele>
        <time>2012-02-28T10:21:23Z</time>
      </trkpt>
      <trkpt lat="43.54428" lon="6.04501">
        <ele>662.97</ele>
        <time>2012-02-28T10:21:43Z</time>
      </trkpt>
      <trkpt lat="43.54426" lon="6.04508">
        <ele>665.37</ele>
        <time>2012-02-28T10:21:59Z</time>
      </trkpt>
      <trkpt lat="43.54427" lon="6.04517">
        <ele>666.81</ele>
        <time>2012-02-28T10:22:12Z</time>
      </trkpt>
      <trkpt lat="43.54426" lon="6.04523">
        <ele>667.29</ele>
        <time>2012-02-28T10:22:29Z</time>
      </trkpt>
      <trkpt lat="43.54427" lon="6.04525">
        <ele>667.77</ele>
        <time>2012-02-28T10:22:38Z</time>
      </trkpt>
      <trkpt lat="43.54423" lon="6.0453">
        <ele>670.18</ele>
        <time>2012-02-28T10:22:56Z</time>
      </trkpt>
      <trkpt lat="43.54424" lon="6.0453">
        <ele>671.14</ele>
        <time>2012-02-28T10:23:12Z</time>
      </trkpt>
      <trkpt lat="43.54427" lon="6.04523">
        <ele>671.14</ele>
        <time>2012-02-28T10:23:26Z</time>
      </trkpt>
      <trkpt lat="43.54428" lon="6.0452">
        <ele>670.18</ele>
        <time>2012-02-28T10:23:39Z</time>
      </trkpt>
      <trkpt lat="43.54428" lon="6.0452">
        <ele>674.98</ele>
        <time>2012-02-28T11:17:59Z</time>
      </trkpt>
      <trkpt lat="43.54426" lon="6.04523">
        <ele>673.06</ele>
        <time>2012-02-28T11:18:36Z</time>
      </trkpt>
      <trkpt lat="43.54426" lon="6.04526">
        <ele>671.14</ele>
        <time>2012-02-28T11:19:07Z</time>
      </trkpt>
      <trkpt lat="43.54426" lon="6.04525">
        <ele>670.66</ele>
        <time>2012-02-28T11:19:39Z</time>
      </trkpt>
      <trkpt lat="43.54428" lon="6.04527">
        <ele>670.18</ele>
        <time>2012-02-28T11:20:13Z</time>
      </trkpt>
      <trkpt lat="43.54428" lon="6.04527">
        <ele>671.62</ele>
        <time>2012-02-28T11:20:38Z</time>
      </trkpt>
      <trkpt lat="43.54428" lon="6.04531">
        <ele>671.62</ele>
        <time>2012-02-28T11:20:55Z</time>
      </trkpt>
      <trkpt lat="43.54428" lon="6.04533">
        <ele>671.62</ele>
        <time>2012-02-28T11:21:02Z</time>
      </trkpt>
      <trkpt lat="43.54423" lon="6.04543">
        <ele>668.25</ele>
        <time>2012-02-28T11:21:18Z</time>
      </trkpt>
      <trkpt lat="43.54415" lon="6.0455">
        <ele>663.93</ele>
        <time>2012-02-28T11:21:36Z</time>
      </trkpt>
      <trkpt lat="43.54413" lon="6.04554">
        <ele>663.45</ele>
        <time>2012-02-28T11:21:51Z</time>
      </trkpt>
      <trkpt lat="43.5441" lon="6.04561">
        <ele>663.93</ele>
        <time>2012-02-28T11:22:07Z</time>
      </trkpt>
      <trkpt lat="43.54406" lon="6.04574">
        <ele>664.41</ele>
        <time>2012-02-28T11:22:27Z</time>
      </trkpt>
      <trkpt lat="43.54405" lon="6.04581">
        <ele>666.81</ele>
        <time>2012-02-28T11:22:46Z</time>
      </trkpt>
      <trkpt lat="43.54406" lon="6.04589">
        <ele>669.22</ele>
        <time>2012-02-28T11:23:01Z</time>
      </trkpt>
      <trkpt lat="43.54408" lon="6.04592">
        <ele>671.14</ele>
        <time>2012-02-28T11:23:16Z</time>
      </trkpt>
      <trkpt lat="43.54409" lon="6.04593">
        <ele>671.14</ele>
        <time>2012-02-28T11:23:42Z</time>
      </trkpt>
      <trkpt lat="43.5441" lon="6.04594">
        <ele>671.14</ele>
        <time>2012-02-28T11:23:44Z</time>
      </trkpt>
      <trkpt lat="43.54414" lon="6.04603">
        <ele>669.22</ele>
        <time>2012-02-28T11:24:03Z</time>
      </trkpt>
      <trkpt lat="43.54414" lon="6.04603">
        <ele>668.73</ele>
        <time>2012-02-28T11:24:08Z</time>
      </trkpt>
      <trkpt lat="43.54412" lon="6.04613">
        <ele>666.81</ele>
        <time>2012-02-28T11:24:22Z</time>
      </trkpt>
      <trkpt lat="43.54416" lon="6.04621">
        <ele>667.77</ele>
        <time>2012-02-28T11:24:40Z</time>
      </trkpt>
      <trkpt lat="43.54419" lon="6.04627">
        <ele>662.97</ele>
        <time>2012-02-28T11:24:59Z</time>
      </trkpt>
      <trkpt lat="43.54423" lon="6.04634">
        <ele>660.56</ele>
        <time>2012-02-28T11:25:18Z</time>
      </trkpt>
      <trkpt lat="43.54425" lon="6.04636">
        <ele>658.64</ele>
        <time>2012-02-28T11:25:24Z</time>
      </trkpt>
      <trkpt lat="43.54435" lon="6.04647">
        <ele>653.83</ele>
        <time>2012-02-28T11:25:44Z</time>
      </trkpt>
      <trkpt lat="43.54434" lon="6.04646">
        <ele>654.31</ele>
        <time>2012-02-28T11:26:00Z</time>
      </trkpt>
      <trkpt lat="43.54431" lon="6.04653">
        <ele>654.31</ele>
        <time>2012-02-28T11:26:06Z</time>
      </trkpt>
      <trkpt lat="43.54432" lon="6.0466">
        <ele>654.31</ele>
        <time>2012-02-28T11:26:26Z</time>
      </trkpt>
      <trkpt lat="43.54432" lon="6.04658">
        <ele>654.8</ele>
        <time>2012-02-28T11:26:58Z</time>
      </trkpt>
      <trkpt lat="43.54432" lon="6.04655">
        <ele>657.68</ele>
        <time>2012-02-28T11:27:27Z</time>
      </trkpt>
      <trkpt lat="43.54433" lon="6.04648">
        <ele>657.68</ele>
        <time>2012-02-28T11:27:47Z</time>
      </trkpt>
      <trkpt lat="43.54435" lon="6.04635">
        <ele>655.28</ele>
        <time>2012-02-28T11:28:03Z</time>
      </trkpt>
      <trkpt lat="43.54435" lon="6.04628">
        <ele>652.87</ele>
        <time>2012-02-28T11:28:19Z</time>
      </trkpt>
      <trkpt lat="43.54439" lon="6.04625">
        <ele>651.43</ele>
        <time>2012-02-28T11:28:36Z</time>
      </trkpt>
      <trkpt lat="43.54442" lon="6.0463">
        <ele>649.03</ele>
        <time>2012-02-28T11:28:52Z</time>
      </trkpt>
      <trkpt lat="43.54444" lon="6.0463">
        <ele>646.14</ele>
        <time>2012-02-28T11:29:09Z</time>
      </trkpt>
      <trkpt lat="43.54446" lon="6.04636">
        <ele>644.22</ele>
        <time>2012-02-28T11:29:27Z</time>
      </trkpt>
      <trkpt lat="43.54449" lon="6.04644">
        <ele>640.86</ele>
        <time>2012-02-28T11:29:44Z</time>
      </trkpt>
      <trkpt lat="43.54455" lon="6.04649">
        <ele>636.53</ele>
        <time>2012-02-28T11:30:01Z</time>
      </trkpt>
      <trkpt lat="43.54459" lon="6.04649">
        <ele>632.68</ele>
        <time>2012-02-28T11:30:18Z</time>
      </trkpt>
      <trkpt lat="43.54464" lon="6.04644">
        <ele>629.8</ele>
        <time>2012-02-28T11:30:32Z</time>
      </trkpt>
      <trkpt lat="43.54466" lon="6.04646">
        <ele>627.4</ele>
        <time>2012-02-28T11:30:37Z</time>
      </trkpt>
      <trkpt lat="43.54471" lon="6.04648">
        <ele>621.63</ele>
        <time>2012-02-28T11:30:55Z</time>
      </trkpt>
      <trkpt lat="43.54475" lon="6.04648">
        <ele>619.23</ele>
        <time>2012-02-28T11:31:12Z</time>
      </trkpt>
      <trkpt lat="43.54478" lon="6.04641">
        <ele>618.75</ele>
        <time>2012-02-28T11:31:29Z</time>
      </trkpt>
      <trkpt lat="43.54483" lon="6.04634">
        <ele>615.86</ele>
        <time>2012-02-28T11:31:47Z</time>
      </trkpt>
      <trkpt lat="43.54483" lon="6.04631">
        <ele>615.38</ele>
        <time>2012-02-28T11:31:49Z</time>
      </trkpt>
      <trkpt lat="43.54488" lon="6.0463">
        <ele>614.9</ele>
        <time>2012-02-28T11:32:04Z</time>
      </trkpt>
      <trkpt lat="43.54494" lon="6.04648">
        <ele>609.61</ele>
        <time>2012-02-28T11:32:24Z</time>
      </trkpt>
      <trkpt lat="43.54498" lon="6.04655">
        <ele>604.33</ele>
        <time>2012-02-28T11:32:42Z</time>
      </trkpt>
      <trkpt lat="43.545" lon="6.04654">
        <ele>601.44</ele>
        <time>2012-02-28T11:33:02Z</time>
      </trkpt>
      <trkpt lat="43.54503" lon="6.04655">
        <ele>597.12</ele>
        <time>2012-02-28T11:33:17Z</time>
      </trkpt>
      <trkpt lat="43.54506" lon="6.04662">
        <ele>593.75</ele>
        <time>2012-02-28T11:33:31Z</time>
      </trkpt>
      <trkpt lat="43.54511" lon="6.04663">
        <ele>590.39</ele>
        <time>2012-02-28T11:33:48Z</time>
      </trkpt>
      <trkpt lat="43.54518" lon="6.04666">
        <ele>586.54</ele>
        <time>2012-02-28T11:34:03Z</time>
      </trkpt>
      <trkpt lat="43.54523" lon="6.04661">
        <ele>583.18</ele>
        <time>2012-02-28T11:34:22Z</time>
      </trkpt>
      <trkpt lat="43.54522" lon="6.04661">
        <ele>584.14</ele>
        <time>2012-02-28T11:34:43Z</time>
      </trkpt>
      <trkpt lat="43.54522" lon="6.04663">
        <ele>584.62</ele>
        <time>2012-02-28T11:35:11Z</time>
      </trkpt>
      <trkpt lat="43.54525" lon="6.04669">
        <ele>579.81</ele>
        <time>2012-02-28T11:35:27Z</time>
      </trkpt>
      <trkpt lat="43.54532" lon="6.0467">
        <ele>575.97</ele>
        <time>2012-02-28T11:35:43Z</time>
      </trkpt>
      <trkpt lat="43.54538" lon="6.04668">
        <ele>572.6</ele>
        <time>2012-02-28T11:36:02Z</time>
      </trkpt>
      <trkpt lat="43.54543" lon="6.04672">
        <ele>568.76</ele>
        <time>2012-02-28T11:36:20Z</time>
      </trkpt>
      <trkpt lat="43.54548" lon="6.04676">
        <ele>566.83</ele>
        <time>2012-02-28T11:36:37Z</time>
      </trkpt>
      <trkpt lat="43.54553" lon="6.04669">
        <ele>563.95</ele>
        <time>2012-02-28T11:36:54Z</time>
      </trkpt>
      <trkpt lat="43.5456" lon="6.04666">
        <ele>561.07</ele>
        <time>2012-02-28T11:37:11Z</time>
      </trkpt>
      <trkpt lat="43.54566" lon="6.0467">
        <ele>555.78</ele>
        <time>2012-02-28T11:37:27Z</time>
      </trkpt>
      <trkpt lat="43.54574" lon="6.04674">
        <ele>546.17</ele>
        <time>2012-02-28T11:37:45Z</time>
      </trkpt>
      <trkpt lat="43.54577" lon="6.04675">
        <ele>545.69</ele>
        <time>2012-02-28T11:38:02Z</time>
      </trkpt>
      <trkpt lat="43.5458" lon="6.04672">
        <ele>544.72</ele>
        <time>2012-02-28T11:38:18Z</time>
      </trkpt>
      <trkpt lat="43.54587" lon="6.04673">
        <ele>541.84</ele>
        <time>2012-02-28T11:38:37Z</time>
      </trkpt>
      <trkpt lat="43.54595" lon="6.0467">
        <ele>539.44</ele>
        <time>2012-02-28T11:38:54Z</time>
      </trkpt>
      <trkpt lat="43.546" lon="6.04668">
        <ele>536.07</ele>
        <time>2012-02-28T11:39:12Z</time>
      </trkpt>
      <trkpt lat="43.54607" lon="6.04665">
        <ele>531.75</ele>
        <time>2012-02-28T11:39:30Z</time>
      </trkpt>
      <trkpt lat="43.54607" lon="6.04665">
        <ele>531.27</ele>
        <time>2012-02-28T11:39:47Z</time>
      </trkpt>
      <trkpt lat="43.54612" lon="6.04662">
        <ele>529.82</ele>
        <time>2012-02-28T11:40:03Z</time>
      </trkpt>
      <trkpt lat="43.5462" lon="6.04658">
        <ele>524.54</ele>
        <time>2012-02-28T11:40:22Z</time>
      </trkpt>
      <trkpt lat="43.54624" lon="6.04658">
        <ele>520.21</ele>
        <time>2012-02-28T11:40:39Z</time>
      </trkpt>
      <trkpt lat="43.54629" lon="6.0466">
        <ele>519.25</ele>
        <time>2012-02-28T11:40:47Z</time>
      </trkpt>
      <trkpt lat="43.54639" lon="6.0466">
        <ele>516.37</ele>
        <time>2012-02-28T11:41:03Z</time>
      </trkpt>
      <trkpt lat="43.54649" lon="6.04666">
        <ele>514.44</ele>
        <time>2012-02-28T11:41:19Z</time>
      </trkpt>
      <trkpt lat="43.54659" lon="6.04673">
        <ele>510.6</ele>
        <time>2012-02-28T11:41:39Z</time>
      </trkpt>
      <trkpt lat="43.54664" lon="6.04675">
        <ele>509.16</ele>
        <time>2012-02-28T11:41:56Z</time>
      </trkpt>
      <trkpt lat="43.54668" lon="6.04675">
        <ele>507.23</ele>
        <time>2012-02-28T11:42:10Z</time>
      </trkpt>
      <trkpt lat="43.5467" lon="6.04677">
        <ele>506.27</ele>
        <time>2012-02-28T11:42:16Z</time>
      </trkpt>
      <trkpt lat="43.54677" lon="6.04676">
        <ele>503.87</ele>
        <time>2012-02-28T11:42:29Z</time>
      </trkpt>
      <trkpt lat="43.54678" lon="6.04677">
        <ele>503.39</ele>
        <time>2012-02-28T11:42:33Z</time>
      </trkpt>
      <trkpt lat="43.54685" lon="6.04681">
        <ele>500.98</ele>
        <time>2012-02-28T11:42:49Z</time>
      </trkpt>
      <trkpt lat="43.54691" lon="6.04686">
        <ele>500.02</ele>
        <time>2012-02-28T11:43:06Z</time>
      </trkpt>
      <trkpt lat="43.54694" lon="6.04687">
        <ele>500.5</ele>
        <time>2012-02-28T11:43:33Z</time>
      </trkpt>
      <trkpt lat="43.54696" lon="6.04688">
        <ele>500.5</ele>
        <time>2012-02-28T11:43:38Z</time>
      </trkpt>
      <trkpt lat="43.54697" lon="6.04687">
        <ele>500.5</ele>
        <time>2012-02-28T11:43:59Z</time>
      </trkpt>
      <trkpt lat="43.54694" lon="6.04684">
        <ele>501.95</ele>
        <time>2012-02-28T11:44:15Z</time>
      </trkpt>
      <trkpt lat="43.54692" lon="6.04681">
        <ele>502.91</ele>
        <time>2012-02-28T11:44:35Z</time>
      </trkpt>
      <trkpt lat="43.54692" lon="6.0468">
        <ele>502.91</ele>
        <time>2012-02-28T11:44:39Z</time>
      </trkpt>
      <trkpt lat="43.54694" lon="6.04688">
        <ele>501.46</ele>
        <time>2012-02-28T11:44:47Z</time>
      </trkpt>
      <trkpt lat="43.54702" lon="6.04691">
        <ele>500.02</ele>
        <time>2012-02-28T11:44:57Z</time>
      </trkpt>
      <trkpt lat="43.54713" lon="6.04691">
        <ele>497.62</ele>
        <time>2012-02-28T11:45:17Z</time>
      </trkpt>
      <trkpt lat="43.5472" lon="6.04694">
        <ele>496.18</ele>
        <time>2012-02-28T11:45:36Z</time>
      </trkpt>
      <trkpt lat="43.54727" lon="6.04694">
        <ele>495.7</ele>
        <time>2012-02-28T11:45:51Z</time>
      </trkpt>
      <trkpt lat="43.54727" lon="6.04694">
        <ele>495.7</ele>
        <time>2012-02-28T11:45:52Z</time>
      </trkpt>
      <trkpt lat="43.54741" lon="6.04696">
        <ele>492.81</ele>
        <time>2012-02-28T11:46:08Z</time>
      </trkpt>
      <trkpt lat="43.54756" lon="6.04698">
        <ele>490.89</ele>
        <time>2012-02-28T11:46:22Z</time>
      </trkpt>
      <trkpt lat="43.5476" lon="6.04698">
        <ele>490.41</ele>
        <time>2012-02-28T11:46:26Z</time>
      </trkpt>
      <trkpt lat="43.54774" lon="6.04701">
        <ele>488.97</ele>
        <time>2012-02-28T11:46:39Z</time>
      </trkpt>
      <trkpt lat="43.54789" lon="6.04705">
        <ele>489.45</ele>
        <time>2012-02-28T11:46:53Z</time>
      </trkpt>
      <trkpt lat="43.54808" lon="6.04713">
        <ele>486.56</ele>
        <time>2012-02-28T11:47:14Z</time>
      </trkpt>
      <trkpt lat="43.54816" lon="6.04711">
        <ele>485.12</ele>
        <time>2012-02-28T11:47:23Z</time>
      </trkpt>
      <trkpt lat="43.54828" lon="6.04702">
        <ele>484.16</ele>
        <time>2012-02-28T11:47:39Z</time>
      </trkpt>
      <trkpt lat="43.5483" lon="6.04698">
        <ele>483.68</ele>
        <time>2012-02-28T11:47:43Z</time>
      </trkpt>
      <trkpt lat="43.54831" lon="6.04697">
        <ele>483.2</ele>
        <time>2012-02-28T11:47:45Z</time>
      </trkpt>
      <trkpt lat="43.54839" lon="6.0469">
        <ele>483.68</ele>
        <time>2012-02-28T11:47:58Z</time>
      </trkpt>
      <trkpt lat="43.5484" lon="6.04687">
        <ele>483.2</ele>
        <time>2012-02-28T11:48:00Z</time>
      </trkpt>
      <trkpt lat="43.54843" lon="6.04679">
        <ele>482.72</ele>
        <time>2012-02-28T11:48:12Z</time>
      </trkpt>
      <trkpt lat="43.54845" lon="6.0468">
        <ele>482.72</ele>
        <time>2012-02-28T11:48:14Z</time>
      </trkpt>
      <trkpt lat="43.54849" lon="6.04672">
        <ele>482.72</ele>
        <time>2012-02-28T11:48:31Z</time>
      </trkpt>
      <trkpt lat="43.54848" lon="6.04671">
        <ele>482.24</ele>
        <time>2012-02-28T11:48:32Z</time>
      </trkpt>
      <trkpt lat="43.54846" lon="6.04659">
        <ele>482.24</ele>
        <time>2012-02-28T11:48:39Z</time>
      </trkpt>
      <trkpt lat="43.54849" lon="6.04645">
        <ele>482.72</ele>
        <time>2012-02-28T11:48:55Z</time>
      </trkpt>
      <trkpt lat="43.5485" lon="6.04644">
        <ele>482.72</ele>
        <time>2012-02-28T11:48:56Z</time>
      </trkpt>
      <trkpt lat="43.5485" lon="6.04638">
        <ele>482.72</ele>
        <time>2012-02-28T11:49:00Z</time>
      </trkpt>
      <trkpt lat="43.54852" lon="6.04627">
        <ele>478.39</ele>
        <time>2012-02-28T11:49:09Z</time>
      </trkpt>
      <trkpt lat="43.54853" lon="6.04623">
        <ele>477.91</ele>
        <time>2012-02-28T11:49:12Z</time>
      </trkpt>
      <trkpt lat="43.54853" lon="6.04617">
        <ele>477.91</ele>
        <time>2012-02-28T11:49:15Z</time>
      </trkpt>
      <trkpt lat="43.54853" lon="6.04612">
        <ele>478.87</ele>
        <time>2012-02-28T11:49:18Z</time>
      </trkpt>
      <trkpt lat="43.54853" lon="6.0459">
        <ele>477.91</ele>
        <time>2012-02-28T11:49:35Z</time>
      </trkpt>
      <trkpt lat="43.54857" lon="6.04578">
        <ele>477.91</ele>
        <time>2012-02-28T11:49:41Z</time>
      </trkpt>
      <trkpt lat="43.54858" lon="6.04573">
        <ele>477.91</ele>
        <time>2012-02-28T11:49:45Z</time>
      </trkpt>
      <trkpt lat="43.54859" lon="6.04568">
        <ele>478.39</ele>
        <time>2012-02-28T11:49:49Z</time>
      </trkpt>
      <trkpt lat="43.54862" lon="6.04562">
        <ele>476.95</ele>
        <time>2012-02-28T11:49:55Z</time>
      </trkpt>
      <trkpt lat="43.5487" lon="6.04538">
        <ele>474.55</ele>
        <time>2012-02-28T11:50:13Z</time>
      </trkpt>
      <trkpt lat="43.54871" lon="6.04534">
        <ele>475.03</ele>
        <time>2012-02-28T11:50:16Z</time>
      </trkpt>
      <trkpt lat="43.54872" lon="6.04532">
        <ele>474.55</ele>
        <time>2012-02-28T11:50:18Z</time>
      </trkpt>
      <trkpt lat="43.54872" lon="6.04528">
        <ele>474.55</ele>
        <time>2012-02-28T11:50:21Z</time>
      </trkpt>
      <trkpt lat="43.54874" lon="6.04521">
        <ele>473.11</ele>
        <time>2012-02-28T11:50:27Z</time>
      </trkpt>
      <trkpt lat="43.54879" lon="6.04498">
        <ele>470.22</ele>
        <time>2012-02-28T11:50:43Z</time>
      </trkpt>
      <trkpt lat="43.54882" lon="6.04491">
        <ele>468.78</ele>
        <time>2012-02-28T11:50:49Z</time>
      </trkpt>
      <trkpt lat="43.54885" lon="6.04485">
        <ele>469.26</ele>
        <time>2012-02-28T11:50:54Z</time>
      </trkpt>
      <trkpt lat="43.5489" lon="6.0447">
        <ele>468.3</ele>
        <time>2012-02-28T11:51:11Z</time>
      </trkpt>
      <trkpt lat="43.5489" lon="6.0447">
        <ele>469.26</ele>
        <time>2012-02-28T11:51:17Z</time>
      </trkpt>
      <trkpt lat="43.54893" lon="6.04456">
        <ele>468.78</ele>
        <time>2012-02-28T11:51:31Z</time>
      </trkpt>
      <trkpt lat="43.54899" lon="6.04447">
        <ele>469.26</ele>
        <time>2012-02-28T11:51:38Z</time>
      </trkpt>
      <trkpt lat="43.54902" lon="6.04439">
        <ele>471.18</ele>
        <time>2012-02-28T11:51:46Z</time>
      </trkpt>
      <trkpt lat="43.54909" lon="6.04423">
        <ele>473.11</ele>
        <time>2012-02-28T11:51:58Z</time>
      </trkpt>
      <trkpt lat="43.54911" lon="6.04419">
        <ele>474.07</ele>
        <time>2012-02-28T11:52:01Z</time>
      </trkpt>
      <trkpt lat="43.54915" lon="6.04415">
        <ele>475.03</ele>
        <time>2012-02-28T11:52:05Z</time>
      </trkpt>
      <trkpt lat="43.54918" lon="6.04401">
        <ele>471.18</ele>
        <time>2012-02-28T11:52:17Z</time>
      </trkpt>
      <trkpt lat="43.54925" lon="6.04387">
        <ele>470.22</ele>
        <time>2012-02-28T11:52:31Z</time>
      </trkpt>
      <trkpt lat="43.54934" lon="6.04387">
        <ele>468.3</ele>
        <time>2012-02-28T11:52:38Z</time>
      </trkpt>
      <trkpt lat="43.54933" lon="6.04383">
        <ele>465.42</ele>
        <time>2012-02-28T11:52:52Z</time>
      </trkpt>
      <trkpt lat="43.54929" lon="6.04375">
        <ele>464.45</ele>
        <time>2012-02-28T11:52:59Z</time>
      </trkpt>
      <trkpt lat="43.54931" lon="6.04361">
        <ele>463.97</ele>
        <time>2012-02-28T11:53:21Z</time>
      </trkpt>
      <trkpt lat="43.54942" lon="6.04344">
        <ele>463.01</ele>
        <time>2012-02-28T11:53:38Z</time>
      </trkpt>
      <trkpt lat="43.54949" lon="6.04329">
        <ele>462.53</ele>
        <time>2012-02-28T11:53:53Z</time>
      </trkpt>
      <trkpt lat="43.54951" lon="6.04326">
        <ele>463.01</ele>
        <time>2012-02-28T11:53:56Z</time>
      </trkpt>
      <trkpt lat="43.54953" lon="6.04324">
        <ele>463.01</ele>
        <time>2012-02-28T11:53:59Z</time>
      </trkpt>
      <trkpt lat="43.54959" lon="6.04308">
        <ele>463.49</ele>
        <time>2012-02-28T11:54:14Z</time>
      </trkpt>
      <trkpt lat="43.54967" lon="6.04291">
        <ele>461.57</ele>
        <time>2012-02-28T11:54:32Z</time>
      </trkpt>
      <trkpt lat="43.54972" lon="6.04272">
        <ele>462.05</ele>
        <time>2012-02-28T11:54:48Z</time>
      </trkpt>
      <trkpt lat="43.54981" lon="6.04247">
        <ele>462.05</ele>
        <time>2012-02-28T11:55:08Z</time>
      </trkpt>
      <trkpt lat="43.54989" lon="6.04227">
        <ele>463.01</ele>
        <time>2012-02-28T11:55:26Z</time>
      </trkpt>
      <trkpt lat="43.54993" lon="6.04217">
        <ele>463.49</ele>
        <time>2012-02-28T11:55:34Z</time>
      </trkpt>
      <trkpt lat="43.54996" lon="6.0421">
        <ele>463.49</ele>
        <time>2012-02-28T11:55:41Z</time>
      </trkpt>
      <trkpt lat="43.55002" lon="6.04194">
        <ele>461.57</ele>
        <time>2012-02-28T11:55:57Z</time>
      </trkpt>
      <trkpt lat="43.55009" lon="6.04179">
        <ele>460.13</ele>
        <time>2012-02-28T11:56:14Z</time>
      </trkpt>
      <trkpt lat="43.55016" lon="6.04163">
        <ele>458.69</ele>
        <time>2012-02-28T11:56:30Z</time>
      </trkpt>
      <trkpt lat="43.55026" lon="6.04144">
        <ele>460.13</ele>
        <time>2012-02-28T11:56:50Z</time>
      </trkpt>
      <trkpt lat="43.5503" lon="6.04135">
        <ele>459.65</ele>
        <time>2012-02-28T11:56:58Z</time>
      </trkpt>
      <trkpt lat="43.55033" lon="6.04122">
        <ele>457.24</ele>
        <time>2012-02-28T11:57:10Z</time>
      </trkpt>
      <trkpt lat="43.55036" lon="6.0411">
        <ele>457.24</ele>
        <time>2012-02-28T11:57:27Z</time>
      </trkpt>
      <trkpt lat="43.55034" lon="6.04111">
        <ele>455.32</ele>
        <time>2012-02-28T11:58:06Z</time>
      </trkpt>
      <trkpt lat="43.55035" lon="6.04108">
        <ele>453.88</ele>
        <time>2012-02-28T11:58:42Z</time>
      </trkpt>
      <trkpt lat="43.5504" lon="6.04097">
        <ele>451</ele>
        <time>2012-02-28T11:58:55Z</time>
      </trkpt>
      <trkpt lat="43.55042" lon="6.04081">
        <ele>449.55</ele>
        <time>2012-02-28T11:59:09Z</time>
      </trkpt>
      <trkpt lat="43.55042" lon="6.04081">
        <ele>450.52</ele>
        <time>2012-02-28T11:59:37Z</time>
      </trkpt>
      <trkpt lat="43.55044" lon="6.04078">
        <ele>450.03</ele>
        <time>2012-02-28T11:59:54Z</time>
      </trkpt>
      <trkpt lat="43.55045" lon="6.04071">
        <ele>450.03</ele>
        <time>2012-02-28T12:00:23Z</time>
      </trkpt>
      <trkpt lat="43.55045" lon="6.0407">
        <ele>450.03</ele>
        <time>2012-02-28T12:00:24Z</time>
      </trkpt>
      <trkpt lat="43.55046" lon="6.04068">
        <ele>450.03</ele>
        <time>2012-02-28T12:00:26Z</time>
      </trkpt>
      <trkpt lat="43.5505" lon="6.04046">
        <ele>449.07</ele>
        <time>2012-02-28T12:00:46Z</time>
      </trkpt>
      <trkpt lat="43.55055" lon="6.04022">
        <ele>447.63</ele>
        <time>2012-02-28T12:01:06Z</time>
      </trkpt>
      <trkpt lat="43.55062" lon="6.04001">
        <ele>447.15</ele>
        <time>2012-02-28T12:01:24Z</time>
      </trkpt>
      <trkpt lat="43.55064" lon="6.03998">
        <ele>445.71</ele>
        <time>2012-02-28T12:01:29Z</time>
      </trkpt>
      <trkpt lat="43.55068" lon="6.03986">
        <ele>443.31</ele>
        <time>2012-02-28T12:01:37Z</time>
      </trkpt>
      <trkpt lat="43.55068" lon="6.03982">
        <ele>442.82</ele>
        <time>2012-02-28T12:01:40Z</time>
      </trkpt>
      <trkpt lat="43.55073" lon="6.03978">
        <ele>441.86</ele>
        <time>2012-02-28T12:01:49Z</time>
      </trkpt>
      <trkpt lat="43.55073" lon="6.03975">
        <ele>441.86</ele>
        <time>2012-02-28T12:01:51Z</time>
      </trkpt>
      <trkpt lat="43.55071" lon="6.03971">
        <ele>441.86</ele>
        <time>2012-02-28T12:01:58Z</time>
      </trkpt>
      <trkpt lat="43.55068" lon="6.03977">
        <ele>441.38</ele>
        <time>2012-02-28T12:02:05Z</time>
      </trkpt>
      <trkpt lat="43.55067" lon="6.03971">
        <ele>443.79</ele>
        <time>2012-02-28T12:02:28Z</time>
      </trkpt>
      <trkpt lat="43.55067" lon="6.03969">
        <ele>443.79</ele>
        <time>2012-02-28T12:02:32Z</time>
      </trkpt>
      <trkpt lat="43.55067" lon="6.03962">
        <ele>441.38</ele>
        <time>2012-02-28T12:02:46Z</time>
      </trkpt>
      <trkpt lat="43.55067" lon="6.0396">
        <ele>442.34</ele>
        <time>2012-02-28T12:02:49Z</time>
      </trkpt>
      <trkpt lat="43.55067" lon="6.03941">
        <ele>445.23</ele>
        <time>2012-02-28T12:03:04Z</time>
      </trkpt>
      <trkpt lat="43.5507" lon="6.03922">
        <ele>443.79</ele>
        <time>2012-02-28T12:03:19Z</time>
      </trkpt>
      <trkpt lat="43.55071" lon="6.03919">
        <ele>443.79</ele>
        <time>2012-02-28T12:03:21Z</time>
      </trkpt>
      <trkpt lat="43.5507" lon="6.03915">
        <ele>443.79</ele>
        <time>2012-02-28T12:03:24Z</time>
      </trkpt>
      <trkpt lat="43.55073" lon="6.03894">
        <ele>443.31</ele>
        <time>2012-02-28T12:03:40Z</time>
      </trkpt>
      <trkpt lat="43.55078" lon="6.03874">
        <ele>440.9</ele>
        <time>2012-02-28T12:03:56Z</time>
      </trkpt>
      <trkpt lat="43.5508" lon="6.03871">
        <ele>440.9</ele>
        <time>2012-02-28T12:03:58Z</time>
      </trkpt>
      <trkpt lat="43.55081" lon="6.03867">
        <ele>440.42</ele>
        <time>2012-02-28T12:04:01Z</time>
      </trkpt>
      <trkpt lat="43.55083" lon="6.03865">
        <ele>439.94</ele>
        <time>2012-02-28T12:04:03Z</time>
      </trkpt>
      <trkpt lat="43.55087" lon="6.03852">
        <ele>436.58</ele>
        <time>2012-02-28T12:04:13Z</time>
      </trkpt>
      <trkpt lat="43.5509" lon="6.03849">
        <ele>435.61</ele>
        <time>2012-02-28T12:04:16Z</time>
      </trkpt>
      <trkpt lat="43.55092" lon="6.03846">
        <ele>435.61</ele>
        <time>2012-02-28T12:04:19Z</time>
      </trkpt>
      <trkpt lat="43.55096" lon="6.0383">
        <ele>434.65</ele>
        <time>2012-02-28T12:04:31Z</time>
      </trkpt>
      <trkpt lat="43.55099" lon="6.03803">
        <ele>432.73</ele>
        <time>2012-02-28T12:04:50Z</time>
      </trkpt>
      <trkpt lat="43.551" lon="6.03776">
        <ele>431.77</ele>
        <time>2012-02-28T12:05:09Z</time>
      </trkpt>
      <trkpt lat="43.55107" lon="6.0375">
        <ele>430.33</ele>
        <time>2012-02-28T12:05:28Z</time>
      </trkpt>
      <trkpt lat="43.55113" lon="6.03728">
        <ele>429.37</ele>
        <time>2012-02-28T12:05:44Z</time>
      </trkpt>
      <trkpt lat="43.55115" lon="6.03724">
        <ele>428.89</ele>
        <time>2012-02-28T12:05:47Z</time>
      </trkpt>
      <trkpt lat="43.55117" lon="6.03715">
        <ele>427.92</ele>
        <time>2012-02-28T12:05:53Z</time>
      </trkpt>
      <trkpt lat="43.55118" lon="6.03704">
        <ele>427.92</ele>
        <time>2012-02-28T12:06:00Z</time>
      </trkpt>
      <trkpt lat="43.5512" lon="6.03696">
        <ele>428.4</ele>
        <time>2012-02-28T12:06:07Z</time>
      </trkpt>
      <trkpt lat="43.55121" lon="6.03687">
        <ele>428.89</ele>
        <time>2012-02-28T12:06:13Z</time>
      </trkpt>
      <trkpt lat="43.55117" lon="6.03665">
        <ele>427.44</ele>
        <time>2012-02-28T12:06:28Z</time>
      </trkpt>
      <trkpt lat="43.5511" lon="6.03643">
        <ele>426.48</ele>
        <time>2012-02-28T12:06:44Z</time>
      </trkpt>
      <trkpt lat="43.55109" lon="6.0364">
        <ele>426</ele>
        <time>2012-02-28T12:06:46Z</time>
      </trkpt>
      <trkpt lat="43.5511" lon="6.03632">
        <ele>425.04</ele>
        <time>2012-02-28T12:06:52Z</time>
      </trkpt>
      <trkpt lat="43.55109" lon="6.03628">
        <ele>424.08</ele>
        <time>2012-02-28T12:06:55Z</time>
      </trkpt>
      <trkpt lat="43.55109" lon="6.03613">
        <ele>419.75</ele>
        <time>2012-02-28T12:07:05Z</time>
      </trkpt>
      <trkpt lat="43.55109" lon="6.03602">
        <ele>417.83</ele>
        <time>2012-02-28T12:07:13Z</time>
      </trkpt>
      <trkpt lat="43.55109" lon="6.0358">
        <ele>417.83</ele>
        <time>2012-02-28T12:07:29Z</time>
      </trkpt>
      <trkpt lat="43.55113" lon="6.03561">
        <ele>415.43</ele>
        <time>2012-02-28T12:07:41Z</time>
      </trkpt>
      <trkpt lat="43.55117" lon="6.03563">
        <ele>415.43</ele>
        <time>2012-02-28T12:07:47Z</time>
      </trkpt>
      <trkpt lat="43.55124" lon="6.03538">
        <ele>414.47</ele>
        <time>2012-02-28T12:08:01Z</time>
      </trkpt>
      <trkpt lat="43.55135" lon="6.0353">
        <ele>412.06</ele>
        <time>2012-02-28T12:08:16Z</time>
      </trkpt>
      <trkpt lat="43.55149" lon="6.03519">
        <ele>410.14</ele>
        <time>2012-02-28T12:08:32Z</time>
      </trkpt>
      <trkpt lat="43.55158" lon="6.03503">
        <ele>407.74</ele>
        <time>2012-02-28T12:08:47Z</time>
      </trkpt>
      <trkpt lat="43.55161" lon="6.03495">
        <ele>408.22</ele>
        <time>2012-02-28T12:08:53Z</time>
      </trkpt>
      <trkpt lat="43.55164" lon="6.03488">
        <ele>407.74</ele>
        <time>2012-02-28T12:08:57Z</time>
      </trkpt>
      <trkpt lat="43.55166" lon="6.03484">
        <ele>407.74</ele>
        <time>2012-02-28T12:09:01Z</time>
      </trkpt>
      <trkpt lat="43.55168" lon="6.03481">
        <ele>408.22</ele>
        <time>2012-02-28T12:09:04Z</time>
      </trkpt>
      <trkpt lat="43.55171" lon="6.03468">
        <ele>407.26</ele>
        <time>2012-02-28T12:09:15Z</time>
      </trkpt>
      <trkpt lat="43.55172" lon="6.03467">
        <ele>407.26</ele>
        <time>2012-02-28T12:09:16Z</time>
      </trkpt>
      <trkpt lat="43.55176" lon="6.03461">
        <ele>407.26</ele>
        <time>2012-02-28T12:09:20Z</time>
      </trkpt>
      <trkpt lat="43.55178" lon="6.03457">
        <ele>406.29</ele>
        <time>2012-02-28T12:09:23Z</time>
      </trkpt>
      <trkpt lat="43.55173" lon="6.03443">
        <ele>402.93</ele>
        <time>2012-02-28T12:09:35Z</time>
      </trkpt>
      <trkpt lat="43.55175" lon="6.0344">
        <ele>402.93</ele>
        <time>2012-02-28T12:09:37Z</time>
      </trkpt>
      <trkpt lat="43.55175" lon="6.03434">
        <ele>405.33</ele>
        <time>2012-02-28T12:09:41Z</time>
      </trkpt>
      <trkpt lat="43.55183" lon="6.03422">
        <ele>405.33</ele>
        <time>2012-02-28T12:09:49Z</time>
      </trkpt>
      <trkpt lat="43.55182" lon="6.03413">
        <ele>402.93</ele>
        <time>2012-02-28T12:09:58Z</time>
      </trkpt>
      <trkpt lat="43.55182" lon="6.03407">
        <ele>402.45</ele>
        <time>2012-02-28T12:10:03Z</time>
      </trkpt>
      <trkpt lat="43.55185" lon="6.03402">
        <ele>402.93</ele>
        <time>2012-02-28T12:10:06Z</time>
      </trkpt>
      <trkpt lat="43.55189" lon="6.03392">
        <ele>406.29</ele>
        <time>2012-02-28T12:10:12Z</time>
      </trkpt>
      <trkpt lat="43.55194" lon="6.03385">
        <ele>407.26</ele>
        <time>2012-02-28T12:10:17Z</time>
      </trkpt>
      <trkpt lat="43.55196" lon="6.03381">
        <ele>409.66</ele>
        <time>2012-02-28T12:10:20Z</time>
      </trkpt>
      <trkpt lat="43.55207" lon="6.03359">
        <ele>413.98</ele>
        <time>2012-02-28T12:10:38Z</time>
      </trkpt>
      <trkpt lat="43.55215" lon="6.03346">
        <ele>413.5</ele>
        <time>2012-02-28T12:10:49Z</time>
      </trkpt>
      <trkpt lat="43.55227" lon="6.03323">
        <ele>413.02</ele>
        <time>2012-02-28T12:11:07Z</time>
      </trkpt>
      <trkpt lat="43.55228" lon="6.03318">
        <ele>412.06</ele>
        <time>2012-02-28T12:11:11Z</time>
      </trkpt>
      <trkpt lat="43.55231" lon="6.03313">
        <ele>411.1</ele>
        <time>2012-02-28T12:11:19Z</time>
      </trkpt>
      <trkpt lat="43.55233" lon="6.03314">
        <ele>410.62</ele>
        <time>2012-02-28T12:11:25Z</time>
      </trkpt>
      <trkpt lat="43.55238" lon="6.03305">
        <ele>408.22</ele>
        <time>2012-02-28T12:11:47Z</time>
      </trkpt>
      <trkpt lat="43.55239" lon="6.03305">
        <ele>408.22</ele>
        <time>2012-02-28T12:11:51Z</time>
      </trkpt>
      <trkpt lat="43.55242" lon="6.03303">
        <ele>407.74</ele>
        <time>2012-02-28T12:11:54Z</time>
      </trkpt>
      <trkpt lat="43.55256" lon="6.03283">
        <ele>405.81</ele>
        <time>2012-02-28T12:12:14Z</time>
      </trkpt>
      <trkpt lat="43.55264" lon="6.03271">
        <ele>404.37</ele>
        <time>2012-02-28T12:12:26Z</time>
      </trkpt>
      <trkpt lat="43.55274" lon="6.03251">
        <ele>402.45</ele>
        <time>2012-02-28T12:12:43Z</time>
      </trkpt>
      <trkpt lat="43.55275" lon="6.0325">
        <ele>402.45</ele>
        <time>2012-02-28T12:12:44Z</time>
      </trkpt>
      <trkpt lat="43.55277" lon="6.03247">
        <ele>401.49</ele>
        <time>2012-02-28T12:12:47Z</time>
      </trkpt>
      <trkpt lat="43.55279" lon="6.03245">
        <ele>401.49</ele>
        <time>2012-02-28T12:12:49Z</time>
      </trkpt>
      <trkpt lat="43.5528" lon="6.03242">
        <ele>401.49</ele>
        <time>2012-02-28T12:12:56Z</time>
      </trkpt>
      <trkpt lat="43.55281" lon="6.03239">
        <ele>400.05</ele>
        <time>2012-02-28T12:13:00Z</time>
      </trkpt>
      <trkpt lat="43.55286" lon="6.0323">
        <ele>398.12</ele>
        <time>2012-02-28T12:13:09Z</time>
      </trkpt>
      <trkpt lat="43.55301" lon="6.03213">
        <ele>396.68</ele>
        <time>2012-02-28T12:13:27Z</time>
      </trkpt>
      <trkpt lat="43.55309" lon="6.03205">
        <ele>396.2</ele>
        <time>2012-02-28T12:13:37Z</time>
      </trkpt>
      <trkpt lat="43.55319" lon="6.03188">
        <ele>395.72</ele>
        <time>2012-02-28T12:13:54Z</time>
      </trkpt>
      <trkpt lat="43.55326" lon="6.0317">
        <ele>395.72</ele>
        <time>2012-02-28T12:14:10Z</time>
      </trkpt>
      <trkpt lat="43.55329" lon="6.03166">
        <ele>395.24</ele>
        <time>2012-02-28T12:14:18Z</time>
      </trkpt>
      <trkpt lat="43.55336" lon="6.03163">
        <ele>395.72</ele>
        <time>2012-02-28T12:14:34Z</time>
      </trkpt>
      <trkpt lat="43.55339" lon="6.03164">
        <ele>396.68</ele>
        <time>2012-02-28T12:14:39Z</time>
      </trkpt>
      <trkpt lat="43.55345" lon="6.03164">
        <ele>398.12</ele>
        <time>2012-02-28T12:14:52Z</time>
      </trkpt>
      <trkpt lat="43.55351" lon="6.03158">
        <ele>399.57</ele>
        <time>2012-02-28T12:14:59Z</time>
      </trkpt>
      <trkpt lat="43.55361" lon="6.03157">
        <ele>403.89</ele>
        <time>2012-02-28T12:15:15Z</time>
      </trkpt>
      <trkpt lat="43.5537" lon="6.03158">
        <ele>406.29</ele>
        <time>2012-02-28T12:15:31Z</time>
      </trkpt>
      <trkpt lat="43.55379" lon="6.03151">
        <ele>403.89</ele>
        <time>2012-02-28T12:15:54Z</time>
      </trkpt>
      <trkpt lat="43.55388" lon="6.03149">
        <ele>403.41</ele>
        <time>2012-02-28T12:16:14Z</time>
      </trkpt>
      <trkpt lat="43.55398" lon="6.03142">
        <ele>405.33</ele>
        <time>2012-02-28T12:16:33Z</time>
      </trkpt>
      <trkpt lat="43.55402" lon="6.0314">
        <ele>405.81</ele>
        <time>2012-02-28T12:16:53Z</time>
      </trkpt>
      <trkpt lat="43.55402" lon="6.03139">
        <ele>405.81</ele>
        <time>2012-02-28T12:17:25Z</time>
      </trkpt>
      <trkpt lat="43.55408" lon="6.0314">
        <ele>403.89</ele>
        <time>2012-02-28T12:17:51Z</time>
      </trkpt>
      <trkpt lat="43.55413" lon="6.0313">
        <ele>402.93</ele>
        <time>2012-02-28T12:18:03Z</time>
      </trkpt>
      <trkpt lat="43.55421" lon="6.03126">
        <ele>402.93</ele>
        <time>2012-02-28T12:18:20Z</time>
      </trkpt>
      <trkpt lat="43.55431" lon="6.0313">
        <ele>404.37</ele>
        <time>2012-02-28T12:18:41Z</time>
      </trkpt>
      <trkpt lat="43.55425" lon="6.03122">
        <ele>405.81</ele>
        <time>2012-02-28T12:19:01Z</time>
      </trkpt>
      <trkpt lat="43.55418" lon="6.03116">
        <ele>404.37</ele>
        <time>2012-02-28T12:19:19Z</time>
      </trkpt>
      <trkpt lat="43.55411" lon="6.03108">
        <ele>401.97</ele>
        <time>2012-02-28T12:19:36Z</time>
      </trkpt>
      <trkpt lat="43.55409" lon="6.03108">
        <ele>402.45</ele>
        <time>2012-02-28T12:19:38Z</time>
      </trkpt>
      <trkpt lat="43.55396" lon="6.03106">
        <ele>398.6</ele>
        <time>2012-02-28T12:19:56Z</time>
      </trkpt>
      <trkpt lat="43.55393" lon="6.03102">
        <ele>399.57</ele>
        <time>2012-02-28T12:20:15Z</time>
      </trkpt>
      <trkpt lat="43.55397" lon="6.03101">
        <ele>400.53</ele>
        <time>2012-02-28T12:20:23Z</time>
      </trkpt>
      <trkpt lat="43.55398" lon="6.03095">
        <ele>400.05</ele>
        <time>2012-02-28T12:20:27Z</time>
      </trkpt>
      <trkpt lat="43.5539" lon="6.03086">
        <ele>396.2</ele>
        <time>2012-02-28T12:20:52Z</time>
      </trkpt>
      <trkpt lat="43.55389" lon="6.03074">
        <ele>399.08</ele>
        <time>2012-02-28T12:21:08Z</time>
      </trkpt>
      <trkpt lat="43.55388" lon="6.03069">
        <ele>399.57</ele>
        <time>2012-02-28T12:21:26Z</time>
      </trkpt>
      <trkpt lat="43.55388" lon="6.0307">
        <ele>399.57</ele>
        <time>2012-02-28T12:21:27Z</time>
      </trkpt>
      <trkpt lat="43.55389" lon="6.03081">
        <ele>398.6</ele>
        <time>2012-02-28T12:21:44Z</time>
      </trkpt>
      <trkpt lat="43.55397" lon="6.03073">
        <ele>392.84</ele>
        <time>2012-02-28T12:22:02Z</time>
      </trkpt>
      <trkpt lat="43.55401" lon="6.0307">
        <ele>390.43</ele>
        <time>2012-02-28T12:22:25Z</time>
      </trkpt>
      <trkpt lat="43.55385" lon="6.03064">
        <ele>390.43</ele>
        <time>2012-02-28T12:22:50Z</time>
      </trkpt>
      <trkpt lat="43.55387" lon="6.03061">
        <ele>390.91</ele>
        <time>2012-02-28T12:23:22Z</time>
      </trkpt>
      <trkpt lat="43.55394" lon="6.03068">
        <ele>392.36</ele>
        <time>2012-02-28T12:23:28Z</time>
      </trkpt>
      <trkpt lat="43.55401" lon="6.0307">
        <ele>391.87</ele>
        <time>2012-02-28T12:23:41Z</time>
      </trkpt>
      <trkpt lat="43.55395" lon="6.03067">
        <ele>390.43</ele>
        <time>2012-02-28T12:23:46Z</time>
      </trkpt>
      <trkpt lat="43.5539" lon="6.03067">
        <ele>389.95</ele>
        <time>2012-02-28T12:23:50Z</time>
      </trkpt>
      <trkpt lat="43.55378" lon="6.03066">
        <ele>389.47</ele>
        <time>2012-02-28T12:24:16Z</time>
      </trkpt>
      <trkpt lat="43.55373" lon="6.03061">
        <ele>388.99</ele>
        <time>2012-02-28T12:24:23Z</time>
      </trkpt>
      <trkpt lat="43.55357" lon="6.03088">
        <ele>389.95</ele>
        <time>2012-02-28T12:24:50Z</time>
      </trkpt>
      <trkpt lat="43.55345" lon="6.03078">
        <ele>388.03</ele>
        <time>2012-02-28T12:25:12Z</time>
      </trkpt>
      <trkpt lat="43.55347" lon="6.0307">
        <ele>388.99</ele>
        <time>2012-02-28T12:25:20Z</time>
      </trkpt>
      <trkpt lat="43.55348" lon="6.03064">
        <ele>388.99</ele>
        <time>2012-02-28T12:25:23Z</time>
      </trkpt>
      <trkpt lat="43.55358" lon="6.03052">
        <ele>393.32</ele>
        <time>2012-02-28T12:25:39Z</time>
      </trkpt>
      <trkpt lat="43.55358" lon="6.03053">
        <ele>394.28</ele>
        <time>2012-02-28T12:26:00Z</time>
      </trkpt>
      <trkpt lat="43.55375" lon="6.03046">
        <ele>394.76</ele>
        <time>2012-02-28T12:26:18Z</time>
      </trkpt>
      <trkpt lat="43.55385" lon="6.03047">
        <ele>392.36</ele>
        <time>2012-02-28T12:26:31Z</time>
      </trkpt>
      <trkpt lat="43.55389" lon="6.03048">
        <ele>389.95</ele>
        <time>2012-02-28T12:26:37Z</time>
      </trkpt>
      <trkpt lat="43.55391" lon="6.03046">
        <ele>389.47</ele>
        <time>2012-02-28T12:27:00Z</time>
      </trkpt>
      <trkpt lat="43.55393" lon="6.03047">
        <ele>389.47</ele>
        <time>2012-02-28T12:27:12Z</time>
      </trkpt>
      <trkpt lat="43.55402" lon="6.03048">
        <ele>387.07</ele>
        <time>2012-02-28T12:27:27Z</time>
      </trkpt>
      <trkpt lat="43.55414" lon="6.03045">
        <ele>385.15</ele>
        <time>2012-02-28T12:27:39Z</time>
      </trkpt>
      <trkpt lat="43.55423" lon="6.03042">
        <ele>384.18</ele>
        <time>2012-02-28T12:27:49Z</time>
      </trkpt>
      <trkpt lat="43.55428" lon="6.03041">
        <ele>382.74</ele>
        <time>2012-02-28T12:27:54Z</time>
      </trkpt>
      <trkpt lat="43.55449" lon="6.03043">
        <ele>380.34</ele>
        <time>2012-02-28T12:28:15Z</time>
      </trkpt>
      <trkpt lat="43.55464" lon="6.03042">
        <ele>379.86</ele>
        <time>2012-02-28T12:28:29Z</time>
      </trkpt>
      <trkpt lat="43.55479" lon="6.03043">
        <ele>376.97</ele>
        <time>2012-02-28T12:28:45Z</time>
      </trkpt>
      <trkpt lat="43.55491" lon="6.03045">
        <ele>371.21</ele>
        <time>2012-02-28T12:29:00Z</time>
      </trkpt>
      <trkpt lat="43.55511" lon="6.03047">
        <ele>368.8</ele>
        <time>2012-02-28T12:29:20Z</time>
      </trkpt>
      <trkpt lat="43.55526" lon="6.03048">
        <ele>365.92</ele>
        <time>2012-02-28T12:29:38Z</time>
      </trkpt>
      <trkpt lat="43.55544" lon="6.03049">
        <ele>362.07</ele>
        <time>2012-02-28T12:29:58Z</time>
      </trkpt>
      <trkpt lat="43.55564" lon="6.03052">
        <ele>360.63</ele>
        <time>2012-02-28T12:30:19Z</time>
      </trkpt>
      <trkpt lat="43.55573" lon="6.03053">
        <ele>358.71</ele>
        <time>2012-02-28T12:30:29Z</time>
      </trkpt>
      <trkpt lat="43.55598" lon="6.03054">
        <ele>357.27</ele>
        <time>2012-02-28T12:30:50Z</time>
      </trkpt>
      <trkpt lat="43.55604" lon="6.03056">
        <ele>356.79</ele>
        <time>2012-02-28T12:30:57Z</time>
      </trkpt>
      <trkpt lat="43.55617" lon="6.03059">
        <ele>357.27</ele>
        <time>2012-02-28T12:31:16Z</time>
      </trkpt>
      <trkpt lat="43.55626" lon="6.0306">
        <ele>357.75</ele>
        <time>2012-02-28T12:31:33Z</time>
      </trkpt>
      <trkpt lat="43.55638" lon="6.0306">
        <ele>357.75</ele>
        <time>2012-02-28T12:31:43Z</time>
      </trkpt>
      <trkpt lat="43.55644" lon="6.03057">
        <ele>356.79</ele>
        <time>2012-02-28T12:31:52Z</time>
      </trkpt>
      <trkpt lat="43.55657" lon="6.03046">
        <ele>354.86</ele>
        <time>2012-02-28T12:32:09Z</time>
      </trkpt>
      <trkpt lat="43.55664" lon="6.03042">
        <ele>354.86</ele>
        <time>2012-02-28T12:32:17Z</time>
      </trkpt>
      <trkpt lat="43.55673" lon="6.03035">
        <ele>354.38</ele>
        <time>2012-02-28T12:32:28Z</time>
      </trkpt>
      <trkpt lat="43.55688" lon="6.03025">
        <ele>352.94</ele>
        <time>2012-02-28T12:32:45Z</time>
      </trkpt>
      <trkpt lat="43.55707" lon="6.03015">
        <ele>350.06</ele>
        <time>2012-02-28T12:33:03Z</time>
      </trkpt>
      <trkpt lat="43.55723" lon="6.03003">
        <ele>346.69</ele>
        <time>2012-02-28T12:33:23Z</time>
      </trkpt>
      <trkpt lat="43.55732" lon="6.02999">
        <ele>345.73</ele>
        <time>2012-02-28T12:33:30Z</time>
      </trkpt>
      <trkpt lat="43.55748" lon="6.02988">
        <ele>341.89</ele>
        <time>2012-02-28T12:33:48Z</time>
      </trkpt>
      <trkpt lat="43.55759" lon="6.02982">
        <ele>340.44</ele>
        <time>2012-02-28T12:33:59Z</time>
      </trkpt>
      <trkpt lat="43.55762" lon="6.0298">
        <ele>339.48</ele>
        <time>2012-02-28T12:34:02Z</time>
      </trkpt>
      <trkpt lat="43.55767" lon="6.02975">
        <ele>339</ele>
        <time>2012-02-28T12:34:09Z</time>
      </trkpt>
      <trkpt lat="43.55786" lon="6.02964">
        <ele>338.04</ele>
        <time>2012-02-28T12:34:27Z</time>
      </trkpt>
      <trkpt lat="43.55804" lon="6.02955">
        <ele>338.04</ele>
        <time>2012-02-28T12:34:46Z</time>
      </trkpt>
      <trkpt lat="43.55807" lon="6.02954">
        <ele>337.56</ele>
        <time>2012-02-28T12:34:49Z</time>
      </trkpt>
      <trkpt lat="43.55809" lon="6.02953">
        <ele>338.52</ele>
        <time>2012-02-28T12:34:51Z</time>
      </trkpt>
      <trkpt lat="43.55812" lon="6.02953">
        <ele>339</ele>
        <time>2012-02-28T12:34:54Z</time>
      </trkpt>
      <trkpt lat="43.55815" lon="6.02951">
        <ele>338.04</ele>
        <time>2012-02-28T12:34:57Z</time>
      </trkpt>
      <trkpt lat="43.55818" lon="6.02949">
        <ele>337.08</ele>
        <time>2012-02-28T12:35:00Z</time>
      </trkpt>
      <trkpt lat="43.55822" lon="6.02949">
        <ele>336.6</ele>
        <time>2012-02-28T12:35:05Z</time>
      </trkpt>
      <trkpt lat="43.55837" lon="6.02931">
        <ele>334.68</ele>
        <time>2012-02-28T12:35:24Z</time>
      </trkpt>
      <trkpt lat="43.55839" lon="6.02929">
        <ele>334.2</ele>
        <time>2012-02-28T12:35:28Z</time>
      </trkpt>
      <trkpt lat="43.55846" lon="6.02926">
        <ele>334.2</ele>
        <time>2012-02-28T12:35:35Z</time>
      </trkpt>
      <trkpt lat="43.55853" lon="6.02922">
        <ele>333.71</ele>
        <time>2012-02-28T12:35:42Z</time>
      </trkpt>
      <trkpt lat="43.5587" lon="6.02913">
        <ele>333.23</ele>
        <time>2012-02-28T12:36:00Z</time>
      </trkpt>
      <trkpt lat="43.55872" lon="6.02912">
        <ele>332.75</ele>
        <time>2012-02-28T12:36:02Z</time>
      </trkpt>
      <trkpt lat="43.55874" lon="6.0291">
        <ele>332.27</ele>
        <time>2012-02-28T12:36:05Z</time>
      </trkpt>
      <trkpt lat="43.55889" lon="6.02902">
        <ele>332.27</ele>
        <time>2012-02-28T12:36:21Z</time>
      </trkpt>
      <trkpt lat="43.55905" lon="6.0289">
        <ele>330.83</ele>
        <time>2012-02-28T12:36:39Z</time>
      </trkpt>
      <trkpt lat="43.55908" lon="6.02889">
        <ele>331.31</ele>
        <time>2012-02-28T12:36:41Z</time>
      </trkpt>
      <trkpt lat="43.55924" lon="6.0288">
        <ele>329.87</ele>
        <time>2012-02-28T12:36:58Z</time>
      </trkpt>
      <trkpt lat="43.55938" lon="6.0287">
        <ele>329.39</ele>
        <time>2012-02-28T12:37:14Z</time>
      </trkpt>
      <trkpt lat="43.55952" lon="6.02862">
        <ele>329.39</ele>
        <time>2012-02-28T12:37:28Z</time>
      </trkpt>
      <trkpt lat="43.55955" lon="6.02859">
        <ele>329.39</ele>
        <time>2012-02-28T12:37:32Z</time>
      </trkpt>
      <trkpt lat="43.55971" lon="6.02851">
        <ele>330.35</ele>
        <time>2012-02-28T12:37:48Z</time>
      </trkpt>
      <trkpt lat="43.5598" lon="6.02844">
        <ele>329.39</ele>
        <time>2012-02-28T12:37:59Z</time>
      </trkpt>
      <trkpt lat="43.55991" lon="6.0284">
        <ele>330.83</ele>
        <time>2012-02-28T12:38:09Z</time>
      </trkpt>
      <trkpt lat="43.55992" lon="6.02837">
        <ele>329.87</ele>
        <time>2012-02-28T12:38:13Z</time>
      </trkpt>
      <trkpt lat="43.56007" lon="6.02826">
        <ele>326.5</ele>
        <time>2012-02-28T12:38:32Z</time>
      </trkpt>
      <trkpt lat="43.56021" lon="6.02817">
        <ele>324.1</ele>
        <time>2012-02-28T12:38:51Z</time>
      </trkpt>
      <trkpt lat="43.56022" lon="6.02814">
        <ele>323.62</ele>
        <time>2012-02-28T12:39:06Z</time>
      </trkpt>
      <trkpt lat="43.56022" lon="6.02813">
        <ele>324.58</ele>
        <time>2012-02-28T12:39:22Z</time>
      </trkpt>
      <trkpt lat="43.56024" lon="6.02807">
        <ele>325.06</ele>
        <time>2012-02-28T12:39:37Z</time>
      </trkpt>
      <trkpt lat="43.56024" lon="6.02807">
        <ele>325.06</ele>
        <time>2012-02-28T12:39:39Z</time>
      </trkpt>
      <trkpt lat="43.56025" lon="6.02802">
        <ele>325.06</ele>
        <time>2012-02-28T12:39:43Z</time>
      </trkpt>
      <trkpt lat="43.56028" lon="6.02788">
        <ele>324.58</ele>
        <time>2012-02-28T12:39:58Z</time>
      </trkpt>
      <trkpt lat="43.56027" lon="6.02775">
        <ele>325.06</ele>
        <time>2012-02-28T12:40:06Z</time>
      </trkpt>
      <trkpt lat="43.56029" lon="6.0275">
        <ele>328.91</ele>
        <time>2012-02-28T12:40:22Z</time>
      </trkpt>
      <trkpt lat="43.56029" lon="6.02729">
        <ele>325.54</ele>
        <time>2012-02-28T12:40:36Z</time>
      </trkpt>
      <trkpt lat="43.56028" lon="6.02716">
        <ele>323.62</ele>
        <time>2012-02-28T12:40:46Z</time>
      </trkpt>
      <trkpt lat="43.56027" lon="6.02711">
        <ele>323.62</ele>
        <time>2012-02-28T12:40:49Z</time>
      </trkpt>
      <trkpt lat="43.56028" lon="6.02693">
        <ele>322.66</ele>
        <time>2012-02-28T12:41:02Z</time>
      </trkpt>
      <trkpt lat="43.56031" lon="6.02672">
        <ele>325.54</ele>
        <time>2012-02-28T12:41:18Z</time>
      </trkpt>
      <trkpt lat="43.56033" lon="6.02657">
        <ele>326.5</ele>
        <time>2012-02-28T12:41:29Z</time>
      </trkpt>
      <trkpt lat="43.56035" lon="6.02633">
        <ele>326.02</ele>
        <time>2012-02-28T12:41:46Z</time>
      </trkpt>
      <trkpt lat="43.56035" lon="6.02615">
        <ele>326.02</ele>
        <time>2012-02-28T12:42:02Z</time>
      </trkpt>
      <trkpt lat="43.56036" lon="6.026">
        <ele>325.54</ele>
        <time>2012-02-28T12:42:14Z</time>
      </trkpt>
      <trkpt lat="43.56037" lon="6.02595">
        <ele>325.54</ele>
        <time>2012-02-28T12:42:19Z</time>
      </trkpt>
      <trkpt lat="43.56037" lon="6.02588">
        <ele>324.58</ele>
        <time>2012-02-28T12:42:23Z</time>
      </trkpt>
      <trkpt lat="43.56038" lon="6.02566">
        <ele>323.14</ele>
        <time>2012-02-28T12:42:38Z</time>
      </trkpt>
      <trkpt lat="43.56036" lon="6.02541">
        <ele>326.5</ele>
        <time>2012-02-28T12:42:54Z</time>
      </trkpt>
      <trkpt lat="43.56037" lon="6.02535">
        <ele>327.47</ele>
        <time>2012-02-28T12:43:12Z</time>
      </trkpt>
      <trkpt lat="43.56036" lon="6.02518">
        <ele>328.91</ele>
        <time>2012-02-28T12:43:27Z</time>
      </trkpt>
      <trkpt lat="43.56036" lon="6.02517">
        <ele>328.91</ele>
        <time>2012-02-28T12:43:28Z</time>
      </trkpt>
      <trkpt lat="43.56035" lon="6.02508">
        <ele>329.39</ele>
        <time>2012-02-28T12:43:33Z</time>
      </trkpt>
      <trkpt lat="43.56035" lon="6.02503">
        <ele>330.35</ele>
        <time>2012-02-28T12:43:36Z</time>
      </trkpt>
      <trkpt lat="43.56032" lon="6.02484">
        <ele>331.79</ele>
        <time>2012-02-28T12:43:51Z</time>
      </trkpt>
      <trkpt lat="43.5603" lon="6.02468">
        <ele>329.87</ele>
        <time>2012-02-28T12:44:03Z</time>
      </trkpt>
      <trkpt lat="43.56028" lon="6.02457">
        <ele>331.31</ele>
        <time>2012-02-28T12:44:12Z</time>
      </trkpt>
      <trkpt lat="43.56024" lon="6.02439">
        <ele>332.75</ele>
        <time>2012-02-28T12:44:27Z</time>
      </trkpt>
      <trkpt lat="43.56023" lon="6.02431">
        <ele>333.23</ele>
        <time>2012-02-28T12:44:33Z</time>
      </trkpt>
      <trkpt lat="43.56021" lon="6.02425">
        <ele>331.79</ele>
        <time>2012-02-28T12:44:38Z</time>
      </trkpt>
      <trkpt lat="43.5602" lon="6.0242">
        <ele>330.35</ele>
        <time>2012-02-28T12:44:41Z</time>
      </trkpt>
      <trkpt lat="43.56012" lon="6.024">
        <ele>325.54</ele>
        <time>2012-02-28T12:44:56Z</time>
      </trkpt>
      <trkpt lat="43.56005" lon="6.02382">
        <ele>325.54</ele>
        <time>2012-02-28T12:45:11Z</time>
      </trkpt>
      <trkpt lat="43.55999" lon="6.02366">
        <ele>326.99</ele>
        <time>2012-02-28T12:45:25Z</time>
      </trkpt>
      <trkpt lat="43.55993" lon="6.02353">
        <ele>326.5</ele>
        <time>2012-02-28T12:45:37Z</time>
      </trkpt>
      <trkpt lat="43.55991" lon="6.0235">
        <ele>326.99</ele>
        <time>2012-02-28T12:45:39Z</time>
      </trkpt>
      <trkpt lat="43.55987" lon="6.0234">
        <ele>326.5</ele>
        <time>2012-02-28T12:45:45Z</time>
      </trkpt>
      <trkpt lat="43.55986" lon="6.02337">
        <ele>326.02</ele>
        <time>2012-02-28T12:45:48Z</time>
      </trkpt>
      <trkpt lat="43.5598" lon="6.02322">
        <ele>324.58</ele>
        <time>2012-02-28T12:46:01Z</time>
      </trkpt>
      <trkpt lat="43.55973" lon="6.02308">
        <ele>325.54</ele>
        <time>2012-02-28T12:46:14Z</time>
      </trkpt>
      <trkpt lat="43.55973" lon="6.02306">
        <ele>326.02</ele>
        <time>2012-02-28T12:46:18Z</time>
      </trkpt>
      <trkpt lat="43.55961" lon="6.02281">
        <ele>328.91</ele>
        <time>2012-02-28T12:46:36Z</time>
      </trkpt>
      <trkpt lat="43.55958" lon="6.02281">
        <ele>327.95</ele>
        <time>2012-02-28T12:46:52Z</time>
      </trkpt>
      <trkpt lat="43.55953" lon="6.0227">
        <ele>327.95</ele>
        <time>2012-02-28T12:47:07Z</time>
      </trkpt>
      <trkpt lat="43.55946" lon="6.02254">
        <ele>326.02</ele>
        <time>2012-02-28T12:47:19Z</time>
      </trkpt>
      <trkpt lat="43.55939" lon="6.02238">
        <ele>324.58</ele>
        <time>2012-02-28T12:47:32Z</time>
      </trkpt>
      <trkpt lat="43.55938" lon="6.02236">
        <ele>324.1</ele>
        <time>2012-02-28T12:47:34Z</time>
      </trkpt>
      <trkpt lat="43.55934" lon="6.02227">
        <ele>321.22</ele>
        <time>2012-02-28T12:47:42Z</time>
      </trkpt>
      <trkpt lat="43.55927" lon="6.02213">
        <ele>320.74</ele>
        <time>2012-02-28T12:47:55Z</time>
      </trkpt>
      <trkpt lat="43.55923" lon="6.02199">
        <ele>326.02</ele>
        <time>2012-02-28T12:48:06Z</time>
      </trkpt>
      <trkpt lat="43.55916" lon="6.02184">
        <ele>326.02</ele>
        <time>2012-02-28T12:48:21Z</time>
      </trkpt>
      <trkpt lat="43.55911" lon="6.02175">
        <ele>323.14</ele>
        <time>2012-02-28T12:48:34Z</time>
      </trkpt>
      <trkpt lat="43.55912" lon="6.02174">
        <ele>324.1</ele>
        <time>2012-02-28T12:48:41Z</time>
      </trkpt>
      <trkpt lat="43.55907" lon="6.02162">
        <ele>325.54</ele>
        <time>2012-02-28T12:48:52Z</time>
      </trkpt>
      <trkpt lat="43.55903" lon="6.02152">
        <ele>325.06</ele>
        <time>2012-02-28T12:48:59Z</time>
      </trkpt>
      <trkpt lat="43.55901" lon="6.02147">
        <ele>325.54</ele>
        <time>2012-02-28T12:49:02Z</time>
      </trkpt>
      <trkpt lat="43.55896" lon="6.02126">
        <ele>325.06</ele>
        <time>2012-02-28T12:49:17Z</time>
      </trkpt>
      <trkpt lat="43.55893" lon="6.02111">
        <ele>325.54</ele>
        <time>2012-02-28T12:49:29Z</time>
      </trkpt>
      <trkpt lat="43.55891" lon="6.021">
        <ele>326.99</ele>
        <time>2012-02-28T12:49:37Z</time>
      </trkpt>
      <trkpt lat="43.5589" lon="6.02092">
        <ele>326.5</ele>
        <time>2012-02-28T12:49:45Z</time>
      </trkpt>
      <trkpt lat="43.55889" lon="6.02084">
        <ele>325.54</ele>
        <time>2012-02-28T12:49:51Z</time>
      </trkpt>
      <trkpt lat="43.55888" lon="6.02079">
        <ele>324.58</ele>
        <time>2012-02-28T12:49:55Z</time>
      </trkpt>
      <trkpt lat="43.55887" lon="6.02069">
        <ele>323.62</ele>
        <time>2012-02-28T12:50:06Z</time>
      </trkpt>
      <trkpt lat="43.55887" lon="6.02059">
        <ele>321.7</ele>
        <time>2012-02-28T12:50:24Z</time>
      </trkpt>
      <trkpt lat="43.55887" lon="6.02044">
        <ele>322.18</ele>
        <time>2012-02-28T12:50:33Z</time>
      </trkpt>
      <trkpt lat="43.55886" lon="6.02041">
        <ele>323.62</ele>
        <time>2012-02-28T12:50:41Z</time>
      </trkpt>
      <trkpt lat="43.55889" lon="6.0202">
        <ele>324.1</ele>
        <time>2012-02-28T12:50:56Z</time>
      </trkpt>
      <trkpt lat="43.55893" lon="6.01999">
        <ele>322.18</ele>
        <time>2012-02-28T12:51:12Z</time>
      </trkpt>
      <trkpt lat="43.55899" lon="6.01964">
        <ele>318.81</ele>
        <time>2012-02-28T12:51:36Z</time>
      </trkpt>
      <trkpt lat="43.55902" lon="6.01952">
        <ele>318.81</ele>
        <time>2012-02-28T12:51:46Z</time>
      </trkpt>
      <trkpt lat="43.55907" lon="6.01934">
        <ele>320.74</ele>
        <time>2012-02-28T12:52:00Z</time>
      </trkpt>
      <trkpt lat="43.55915" lon="6.01909">
        <ele>319.78</ele>
        <time>2012-02-28T12:52:19Z</time>
      </trkpt>
      <trkpt lat="43.55918" lon="6.01894">
        <ele>318.81</ele>
        <time>2012-02-28T12:52:30Z</time>
      </trkpt>
      <trkpt lat="43.55918" lon="6.01891">
        <ele>317.85</ele>
        <time>2012-02-28T12:52:32Z</time>
      </trkpt>
      <trkpt lat="43.55919" lon="6.01885">
        <ele>317.37</ele>
        <time>2012-02-28T12:52:37Z</time>
      </trkpt>
      <trkpt lat="43.55923" lon="6.01866">
        <ele>316.41</ele>
        <time>2012-02-28T12:52:51Z</time>
      </trkpt>
      <trkpt lat="43.55926" lon="6.01858">
        <ele>317.37</ele>
        <time>2012-02-28T12:52:57Z</time>
      </trkpt>
      <trkpt lat="43.55927" lon="6.01856">
        <ele>317.85</ele>
        <time>2012-02-28T12:52:59Z</time>
      </trkpt>
      <trkpt lat="43.5593" lon="6.0185">
        <ele>318.81</ele>
        <time>2012-02-28T12:53:03Z</time>
      </trkpt>
      <trkpt lat="43.5593" lon="6.01846">
        <ele>319.78</ele>
        <time>2012-02-28T12:53:07Z</time>
      </trkpt>
      <trkpt lat="43.55933" lon="6.01838">
        <ele>321.7</ele>
        <time>2012-02-28T12:53:13Z</time>
      </trkpt>
      <trkpt lat="43.55938" lon="6.01832">
        <ele>322.18</ele>
        <time>2012-02-28T12:53:30Z</time>
      </trkpt>
      <trkpt lat="43.55948" lon="6.01814">
        <ele>324.1</ele>
        <time>2012-02-28T12:53:48Z</time>
      </trkpt>
      <trkpt lat="43.5594" lon="6.01813">
        <ele>324.1</ele>
        <time>2012-02-28T12:54:13Z</time>
      </trkpt>
      <trkpt lat="43.55941" lon="6.01815">
        <ele>324.1</ele>
        <time>2012-02-28T12:54:22Z</time>
      </trkpt>
      <trkpt lat="43.55944" lon="6.01817">
        <ele>325.54</ele>
        <time>2012-02-28T12:54:25Z</time>
      </trkpt>
      <trkpt lat="43.55956" lon="6.01815">
        <ele>325.06</ele>
        <time>2012-02-28T12:54:35Z</time>
      </trkpt>
      <trkpt lat="43.55959" lon="6.01813">
        <ele>323.62</ele>
        <time>2012-02-28T12:54:38Z</time>
      </trkpt>
      <trkpt lat="43.55967" lon="6.0181">
        <ele>323.62</ele>
        <time>2012-02-28T12:54:46Z</time>
      </trkpt>
      <trkpt lat="43.55976" lon="6.01798">
        <ele>323.62</ele>
        <time>2012-02-28T12:55:03Z</time>
      </trkpt>
      <trkpt lat="43.55977" lon="6.01792">
        <ele>324.1</ele>
        <time>2012-02-28T12:55:08Z</time>
      </trkpt>
      <trkpt lat="43.55979" lon="6.01786">
        <ele>324.1</ele>
        <time>2012-02-28T12:55:11Z</time>
      </trkpt>
      <trkpt lat="43.5598" lon="6.0178">
        <ele>324.1</ele>
        <time>2012-02-28T12:55:15Z</time>
      </trkpt>
      <trkpt lat="43.55983" lon="6.01773">
        <ele>324.58</ele>
        <time>2012-02-28T12:55:20Z</time>
      </trkpt>
      <trkpt lat="43.55984" lon="6.01768">
        <ele>325.54</ele>
        <time>2012-02-28T12:55:24Z</time>
      </trkpt>
      <trkpt lat="43.55989" lon="6.01746">
        <ele>324.58</ele>
        <time>2012-02-28T12:55:39Z</time>
      </trkpt>
      <trkpt lat="43.55994" lon="6.0173">
        <ele>324.1</ele>
        <time>2012-02-28T12:55:52Z</time>
      </trkpt>
      <trkpt lat="43.56001" lon="6.01707">
        <ele>322.66</ele>
        <time>2012-02-28T12:56:09Z</time>
      </trkpt>
      <trkpt lat="43.56" lon="6.01706">
        <ele>322.18</ele>
        <time>2012-02-28T12:56:10Z</time>
      </trkpt>
      <trkpt lat="43.56001" lon="6.01686">
        <ele>323.14</ele>
        <time>2012-02-28T12:56:26Z</time>
      </trkpt>
      <trkpt lat="43.56002" lon="6.01668">
        <ele>325.54</ele>
        <time>2012-02-28T12:56:39Z</time>
      </trkpt>
      <trkpt lat="43.56003" lon="6.01659">
        <ele>327.47</ele>
        <time>2012-02-28T12:56:45Z</time>
      </trkpt>
      <trkpt lat="43.56001" lon="6.01643">
        <ele>327.47</ele>
        <time>2012-02-28T12:56:57Z</time>
      </trkpt>
      <trkpt lat="43.56" lon="6.01621">
        <ele>328.43</ele>
        <time>2012-02-28T12:57:12Z</time>
      </trkpt>
      <trkpt lat="43.55995" lon="6.01599">
        <ele>323.62</ele>
        <time>2012-02-28T12:57:27Z</time>
      </trkpt>
      <trkpt lat="43.55994" lon="6.01591">
        <ele>322.66</ele>
        <time>2012-02-28T12:57:32Z</time>
      </trkpt>
      <trkpt lat="43.55988" lon="6.01576">
        <ele>320.26</ele>
        <time>2012-02-28T12:57:43Z</time>
      </trkpt>
      <trkpt lat="43.5598" lon="6.01551">
        <ele>320.74</ele>
        <time>2012-02-28T12:57:59Z</time>
      </trkpt>
      <trkpt lat="43.55975" lon="6.01537">
        <ele>322.66</ele>
        <time>2012-02-28T12:58:17Z</time>
      </trkpt>
      <trkpt lat="43.55967" lon="6.01518">
        <ele>324.1</ele>
        <time>2012-02-28T12:58:30Z</time>
      </trkpt>
      <trkpt lat="43.55966" lon="6.01513">
        <ele>324.1</ele>
        <time>2012-02-28T12:58:34Z</time>
      </trkpt>
      <trkpt lat="43.55965" lon="6.01509">
        <ele>324.58</ele>
        <time>2012-02-28T12:58:37Z</time>
      </trkpt>
      <trkpt lat="43.55958" lon="6.01491">
        <ele>323.14</ele>
        <time>2012-02-28T12:58:53Z</time>
      </trkpt>
      <trkpt lat="43.55949" lon="6.01475">
        <ele>324.58</ele>
        <time>2012-02-28T12:59:06Z</time>
      </trkpt>
      <trkpt lat="43.55949" lon="6.01475">
        <ele>324.58</ele>
        <time>2012-02-28T12:59:07Z</time>
      </trkpt>
      <trkpt lat="43.55945" lon="6.0146">
        <ele>325.54</ele>
        <time>2012-02-28T12:59:24Z</time>
      </trkpt>
      <trkpt lat="43.55931" lon="6.01448">
        <ele>325.54</ele>
        <time>2012-02-28T12:59:41Z</time>
      </trkpt>
      <trkpt lat="43.55923" lon="6.01439">
        <ele>326.5</ele>
        <time>2012-02-28T12:59:48Z</time>
      </trkpt>
      <trkpt lat="43.55915" lon="6.01428">
        <ele>327.47</ele>
        <time>2012-02-28T12:59:56Z</time>
      </trkpt>
      <trkpt lat="43.55906" lon="6.01415">
        <ele>325.54</ele>
        <time>2012-02-28T13:00:10Z</time>
      </trkpt>
      <trkpt lat="43.55907" lon="6.01409">
        <ele>322.66</ele>
        <time>2012-02-28T13:00:26Z</time>
      </trkpt>
      <trkpt lat="43.55909" lon="6.01409">
        <ele>323.14</ele>
        <time>2012-02-28T13:00:58Z</time>
      </trkpt>
      <trkpt lat="43.55908" lon="6.01402">
        <ele>322.66</ele>
        <time>2012-02-28T13:01:05Z</time>
      </trkpt>
      <trkpt lat="43.55908" lon="6.01398">
        <ele>323.14</ele>
        <time>2012-02-28T13:01:07Z</time>
      </trkpt>
      <trkpt lat="43.55908" lon="6.01386">
        <ele>321.7</ele>
        <time>2012-02-28T13:01:18Z</time>
      </trkpt>
      <trkpt lat="43.55908" lon="6.01364">
        <ele>318.33</ele>
        <time>2012-02-28T13:01:36Z</time>
      </trkpt>
      <trkpt lat="43.55909" lon="6.01363">
        <ele>318.33</ele>
        <time>2012-02-28T13:01:37Z</time>
      </trkpt>
      <trkpt lat="43.55908" lon="6.01357">
        <ele>318.81</ele>
        <time>2012-02-28T13:01:41Z</time>
      </trkpt>
      <trkpt lat="43.55907" lon="6.01348">
        <ele>318.81</ele>
        <time>2012-02-28T13:01:54Z</time>
      </trkpt>
      <trkpt lat="43.55909" lon="6.01345">
        <ele>317.85</ele>
        <time>2012-02-28T13:01:56Z</time>
      </trkpt>
      <trkpt lat="43.55911" lon="6.0134">
        <ele>317.85</ele>
        <time>2012-02-28T13:01:59Z</time>
      </trkpt>
      <trkpt lat="43.55915" lon="6.01319">
        <ele>315.93</ele>
        <time>2012-02-28T13:02:12Z</time>
      </trkpt>
      <trkpt lat="43.55915" lon="6.01315">
        <ele>315.45</ele>
        <time>2012-02-28T13:02:14Z</time>
      </trkpt>
      <trkpt lat="43.5592" lon="6.01301">
        <ele>312.09</ele>
        <time>2012-02-28T13:02:28Z</time>
      </trkpt>
      <trkpt lat="43.55924" lon="6.01288">
        <ele>303.91</ele>
        <time>2012-02-28T13:02:40Z</time>
      </trkpt>
      <trkpt lat="43.55929" lon="6.0127">
        <ele>309.2</ele>
        <time>2012-02-28T13:02:55Z</time>
      </trkpt>
      <trkpt lat="43.55931" lon="6.01264">
        <ele>311.12</ele>
        <time>2012-02-28T13:03:00Z</time>
      </trkpt>
      <trkpt lat="43.55934" lon="6.01259">
        <ele>311.6</ele>
        <time>2012-02-28T13:03:04Z</time>
      </trkpt>
      <trkpt lat="43.55937" lon="6.01243">
        <ele>307.76</ele>
        <time>2012-02-28T13:03:26Z</time>
      </trkpt>
      <trkpt lat="43.55949" lon="6.01231">
        <ele>304.88</ele>
        <time>2012-02-28T13:03:40Z</time>
      </trkpt>
      <trkpt lat="43.55954" lon="6.01224">
        <ele>305.84</ele>
        <time>2012-02-28T13:03:45Z</time>
      </trkpt>
      <trkpt lat="43.55957" lon="6.01221">
        <ele>309.68</ele>
        <time>2012-02-28T13:03:50Z</time>
      </trkpt>
      <trkpt lat="43.55959" lon="6.01219">
        <ele>310.64</ele>
        <time>2012-02-28T13:03:53Z</time>
      </trkpt>
      <trkpt lat="43.55961" lon="6.01217">
        <ele>311.12</ele>
        <time>2012-02-28T13:03:55Z</time>
      </trkpt>
      <trkpt lat="43.55972" lon="6.01202">
        <ele>313.05</ele>
        <time>2012-02-28T13:04:10Z</time>
      </trkpt>
      <trkpt lat="43.55977" lon="6.01196">
        <ele>312.57</ele>
        <time>2012-02-28T13:04:25Z</time>
      </trkpt>
      <trkpt lat="43.55979" lon="6.01194">
        <ele>312.57</ele>
        <time>2012-02-28T13:04:27Z</time>
      </trkpt>
      <trkpt lat="43.5599" lon="6.01185">
        <ele>311.6</ele>
        <time>2012-02-28T13:04:40Z</time>
      </trkpt>
      <trkpt lat="43.56" lon="6.01175">
        <ele>314.49</ele>
        <time>2012-02-28T13:04:53Z</time>
      </trkpt>
      <trkpt lat="43.56016" lon="6.01165">
        <ele>314.97</ele>
        <time>2012-02-28T13:05:11Z</time>
      </trkpt>
      <trkpt lat="43.56019" lon="6.01163">
        <ele>314.49</ele>
        <time>2012-02-28T13:05:14Z</time>
      </trkpt>
      <trkpt lat="43.56023" lon="6.0116">
        <ele>314.49</ele>
        <time>2012-02-28T13:05:18Z</time>
      </trkpt>
      <trkpt lat="43.56036" lon="6.01156">
        <ele>313.53</ele>
        <time>2012-02-28T13:05:31Z</time>
      </trkpt>
      <trkpt lat="43.56054" lon="6.01144">
        <ele>312.57</ele>
        <time>2012-02-28T13:05:50Z</time>
      </trkpt>
      <trkpt lat="43.56053" lon="6.01127">
        <ele>311.6</ele>
        <time>2012-02-28T13:06:03Z</time>
      </trkpt>
      <trkpt lat="43.56046" lon="6.01118">
        <ele>311.12</ele>
        <time>2012-02-28T13:06:08Z</time>
      </trkpt>
      <trkpt lat="43.56047" lon="6.01119">
        <ele>310.64</ele>
        <time>2012-02-28T13:06:10Z</time>
      </trkpt>
      <trkpt lat="43.56047" lon="6.01112">
        <ele>309.68</ele>
        <time>2012-02-28T13:06:15Z</time>
      </trkpt>
      <trkpt lat="43.56042" lon="6.01093">
        <ele>307.28</ele>
        <time>2012-02-28T13:06:34Z</time>
      </trkpt>
      <trkpt lat="43.56042" lon="6.01092">
        <ele>307.28</ele>
        <time>2012-02-28T13:06:35Z</time>
      </trkpt>
      <trkpt lat="43.56038" lon="6.01086">
        <ele>306.8</ele>
        <time>2012-02-28T13:06:40Z</time>
      </trkpt>
      <trkpt lat="43.56034" lon="6.01075">
        <ele>306.32</ele>
        <time>2012-02-28T13:06:49Z</time>
      </trkpt>
      <trkpt lat="43.56033" lon="6.01071">
        <ele>305.84</ele>
        <time>2012-02-28T13:06:52Z</time>
      </trkpt>
      <trkpt lat="43.56032" lon="6.0106">
        <ele>304.39</ele>
        <time>2012-02-28T13:07:04Z</time>
      </trkpt>
      <trkpt lat="43.56021" lon="6.01048">
        <ele>301.99</ele>
        <time>2012-02-28T13:07:12Z</time>
      </trkpt>
      <trkpt lat="43.56016" lon="6.01041">
        <ele>301.03</ele>
        <time>2012-02-28T13:07:20Z</time>
      </trkpt>
      <trkpt lat="43.56015" lon="6.01038">
        <ele>302.47</ele>
        <time>2012-02-28T13:07:30Z</time>
      </trkpt>
      <trkpt lat="43.56013" lon="6.01037">
        <ele>302.95</ele>
        <time>2012-02-28T13:07:35Z</time>
      </trkpt>
      <trkpt lat="43.56009" lon="6.01033">
        <ele>303.91</ele>
        <time>2012-02-28T13:07:42Z</time>
      </trkpt>
      <trkpt lat="43.56007" lon="6.01032">
        <ele>303.91</ele>
        <time>2012-02-28T13:07:44Z</time>
      </trkpt>
      <trkpt lat="43.56001" lon="6.01023">
        <ele>305.36</ele>
        <time>2012-02-28T13:07:54Z</time>
      </trkpt>
      <trkpt lat="43.55997" lon="6.01006">
        <ele>304.88</ele>
        <time>2012-02-28T13:08:04Z</time>
      </trkpt>
      <trkpt lat="43.55999" lon="6.00994">
        <ele>303.43</ele>
        <time>2012-02-28T13:08:12Z</time>
      </trkpt>
      <trkpt lat="43.55995" lon="6.00984">
        <ele>302.47</ele>
        <time>2012-02-28T13:08:17Z</time>
      </trkpt>
      <trkpt lat="43.55984" lon="6.00959">
        <ele>300.55</ele>
        <time>2012-02-28T13:08:38Z</time>
      </trkpt>
      <trkpt lat="43.5597" lon="6.00935">
        <ele>299.11</ele>
        <time>2012-02-28T13:09:00Z</time>
      </trkpt>
      <trkpt lat="43.55965" lon="6.00926">
        <ele>298.15</ele>
        <time>2012-02-28T13:09:16Z</time>
      </trkpt>
      <trkpt lat="43.5595" lon="6.00899">
        <ele>296.22</ele>
        <time>2012-02-28T13:09:42Z</time>
      </trkpt>
      <trkpt lat="43.55935" lon="6.0087">
        <ele>295.74</ele>
        <time>2012-02-28T13:10:05Z</time>
      </trkpt>
      <trkpt lat="43.55933" lon="6.00866">
        <ele>295.74</ele>
        <time>2012-02-28T13:10:08Z</time>
      </trkpt>
      <trkpt lat="43.55925" lon="6.00843">
        <ele>295.26</ele>
        <time>2012-02-28T13:10:27Z</time>
      </trkpt>
      <trkpt lat="43.55907" lon="6.00817">
        <ele>294.78</ele>
        <time>2012-02-28T13:10:53Z</time>
      </trkpt>
      <trkpt lat="43.55893" lon="6.00784">
        <ele>292.38</ele>
        <time>2012-02-28T13:11:23Z</time>
      </trkpt>
      <trkpt lat="43.55888" lon="6.00767">
        <ele>294.78</ele>
        <time>2012-02-28T13:11:39Z</time>
      </trkpt>
      <trkpt lat="43.55887" lon="6.00762">
        <ele>296.22</ele>
        <time>2012-02-28T13:11:46Z</time>
      </trkpt>
      <trkpt lat="43.55883" lon="6.00754">
        <ele>295.74</ele>
        <time>2012-02-28T13:11:55Z</time>
      </trkpt>
      <trkpt lat="43.55869" lon="6.00751">
        <ele>294.78</ele>
        <time>2012-02-28T13:12:09Z</time>
      </trkpt>
      <trkpt lat="43.55861" lon="6.00746">
        <ele>293.82</ele>
        <time>2012-02-28T13:12:22Z</time>
      </trkpt>
      <trkpt lat="43.55853" lon="6.00747">
        <ele>291.9</ele>
        <time>2012-02-28T13:12:30Z</time>
      </trkpt>
      <trkpt lat="43.55846" lon="6.00749">
        <ele>290.46</ele>
        <time>2012-02-28T13:12:41Z</time>
      </trkpt>
      <trkpt lat="43.55848" lon="6.00757">
        <ele>290.94</ele>
        <time>2012-02-28T13:13:01Z</time>
      </trkpt>
      <trkpt lat="43.55842" lon="6.00759">
        <ele>289.97</ele>
        <time>2012-02-28T13:13:11Z</time>
      </trkpt>
      <trkpt lat="43.55833" lon="6.00754">
        <ele>287.09</ele>
        <time>2012-02-28T13:13:29Z</time>
      </trkpt>
      <trkpt lat="43.55828" lon="6.00749">
        <ele>288.05</ele>
        <time>2012-02-28T13:13:44Z</time>
      </trkpt>
      <trkpt lat="43.55832" lon="6.00728">
        <ele>285.17</ele>
        <time>2012-02-28T13:13:59Z</time>
      </trkpt>
      <trkpt lat="43.55832" lon="6.00721">
        <ele>281.32</ele>
        <time>2012-02-28T13:14:05Z</time>
      </trkpt>
      <trkpt lat="43.55821" lon="6.00717">
        <ele>275.56</ele>
        <time>2012-02-28T13:14:27Z</time>
      </trkpt>
      <trkpt lat="43.55804" lon="6.00717">
        <ele>270.75</ele>
        <time>2012-02-28T13:14:48Z</time>
      </trkpt>
      <trkpt lat="43.55802" lon="6.00716">
        <ele>270.75</ele>
        <time>2012-02-28T13:14:51Z</time>
      </trkpt>
      <trkpt lat="43.5579" lon="6.00691">
        <ele>270.75</ele>
        <time>2012-02-28T13:15:16Z</time>
      </trkpt>
      <trkpt lat="43.55782" lon="6.00677">
        <ele>270.27</ele>
        <time>2012-02-28T13:15:30Z</time>
      </trkpt>
      <trkpt lat="43.55774" lon="6.00685">
        <ele>269.79</ele>
        <time>2012-02-28T13:15:46Z</time>
      </trkpt>
      <trkpt lat="43.55762" lon="6.0068">
        <ele>267.86</ele>
        <time>2012-02-28T13:16:04Z</time>
      </trkpt>
    </trkseg>
  </trk>
</gpx>